Provisional Data: South Branch Codorus Creek near Leader Heights, PA


Please select a monitoring station.
Please select start date.
Please select start date.

Toggle Unit: C/F Toggle Unit: C/F
Sample Time Temperature (C) Temperature (F) Specific Conductivity (mS/cm) pH   Turbidity (NTU+) DO (mg/L)
4/13/2022 12:00:00 AM 13.12 55.616 0.242 7.28 101.6 9.75
4/13/2022 12:15:00 AM 13.12 55.616 0.241 7.26 94.09 9.76
4/13/2022 12:30:00 AM 13.08 55.544 0.241 7.27 107.7 9.77
4/13/2022 12:45:00 AM 13.02 55.436 0.241 7.28 99.79 9.75
4/13/2022 1:00:00 AM 12.99 55.382 0.241 7.25 117.2 9.74
4/13/2022 1:15:00 AM 12.98 55.364 0.241 7.25 104.5 9.75
4/13/2022 1:30:00 AM 12.84 55.112 0.242 7.26 109.5 9.76
4/13/2022 1:45:00 AM 12.86 55.148 0.242 7.26 102.5 9.73
4/13/2022 2:00:00 AM 12.71 54.878 0.243 7.26 111.2 9.76
4/13/2022 2:15:00 AM 12.68 54.824 0.242 7.26 109.7 9.77
4/13/2022 2:30:00 AM 12.63 54.734 0.242 7.24 103.6 9.77
4/13/2022 2:45:00 AM 12.63 54.734 0.242 7.26 105.8 9.76
4/13/2022 3:00:00 AM 12.52 54.536 0.242 7.25 106.9 9.75
4/13/2022 3:15:00 AM 12.6 54.68 0.24 7.25 95.04 9.76
4/13/2022 3:30:00 AM 12.48 54.464 0.241 7.25 106.2 9.77
4/13/2022 3:45:00 AM 12.48 54.464 0.241 7.24 92.32 9.78
4/13/2022 4:00:00 AM 12.51 54.518 0.241 7.24 90.81 9.77
4/13/2022 4:15:00 AM 12.33 54.194 0.243 7.24 109.1 9.78
4/13/2022 4:30:00 AM 12.37 54.266 0.242 7.24 93.77 9.78
4/13/2022 4:45:00 AM 12.32 54.176 0.243 7.25 113.1 9.8
4/13/2022 5:00:00 AM 12.27 54.086 0.243 7.25 101.8 9.79
4/13/2022 5:15:00 AM 12.36 54.248 0.241 7.24 98.29 9.78
4/13/2022 5:30:00 AM 12.24 54.032 0.243 7.24 112 9.78
4/13/2022 5:45:00 AM 12.3 54.14 0.242 7.23 101.5 9.77
4/13/2022 6:00:00 AM 12.19 53.942 0.243 7.24 122.8 9.8
4/13/2022 6:15:00 AM 12.2 53.96 0.242 7.24 107.2 9.8
4/13/2022 6:30:00 AM 12.16 53.888 0.243 7.24 104.4 9.81
4/13/2022 6:45:00 AM 12.16 53.888 0.242 7.24 111.4 9.79
4/13/2022 7:00:00 AM 12.13 53.834 0.243 7.24 111.6 9.84
4/13/2022 7:15:00 AM 12.17 53.906 0.242 7.24 115.4 9.84
4/13/2022 7:30:00 AM 12.2 53.96 0.241 7.25 106.5 9.89
4/13/2022 7:45:00 AM 12.23 54.014 0.241 7.24 95.82 9.91
4/13/2022 8:00:00 AM 12.22 53.996 0.241 7.24 107.9 9.97
4/13/2022 8:15:00 AM 12.25 54.05 0.241 7.25 100.7 10.03
4/13/2022 8:30:00 AM 12.31 54.158 0.241 7.25 100 10.08
4/13/2022 8:45:00 AM 12.37 54.266 0.241 7.27 104.1 10.15
4/13/2022 9:00:00 AM 12.42 54.356 0.242 7.28 111.2 10.21
4/13/2022 9:15:00 AM 12.54 54.572 0.241 7.28 94.89 10.28
4/13/2022 9:30:00 AM 12.62 54.716 0.241 7.3 94.81 10.33
4/13/2022 9:45:00 AM 12.76 54.968 0.241 7.31 108 10.4
4/13/2022 10:00:00 AM 12.88 55.184 0.242 7.32 102.5 10.48
4/13/2022 10:15:00 AM 13.05 55.49 0.241 7.33 95.97 10.55
4/13/2022 10:30:00 AM 13.21 55.778 0.241 7.33 87.98 10.58
4/13/2022 10:45:00 AM 13.35 56.03 0.242 7.35 100.9 10.64
4/13/2022 11:00:00 AM 13.47 56.246 0.242 7.36 96.12 10.68
4/13/2022 11:15:00 AM 13.63 56.534 0.242 7.38 95.97 10.71
4/13/2022 11:30:00 AM 13.78 56.804 0.242 7.39 89.74 10.75
4/13/2022 11:45:00 AM 13.92 57.056 0.242 7.39 100.5 10.75
4/13/2022 12:00:00 PM 14.16 57.488 0.242 7.41 96.36 10.77
4/13/2022 12:15:00 PM 14.36 57.848 0.241 7.42 107.9 10.74
4/13/2022 12:30:00 PM 14.54 58.172 0.242 7.42 98.04 10.76
4/13/2022 12:45:00 PM 14.83 58.694 0.241 7.43 90.41 10.77
4/13/2022 1:00:00 PM 15.09 59.162 0.242 7.44 98.77 10.77
4/13/2022 1:15:00 PM 15.2 59.36 0.24 7.46 85.21 10.75
4/13/2022 1:30:00 PM 15.25 59.45 0.242 7.45 97.25 10.67
4/13/2022 1:45:00 PM 15.36 59.648 0.243 7.45 99.01 10.65
4/13/2022 2:00:00 PM 15.46 59.828 0.243 7.47 109.9 10.69
4/13/2022 2:15:00 PM 15.51 59.918 0.241 7.46 94.14 10.66
4/13/2022 2:30:00 PM 15.64 60.152 0.243 7.48 125.3 10.64
4/13/2022 2:45:00 PM 15.78 60.404 0.242 7.48 109.7 10.6
4/13/2022 3:00:00 PM 15.96 60.728 0.242 7.49 91.63 10.58
4/13/2022 3:15:00 PM 16.05 60.89 0.239 7.5 85.28 10.69
4/13/2022 3:30:00 PM 16.14 61.052 0.239 7.51 84.39 10.72
4/13/2022 3:45:00 PM 16.27 61.286 0.24 7.51 84.66 10.68
4/13/2022 4:00:00 PM 16.33 61.394 0.239 7.52 79.41 10.61
4/13/2022 4:15:00 PM 16.43 61.574 0.241 7.53 82.3 10.55
4/13/2022 4:30:00 PM 16.43 61.574 0.241 7.54 86.81 10.53
4/13/2022 4:45:00 PM 16.4 61.52 0.239 7.52 90.63 10.51
4/13/2022 5:00:00 PM 16.41 61.538 0.24 7.52 84.91 10.48
4/13/2022 5:15:00 PM 16.46 61.628 0.24 7.52 83.22 10.4
4/13/2022 5:30:00 PM 16.52 61.736 0.239 7.52 85.6 10.38
4/13/2022 5:45:00 PM 16.57 61.826 0.239 7.52 76.48 10.33
4/13/2022 6:00:00 PM 16.58 61.844 0.24 7.52 86.7 10.27
4/13/2022 6:15:00 PM 16.57 61.826 0.24 7.51 88.32 10.18
4/13/2022 6:30:00 PM 16.55 61.79 0.238 7.5 76.87 10.14
4/13/2022 6:45:00 PM 16.57 61.826 0.241 7.5 84.31 10.03
4/13/2022 7:00:00 PM 16.54 61.772 0.24 7.48 87.34 9.91
4/13/2022 7:15:00 PM 16.52 61.736 0.24 7.46 78.05 9.8
4/13/2022 7:30:00 PM 16.49 61.682 0.239 7.44 87.01 9.68
4/13/2022 7:45:00 PM 16.43 61.574 0.239 7.4 79.33 9.56
4/13/2022 8:00:00 PM 16.34 61.412 0.239 7.39 90.95 9.5
4/13/2022 8:15:00 PM 16.25 61.25 0.24 7.37 103.5 9.41
4/13/2022 8:30:00 PM 16.16 61.088 0.24 7.36 93.91 9.32
4/13/2022 8:45:00 PM 16.1 60.98 0.24 7.34 88.54 9.28
4/13/2022 9:00:00 PM 16.04 60.872 0.24 7.33 91.59 9.24
4/13/2022 9:15:00 PM 15.98 60.764 0.24 7.31 91.09 9.18
4/13/2022 9:30:00 PM 15.92 60.656 0.241 7.31 94 9.14
4/13/2022 9:45:00 PM 15.87 60.566 0.24 7.31 103.7 9.12
4/13/2022 10:00:00 PM 15.81 60.458 0.24 7.29 92.49 9.08
4/13/2022 10:15:00 PM 15.76 60.368 0.239 7.3 96.84 9.06
4/13/2022 10:30:00 PM 15.69 60.242 0.24 7.29 98.5 9.03
4/13/2022 10:45:00 PM 15.66 60.188 0.239 7.27 92.93 9.01
4/13/2022 11:00:00 PM 15.6 60.08 0.24 7.27 93.95 9
4/13/2022 11:15:00 PM 15.54 59.972 0.24 7.27 90.75 8.97
4/13/2022 11:30:00 PM 15.48 59.864 0.24 7.26 93.08 8.97
4/13/2022 11:45:00 PM 15.43 59.774 0.241 7.26 91.82 8.95
4/14/2022 12:00:00 AM 15.39 59.702 0.24 7.26 94.92 8.95
4/14/2022 12:15:00 AM 15.33 59.594 0.24 7.25 88.99 8.96
4/14/2022 12:30:00 AM 15.29 59.522 0.24 7.25 98.38 8.95
4/14/2022 12:45:00 AM 15.24 59.432 0.24 7.25 85.14 8.94
4/14/2022 1:00:00 AM 15.18 59.324 0.24 7.25 97.53 8.92
4/14/2022 1:15:00 AM 15.16 59.288 0.24 7.25 89.53 8.92
4/14/2022 1:30:00 AM 15.16 59.288 0.239 7.24 87.11 8.91
4/14/2022 1:45:00 AM 15.14 59.252 0.239 7.24 80.7 8.9
4/14/2022 2:00:00 AM 15.07 59.126 0.241 7.24 100.9 8.89
4/14/2022 2:15:00 AM 15.07 59.126 0.241 7.25 107.2 8.91
4/14/2022 2:30:00 AM 15.04 59.072 0.241 7.24 100.8 8.88
4/14/2022 2:45:00 AM 15.06 59.108 0.24 7.24 88.73 8.86
4/14/2022 3:00:00 AM 15.03 59.054 0.24 7.24 92.32 8.87
4/14/2022 3:15:00 AM 15.04 59.072 0.239 7.24 90.97 8.84
4/14/2022 3:30:00 AM 15.02 59.036 0.24 7.24 101.4 8.84
4/14/2022 3:45:00 AM 14.99 58.982 0.24 7.24 96.27 8.84
4/14/2022 4:00:00 AM 15 59 0.239 7.23 98.83 8.83
4/14/2022 4:15:00 AM 14.94 58.892 0.24 7.23 131.7 8.83
4/14/2022 4:30:00 AM 14.94 58.892 0.239 7.22 92.71 8.82
4/14/2022 4:45:00 AM 14.88 58.784 0.24 7.22 99.72 8.82
4/14/2022 5:00:00 AM 14.85 58.73 0.24 7.22 105.3 8.82
4/14/2022 5:15:00 AM 14.83 58.694 0.239 7.22 102.6 8.81
4/14/2022 5:30:00 AM 14.81 58.658 0.238 7.22 119.9 8.83
4/14/2022 5:45:00 AM 14.76 58.568 0.239 7.21 95.84 8.84
4/14/2022 6:00:00 AM 14.72 58.496 0.239 7.21 109.6 8.84
4/14/2022 6:15:00 AM 14.7 58.46 0.238 7.21 103.6 8.85
4/14/2022 6:30:00 AM 14.63 58.334 0.239 7.22 102 8.88
4/14/2022 6:45:00 AM 14.58 58.244 0.239 7.21 109.9 8.88
4/14/2022 7:00:00 AM 14.56 58.208 0.239 7.2 99.96 8.9
4/14/2022 7:15:00 AM 14.54 58.172 0.238 7.21 93.74 8.92
4/14/2022 7:30:00 AM 14.51 58.118 0.239 7.21 96.7 8.95
4/14/2022 7:45:00 AM 14.5 58.1 0.238 7.21 103.7 8.99
4/14/2022 8:00:00 AM 14.52 58.136 0.237 7.23 93.56 9.06
4/14/2022 8:15:00 AM 14.52 58.136 0.238 7.23 96.34 9.12
4/14/2022 8:30:00 AM 14.55 58.19 0.237 7.23 100.8 9.2
4/14/2022 8:45:00 AM 14.58 58.244 0.238 7.25 98.93 9.28
4/14/2022 9:00:00 AM 14.64 58.352 0.238 7.25 100.6 9.37
4/14/2022 9:15:00 AM 14.72 58.496 0.238 7.26 87.36 9.44
4/14/2022 9:30:00 AM 14.83 58.694 0.237 7.28 99.61 9.52
4/14/2022 9:45:00 AM 14.95 58.91 0.236 7.28 91.3 9.59
4/14/2022 10:00:00 AM 15.07 59.126 0.237 7.29 93.83 9.66
4/14/2022 10:15:00 AM 15.2 59.36 0.237 7.29 100.6 9.74
4/14/2022 10:30:00 AM 15.33 59.594 0.237 7.31 100.8 9.8
4/14/2022 10:45:00 AM 15.47 59.846 0.236 7.32 91.43 9.89
4/14/2022 11:00:00 AM 15.61 60.098 0.237 7.33 99.55 9.98
4/14/2022 11:15:00 AM 15.76 60.368 0.237 7.35 96.78 10.01
4/14/2022 11:30:00 AM 15.92 60.656 0.238 7.35 100.5 10.06
4/14/2022 11:45:00 AM 16.04 60.872 0.238 7.37 114.7 10.11
4/14/2022 12:00:00 PM 16.22 61.196 0.238 7.38 112.1 10.13
4/14/2022 12:15:00 PM 16.43 61.574 0.238 7.39 109.5 10.19
4/14/2022 12:30:00 PM 16.63 61.934 0.237 7.4 109.4 10.24
4/14/2022 12:45:00 PM 16.68 62.024 0.238 7.39 111.3 10.21
4/14/2022 1:00:00 PM 16.76 62.168 0.238 7.41 98.84 10.23
4/14/2022 1:15:00 PM 16.82 62.276 0.238 7.43 98.27 10.26
4/14/2022 1:30:00 PM 16.96 62.528 0.238 7.44 89.09 10.29
4/14/2022 1:45:00 PM 17.01 62.618 0.238 7.44 101.9 10.2
4/14/2022 2:00:00 PM 17.13 62.834 0.239 7.47 103 10.22
4/14/2022 2:15:00 PM 17.27 63.086 0.239 7.47 92.19 10.23
4/14/2022 2:30:00 PM 17.33 63.194 0.239 7.48 93.19 10.13
4/14/2022 2:45:00 PM 17.38 63.284 0.239 7.47 97.25 9.97
4/14/2022 3:00:00 PM 17.4 63.32 0.238 7.46 84.65 9.89
4/14/2022 3:15:00 PM 17.38 63.284 0.238 7.45 94.94 9.73
4/14/2022 3:30:00 PM 17.36 63.248 0.238 7.43 86.54 9.62
4/14/2022 3:45:00 PM 17.41 63.338 0.239 7.42 92.34 9.64
4/14/2022 4:00:00 PM 17.47 63.446 0.239 7.42 82.34 9.66
4/14/2022 4:15:00 PM 17.47 63.446 0.239 7.44 86.08 9.67
4/14/2022 4:30:00 PM 17.46 63.428 0.24 7.44 91.14 9.62
4/14/2022 4:45:00 PM 17.47 63.446 0.24 7.42 82.07 9.59
4/14/2022 5:00:00 PM 17.48 63.464 0.239 7.42 76.74 9.6
4/14/2022 5:15:00 PM 17.48 63.464 0.239 7.44 81.6 9.6
4/14/2022 5:30:00 PM 17.5 63.5 0.24 7.43 78.16 9.52
4/14/2022 5:45:00 PM 17.52 63.536 0.24 7.44 86.73 9.49
4/14/2022 6:00:00 PM 17.5 63.5 0.239 7.44 85.28 9.48
4/14/2022 6:15:00 PM 17.41 63.338 0.24 7.43 89.82 9.45
4/14/2022 6:30:00 PM 17.29 63.122 0.24 7.42 99.26 9.42
4/14/2022 6:45:00 PM 17.19 62.942 0.24 7.42 88.94 9.4
4/14/2022 7:00:00 PM 17.09 62.762 0.24 7.4 84.01 9.35
4/14/2022 7:15:00 PM 17 62.6 0.24 7.4 84.28 9.3
4/14/2022 7:30:00 PM 16.92 62.456 0.239 7.39 88.21 9.23
4/14/2022 7:45:00 PM 16.84 62.312 0.239 7.38 95.73 9.17
4/14/2022 8:00:00 PM 16.77 62.186 0.239 7.37 90.88 9.07
4/14/2022 8:15:00 PM 16.71 62.078 0.24 7.36 87.35 9.02
4/14/2022 8:30:00 PM 16.63 61.934 0.24 7.34 91.86 8.97
4/14/2022 8:45:00 PM 16.54 61.772 0.239 7.34 92.91 8.91
4/14/2022 9:00:00 PM 16.45 61.61 0.24 7.33 94.67 8.9
4/14/2022 9:15:00 PM 16.36 61.448 0.24 7.33 85.05 8.86
4/14/2022 9:30:00 PM 16.27 61.286 0.24 7.32 98.25 8.85
4/14/2022 9:45:00 PM 16.16 61.088 0.24 7.32 95.45 8.83
4/14/2022 10:00:00 PM 16.03 60.854 0.24 7.3 93.48 8.86
4/14/2022 10:15:00 PM 15.87 60.566 0.24 7.3 98.47 8.86
4/14/2022 10:30:00 PM 15.7 60.26 0.24 7.29 95.4 8.88
4/14/2022 10:45:00 PM 15.55 59.99 0.24 7.29 97.2 8.9
4/14/2022 11:00:00 PM 15.43 59.774 0.239 7.29 96.8 8.92
4/14/2022 11:15:00 PM 15.29 59.522 0.24 7.3 101.2 8.94
4/14/2022 11:30:00 PM 15.15 59.27 0.241 7.29 96.45 8.96
4/14/2022 11:45:00 PM 15.04 59.072 0.241 7.29 92.77 8.97
4/15/2022 12:00:00 AM 14.92 58.856 0.241 7.28 82.88 9
4/15/2022 12:15:00 AM 14.82 58.676 0.24 7.29 99.06 9.02
4/15/2022 12:30:00 AM 14.69 58.442 0.241 7.29 90.65 9.03
4/15/2022 12:45:00 AM 14.56 58.208 0.24 7.28 90.25 9.07
4/15/2022 1:00:00 AM 14.44 57.992 0.24 7.28 89.17 9.1
4/15/2022 1:15:00 AM 14.27 57.686 0.241 7.28 95.34 9.12
4/15/2022 1:30:00 AM 14.13 57.434 0.241 7.27 78.72 9.15
4/15/2022 1:45:00 AM 13.92 57.056 0.242 7.28 95.89 9.21
4/15/2022 2:00:00 AM 13.78 56.804 0.242 7.28 102.5 9.24
4/15/2022 2:15:00 AM 13.69 56.642 0.242 7.28 92.16 9.26
4/15/2022 2:30:00 AM 13.55 56.39 0.242 7.28 86.23 9.29
4/15/2022 2:45:00 AM 13.4 56.12 0.242 7.29 91.48 9.32
4/15/2022 3:00:00 AM 13.29 55.922 0.242 7.28 96.33 9.35
4/15/2022 3:15:00 AM 13.14 55.652 0.242 7.27 87.2 9.38
4/15/2022 3:30:00 AM 13.04 55.472 0.242 7.28 101.8 9.4
4/15/2022 3:45:00 AM 12.93 55.274 0.242 7.27 93.42 9.42
4/15/2022 4:00:00 AM 12.86 55.148 0.242 7.28 81.63 9.45
4/15/2022 4:15:00 AM 12.78 55.004 0.242 7.27 90.26 9.46
4/15/2022 4:30:00 AM 12.65 54.77 0.242 7.28 82.04 9.5
4/15/2022 4:45:00 AM 12.57 54.626 0.242 7.28 87.05 9.49
4/15/2022 5:00:00 AM 12.46 54.428 0.242 7.28 88.65 9.55
4/15/2022 5:15:00 AM 12.41 54.338 0.241 7.28 96.27 9.56
4/15/2022 5:30:00 AM 12.32 54.176 0.241 7.27 80.12 9.58
4/15/2022 5:45:00 AM 12.2 53.96 0.242 7.27 102.6 9.59
4/15/2022 6:00:00 AM 12.14 53.852 0.241 7.27 95.73 9.63
4/15/2022 6:15:00 AM 12.07 53.726 0.241 7.28 88.2 9.66
4/15/2022 6:30:00 AM 11.98 53.564 0.241 7.28 78.43 9.68
4/15/2022 6:45:00 AM 11.86 53.348 0.242 7.28 84.84 9.7
4/15/2022 7:00:00 AM 11.83 53.294 0.241 7.28 75.45 9.76
4/15/2022 7:15:00 AM 11.7 53.06 0.242 7.29 81.56 9.8
4/15/2022 7:30:00 AM 11.64 52.952 0.242 7.3 82.32 9.86
4/15/2022 7:45:00 AM 11.61 52.898 0.242 7.3 83.3 9.91
4/15/2022 8:00:00 AM 11.57 52.826 0.242 7.29 69.45 9.97
4/15/2022 8:15:00 AM 11.58 52.844 0.241 7.3 73.42 10.06
4/15/2022 8:30:00 AM 11.54 52.772 0.242 7.31 84.12 10.14
4/15/2022 8:45:00 AM 11.57 52.826 0.242 7.33 86.56 10.24
4/15/2022 9:00:00 AM 11.62 52.916 0.241 7.34 65.78 10.33
4/15/2022 9:15:00 AM 11.68 53.024 0.241 7.34 76.65 10.42
4/15/2022 9:30:00 AM 11.73 53.114 0.241 7.35 72.46 10.52
4/15/2022 9:45:00 AM 11.83 53.294 0.241 7.35 71.59 10.6
4/15/2022 10:00:00 AM 11.95 53.51 0.24 7.37 68.95 10.67
4/15/2022 10:15:00 AM 12.06 53.708 0.24 7.38 72.17 10.77
4/15/2022 10:30:00 AM 12.17 53.906 0.241 7.39 75.81 10.84
4/15/2022 10:45:00 AM 12.33 54.194 0.24 7.41 70.41 10.92
4/15/2022 11:00:00 AM 12.46 54.428 0.241 7.42 70.12 10.96
4/15/2022 11:15:00 AM 12.6 54.68 0.241 7.44 73.28 11.03
4/15/2022 11:30:00 AM 12.76 54.968 0.241 7.44 72.37 11.08
4/15/2022 11:45:00 AM 12.95 55.31 0.24 7.46 74.73 11.13
4/15/2022 12:00:00 PM 13.01 55.418 0.243 7.47 79.23 11.16
4/15/2022 12:15:00 PM 13.19 55.742 0.241 7.48 70.32 11.19
4/15/2022 12:30:00 PM 13.28 55.904 0.242 7.49 71.3 11.22
4/15/2022 12:45:00 PM 13.42 56.156 0.241 7.5 69.55 11.23
4/15/2022 1:00:00 PM 13.5 56.3 0.242 7.51 67.98 11.24
4/15/2022 1:15:00 PM 13.66 56.588 0.241 7.5 84.66 11.23
4/15/2022 1:30:00 PM 13.85 56.93 0.241 7.5 73.29 11.19
4/15/2022 1:45:00 PM 14.01 57.218 0.242 7.52 77.23 11.23
4/15/2022 2:00:00 PM 14.24 57.632 0.242 7.53 67.88 11.2
4/15/2022 2:15:00 PM 14.45 58.01 0.242 7.54 71.81 11.2
4/15/2022 2:30:00 PM 14.67 58.406 0.241 7.56 69.17 11.18
4/15/2022 2:45:00 PM 14.77 58.586 0.242 7.57 67 11.19
4/15/2022 3:00:00 PM 14.88 58.784 0.242 7.58 68.05 11.15
4/15/2022 3:15:00 PM 14.96 58.928 0.242 7.58 69.94 11.13
4/15/2022 3:30:00 PM 15.07 59.126 0.241 7.58 68.71 11.06
4/15/2022 3:45:00 PM 15.14 59.252 0.242 7.59 77.48 11.07
4/15/2022 4:00:00 PM 15.22 59.396 0.243 7.59 73.84 11.01
4/15/2022 4:15:00 PM 15.33 59.594 0.242 7.6 68.46 10.94
4/15/2022 4:30:00 PM 15.39 59.702 0.242 7.59 64.74 10.86
4/15/2022 4:45:00 PM 15.41 59.738 0.243 7.6 62.09 10.81
4/15/2022 5:00:00 PM 15.44 59.792 0.243 7.6 64.04 10.69
4/15/2022 5:15:00 PM 15.45 59.81 0.243 7.59 66.05 10.66
4/15/2022 5:30:00 PM 15.49 59.882 0.243 7.59 69.63 10.57
4/15/2022 5:45:00 PM 15.58 60.044 0.243 7.57 59.63 10.48
4/15/2022 6:00:00 PM 15.65 60.17 0.242 7.57 70.5 10.38
4/15/2022 6:15:00 PM 15.72 60.296 0.242 7.56 69.6 10.26
4/15/2022 6:30:00 PM 15.78 60.404 0.243 7.54 63.75 10.15
4/15/2022 6:45:00 PM 15.82 60.476 0.243 7.53 57.44 10.06
4/15/2022 7:00:00 PM 15.83 60.494 0.243 7.51 62.13 9.93
4/15/2022 7:15:00 PM 15.82 60.476 0.243 7.5 60.59 9.85
4/15/2022 7:30:00 PM 15.81 60.458 0.243 7.48 62.01 9.78
4/15/2022 7:45:00 PM 15.78 60.404 0.242 7.46 53.29 9.68
4/15/2022 8:00:00 PM 15.76 60.368 0.242 7.45 55.93 9.56
4/15/2022 8:15:00 PM 15.73 60.314 0.242 7.44 55.54 9.52
4/15/2022 8:30:00 PM 15.66 60.188 0.242 7.41 56.28 9.46
4/15/2022 8:45:00 PM 15.61 60.098 0.242 7.4 66.19 9.38
4/15/2022 9:00:00 PM 15.55 59.99 0.243 7.39 59.97 9.35
4/15/2022 9:15:00 PM 15.49 59.882 0.242 7.38 58.62 9.32
4/15/2022 9:30:00 PM 15.45 59.81 0.243 7.37 55 9.29
4/15/2022 9:45:00 PM 15.4 59.72 0.243 7.37 60.85 9.26
4/15/2022 10:00:00 PM 15.33 59.594 0.242 7.36 58.78 9.23
4/15/2022 10:15:00 PM 15.29 59.522 0.242 7.35 59.22 9.21
4/15/2022 10:30:00 PM 15.23 59.414 0.242 7.34 58.31 9.19
4/15/2022 10:45:00 PM 15.2 59.36 0.242 7.34 63.04 9.18
4/15/2022 11:00:00 PM 15.13 59.234 0.243 7.34 69.09 9.16
4/15/2022 11:15:00 PM 15.07 59.126 0.243 7.33 65.37 9.16
4/15/2022 11:30:00 PM 15.01 59.018 0.242 7.33 66.63 9.16
4/15/2022 11:45:00 PM 14.96 58.928 0.243 7.33 59.45 9.16
4/16/2022 12:00:00 AM 14.9 58.82 0.243 7.33 61.56 9.15
4/16/2022 12:15:00 AM 14.82 58.676 0.242 7.32 73.73 9.14
4/16/2022 12:30:00 AM 14.76 58.568 0.242 7.31 69.52 9.14
4/16/2022 12:45:00 AM 14.67 58.406 0.242 7.32 66.94 9.16
4/16/2022 1:00:00 AM 14.58 58.244 0.242 7.32 72.67 9.16
4/16/2022 1:15:00 AM 14.47 58.046 0.242 7.31 63.92 9.17
4/16/2022 1:30:00 AM 14.33 57.794 0.242 7.32 56.93 9.2
4/16/2022 1:45:00 AM 14.21 57.578 0.242 7.3 69.31 9.22
4/16/2022 2:00:00 AM 14.1 57.38 0.243 7.31 70.9 9.23
4/16/2022 2:15:00 AM 13.97 57.146 0.242 7.3 62.95 9.26
4/16/2022 2:30:00 AM 13.86 56.948 0.243 7.3 62.98 9.25
4/16/2022 2:45:00 AM 13.76 56.768 0.242 7.3 65.63 9.26
4/16/2022 3:00:00 AM 13.67 56.606 0.242 7.3 69.52 9.29
4/16/2022 3:15:00 AM 13.58 56.444 0.242 7.3 68.65 9.28
4/16/2022 3:30:00 AM 13.49 56.282 0.242 7.3 69.27 9.31
4/16/2022 3:45:00 AM 13.39 56.102 0.241 7.29 63.28 9.34
4/16/2022 4:00:00 AM 13.3 55.94 0.242 7.3 63.76 9.36
4/16/2022 4:15:00 AM 13.23 55.814 0.242 7.3 61.26 9.38
4/16/2022 4:30:00 AM 13.17 55.706 0.242 7.3 59.35 9.4
4/16/2022 4:45:00 AM 13.1 55.58 0.243 7.31 61.4 9.41
4/16/2022 5:00:00 AM 13.04 55.472 0.242 7.3 68.73 9.42
4/16/2022 5:15:00 AM 12.98 55.364 0.241 7.3 68.48 9.45
4/16/2022 5:30:00 AM 12.92 55.256 0.241 7.29 67.19 9.45
4/16/2022 5:45:00 AM 12.86 55.148 0.241 7.3 71.85 9.47
4/16/2022 6:00:00 AM 12.82 55.076 0.24 7.3 68.5 9.47
4/16/2022 6:15:00 AM 12.77 54.986 0.241 7.3 80.04 9.49
4/16/2022 6:30:00 AM 12.74 54.932 0.241 7.3 68.59 9.51
4/16/2022 6:45:00 AM 12.72 54.896 0.242 7.3 71.61 9.51
4/16/2022 7:00:00 AM 12.7 54.86 0.242 7.3 65.3 9.52
4/16/2022 7:15:00 AM 12.69 54.842 0.242 7.3 68.96 9.54
4/16/2022 7:30:00 AM 12.69 54.842 0.241 7.3 62.71 9.54
4/16/2022 7:45:00 AM 12.7 54.86 0.241 7.3 66.69 9.59
4/16/2022 8:00:00 AM 12.71 54.878 0.241 7.3 69.21 9.65
4/16/2022 8:15:00 AM 12.72 54.896 0.24 7.3 72.14 9.69
4/16/2022 8:30:00 AM 12.72 54.896 0.241 7.3 58.32 9.75
4/16/2022 8:45:00 AM 12.73 54.914 0.24 7.32 62.38 9.82
4/16/2022 9:00:00 AM 12.76 54.968 0.24 7.32 57.14 9.88
4/16/2022 9:15:00 AM 12.81 55.058 0.24 7.33 52.66 9.99
4/16/2022 9:30:00 AM 12.86 55.148 0.24 7.35 62.14 10.09
4/16/2022 9:45:00 AM 12.91 55.238 0.24 7.36 65.67 10.17
4/16/2022 10:00:00 AM 12.95 55.31 0.24 7.37 62.9 10.22
4/16/2022 10:15:00 AM 13.04 55.472 0.239 7.37 50.49 10.33
4/16/2022 10:30:00 AM 13.19 55.742 0.239 7.38 58.43 10.42
4/16/2022 10:45:00 AM 13.34 56.012 0.239 7.4 54.37 10.5
4/16/2022 11:00:00 AM 13.43 56.174 0.239 7.41 65.85 10.57
4/16/2022 11:15:00 AM 13.53 56.354 0.24 7.43 60.77 10.61
4/16/2022 11:30:00 AM 13.67 56.606 0.24 7.43 52.7 10.67
4/16/2022 11:45:00 AM 13.88 56.984 0.238 7.45 55.64 10.73
4/16/2022 12:00:00 PM 14.03 57.254 0.239 7.45 55.3 10.77
4/16/2022 12:15:00 PM 14.13 57.434 0.239 7.47 62.29 10.78
4/16/2022 12:30:00 PM 14.16 57.488 0.24 7.48 64.99 10.76
4/16/2022 12:45:00 PM 14.14 57.452 0.24 7.48 66.47 10.75
4/16/2022 1:00:00 PM 14.14 57.452 0.239 7.48 63.23 10.7
4/16/2022 1:15:00 PM 14.24 57.632 0.239 7.49 63.69 10.73
4/16/2022 1:30:00 PM 14.4 57.92 0.24 7.51 61.06 10.76
4/16/2022 1:45:00 PM 14.56 58.208 0.239 7.52 50.64 10.8
4/16/2022 2:00:00 PM 14.77 58.586 0.24 7.53 51.63 10.81
4/16/2022 2:15:00 PM 15.03 59.054 0.239 7.56 49.9 10.84
4/16/2022 2:30:00 PM 15.29 59.522 0.24 7.58 50.06 10.85
4/16/2022 2:45:00 PM 15.52 59.936 0.24 7.6 51.84 10.86
4/16/2022 3:00:00 PM 15.69 60.242 0.239 7.6 59.46 10.81
4/16/2022 3:15:00 PM 15.81 60.458 0.239 7.61 53.08 10.81
4/16/2022 3:30:00 PM 15.76 60.368 0.239 7.61 51.9 10.71
4/16/2022 3:45:00 PM 15.77 60.386 0.24 7.61 55.32 10.69
4/16/2022 4:00:00 PM 15.72 60.296 0.24 7.61 55.68 10.71
4/16/2022 4:15:00 PM 15.57 60.026 0.24 7.59 51.38 10.61
4/16/2022 4:30:00 PM 15.43 59.774 0.241 7.58 57.92 10.54
4/16/2022 4:45:00 PM 15.38 59.684 0.24 7.57 65.19 10.54
4/16/2022 5:00:00 PM 15.29 59.522 0.24 7.56 59.6 10.47
4/16/2022 5:15:00 PM 15.21 59.378 0.241 7.55 65.42 10.36
4/16/2022 5:30:00 PM 15.25 59.45 0.24 7.53 64.73 10.28
4/16/2022 5:45:00 PM 15.33 59.594 0.24 7.52 64.19 10.17
4/16/2022 6:00:00 PM 15.43 59.774 0.241 7.51 54.22 10.02
4/16/2022 6:15:00 PM 15.54 59.972 0.24 7.5 48.64 9.92
4/16/2022 6:30:00 PM 15.61 60.098 0.241 7.4 60.69 9.79
4/16/2022 6:45:00 PM 15.63 60.134 0.241 7.46 53.12 9.68
4/16/2022 7:00:00 PM 15.61 60.098 0.24 7.44 49.87 9.58
4/16/2022 7:15:00 PM 15.61 60.098 0.241 7.43 58.34 9.52
4/16/2022 7:30:00 PM 15.62 60.116 0.24 7.42 52.46 9.46
4/16/2022 7:45:00 PM 15.62 60.116 0.241 7.4 52.58 9.38
4/16/2022 8:00:00 PM 15.58 60.044 0.24 7.39 54.05 9.31
4/16/2022 8:15:00 PM 15.52 59.936 0.239 7.39 55.39 9.27
4/16/2022 8:30:00 PM 15.51 59.918 0.24 7.37 55.24 9.23
4/16/2022 8:45:00 PM 15.45 59.81 0.24 7.35 56.91 9.21
4/16/2022 9:00:00 PM 15.45 59.81 0.241 7.36 56.55 9.17
4/16/2022 9:15:00 PM 15.4 59.72 0.241 7.35 57.33 9.16
4/16/2022 9:30:00 PM 15.33 59.594 0.24 7.34 52.08 9.13
4/16/2022 9:45:00 PM 15.3 59.54 0.241 7.35 59.74 9.11
4/16/2022 10:00:00 PM 15.23 59.414 0.24 7.34 64.8 9.11
4/16/2022 10:15:00 PM 15.2 59.36 0.24 7.34 59.94 9.08
4/16/2022 10:30:00 PM 15.18 59.324 0.24 7.33 64.61 9.05
4/16/2022 10:45:00 PM 15.15 59.27 0.24 7.32 68.94 9.06
4/16/2022 11:00:00 PM 15.09 59.162 0.239 7.33 57.71 9.06
4/16/2022 11:15:00 PM 15.04 59.072 0.24 7.32 72.47 9.06
4/16/2022 11:30:00 PM 14.99 58.982 0.239 7.32 68.29 9.06
4/16/2022 11:45:00 PM 14.96 58.928 0.24 7.31 56.3 9.06
4/17/2022 12:00:00 AM 14.91 58.838 0.24 7.31 61.48 9.06
4/17/2022 12:15:00 AM 14.85 58.73 0.24 7.31 54.11 9.06
4/17/2022 12:30:00 AM 14.79 58.622 0.239 7.31 62.78 9.06
4/17/2022 12:45:00 AM 14.72 58.496 0.239 7.31 57.34 9.04
4/17/2022 1:00:00 AM 14.62 58.316 0.239 7.3 63.45 9.06
4/17/2022 1:15:00 AM 14.53 58.154 0.24 7.3 63.36 9.06
4/17/2022 1:30:00 AM 14.39 57.902 0.239 7.3 70.11 9.09
4/17/2022 1:45:00 AM 14.27 57.686 0.239 7.3 74.72 9.11
4/17/2022 2:00:00 AM 14.17 57.506 0.239 7.29 61.69 9.14
4/17/2022 2:15:00 AM 14.1 57.38 0.24 7.3 67.13 9.13
4/17/2022 2:30:00 AM 14.05 57.29 0.24 7.3 67.45 9.15
4/17/2022 2:45:00 AM 14 57.2 0.24 7.3 68.26 9.15
4/17/2022 3:00:00 AM 13.93 57.074 0.239 7.3 63.39 9.16
4/17/2022 3:15:00 AM 13.84 56.912 0.239 7.3 64.17 9.18
4/17/2022 3:30:00 AM 13.74 56.732 0.239 7.29 65.66 9.19
4/17/2022 3:45:00 AM 13.62 56.516 0.239 7.29 63.08 9.23
4/17/2022 4:00:00 AM 13.5 56.3 0.24 7.29 72.91 9.25
4/17/2022 4:15:00 AM 13.37 56.066 0.24 7.29 60.05 9.29
4/17/2022 4:30:00 AM 13.26 55.868 0.24 7.29 58.22 9.31
4/17/2022 4:45:00 AM 13.16 55.688 0.24 7.29 65.72 9.34
4/17/2022 5:00:00 AM 13.08 55.544 0.239 7.29 60.33 9.36
4/17/2022 5:15:00 AM 12.99 55.382 0.239 7.3 65.91 9.37
4/17/2022 5:30:00 AM 12.92 55.256 0.239 7.3 65.98 9.39
4/17/2022 5:45:00 AM 12.84 55.112 0.239 7.3 57.73 9.42
4/17/2022 6:00:00 AM 12.77 54.986 0.238 7.29 61.24 9.43
4/17/2022 6:15:00 AM 12.7 54.86 0.239 7.3 67.85 9.44
4/17/2022 6:30:00 AM 12.62 54.716 0.238 7.3 66.03 9.47
4/17/2022 6:45:00 AM 12.55 54.59 0.238 7.3 65.2 9.5
4/17/2022 7:00:00 AM 12.5 54.5 0.239 7.3 62.45 9.53
4/17/2022 7:15:00 AM 12.46 54.428 0.239 7.3 73.76 9.58
4/17/2022 7:30:00 AM 12.43 54.374 0.239 7.32 66.03 9.64
4/17/2022 7:45:00 AM 12.38 54.284 0.238 7.31 68.2 9.71
4/17/2022 8:00:00 AM 12.33 54.194 0.238 7.32 68.3 9.78
4/17/2022 8:15:00 AM 12.27 54.086 0.238 7.32 60.48 9.84
4/17/2022 8:30:00 AM 12.24 54.032 0.238 7.34 63.59 9.96
4/17/2022 8:45:00 AM 12.17 53.906 0.239 7.34 60.05 10.04
4/17/2022 9:00:00 AM 12.17 53.906 0.238 7.37 60.35 10.14
4/17/2022 9:15:00 AM 12.25 54.05 0.238 7.37 60.91 10.27
4/17/2022 9:30:00 AM 12.22 53.996 0.238 7.38 61.65 10.33
4/17/2022 9:45:00 AM 12.16 53.888 0.238 7.39 55.61 10.33
4/17/2022 10:00:00 AM 12.12 53.816 0.238 7.39 62.91 10.39
4/17/2022 10:15:00 AM 12.17 53.906 0.238 7.41 69.17 10.46
4/17/2022 10:30:00 AM 12.15 53.87 0.237 7.41 66.07 10.48
4/17/2022 10:45:00 AM 12.16 53.888 0.237 7.42 65.72 10.54
4/17/2022 11:00:00 AM 12.26 54.068 0.237 7.41 57.17 10.66
4/17/2022 11:15:00 AM 12.24 54.032 0.238 7.43 63.13 10.7
4/17/2022 11:30:00 AM 12.23 54.014 0.238 7.44 66.29 10.73
4/17/2022 11:45:00 AM 12.27 54.086 0.238 7.46 63.63 10.8
4/17/2022 12:00:00 PM 12.41 54.338 0.237 7.47 54.92 10.91
4/17/2022 12:15:00 PM 12.52 54.536 0.237 7.48 55.4 10.97
4/17/2022 12:30:00 PM 12.7 54.86 0.238 7.5 55.49 11.03
4/17/2022 12:45:00 PM 12.86 55.148 0.238 7.51 64.4 11.08
4/17/2022 1:00:00 PM 12.9 55.22 0.237 7.52 57.91 11.1
4/17/2022 1:15:00 PM 12.94 55.292 0.238 7.52 59.5 11.11
4/17/2022 1:30:00 PM 12.95 55.31 0.238 7.54 62.09 11.13
4/17/2022 1:45:00 PM 13.06 55.508 0.238 7.55 68.99 11.2
4/17/2022 2:00:00 PM 13.12 55.616 0.239 7.56 60.71 11.18
4/17/2022 2:15:00 PM 13.11 55.598 0.239 7.56 58 11.17
4/17/2022 2:30:00 PM 13.19 55.742 0.239 7.58 55.75 11.2
4/17/2022 2:45:00 PM 13.29 55.922 0.24 7.59 62.51 11.22
4/17/2022 3:00:00 PM 13.44 56.192 0.238 7.6 62.72 11.24
4/17/2022 3:15:00 PM 13.54 56.372 0.239 7.61 60.6 11.25
4/17/2022 3:30:00 PM 13.65 56.57 0.239 7.62 56.17 11.26
4/17/2022 3:45:00 PM 13.71 56.678 0.238 7.63 55.81 11.22
4/17/2022 4:00:00 PM 13.77 56.786 0.239 7.63 65.78 11.19
4/17/2022 4:15:00 PM 13.84 56.912 0.24 7.62 65.11 11.17
4/17/2022 4:30:00 PM 13.84 56.912 0.24 7.64 64.31 11.12
4/17/2022 4:45:00 PM 13.87 56.966 0.24 7.64 54.9 11.1
4/17/2022 5:00:00 PM 13.86 56.948 0.241 7.64 64.09 11.06
4/17/2022 5:15:00 PM 13.85 56.93 0.24 7.63 58.43 11
4/17/2022 5:30:00 PM 13.81 56.858 0.241 7.62 54.43 10.93
4/17/2022 5:45:00 PM 13.76 56.768 0.24 7.61 54.57 10.86
4/17/2022 6:00:00 PM 13.71 56.678 0.24 7.61 61.03 10.81
4/17/2022 6:15:00 PM 13.65 56.57 0.24 7.6 57.78 10.74
4/17/2022 6:30:00 PM 13.6 56.48 0.241 7.58 54.06 10.65
4/17/2022 6:45:00 PM 13.55 56.39 0.24 7.57 55.5 10.57
4/17/2022 7:00:00 PM 13.47 56.246 0.241 7.55 54.01 10.51
4/17/2022 7:15:00 PM 13.42 56.156 0.241 7.54 58.07 10.45
4/17/2022 7:30:00 PM 13.38 56.084 0.242 7.53 57.38 10.38
4/17/2022 7:45:00 PM 13.33 55.994 0.241 7.51 56.15 10.31
4/17/2022 8:00:00 PM 13.28 55.904 0.242 7.5 57.63 10.25
4/17/2022 8:15:00 PM 13.23 55.814 0.241 7.48 51.69 10.17
4/17/2022 8:30:00 PM 13.16 55.688 0.241 7.47 59.94 10.13
4/17/2022 8:45:00 PM 13.09 55.562 0.242 7.46 57.66 10.08
4/17/2022 9:00:00 PM 13.01 55.418 0.242 7.44 57.14 10.05
4/17/2022 9:15:00 PM 12.94 55.292 0.242 7.44 58.15 10.01
4/17/2022 9:30:00 PM 12.87 55.166 0.242 7.42 61.9 9.98
4/17/2022 9:45:00 PM 12.82 55.076 0.242 7.41 56.73 9.99
4/17/2022 10:00:00 PM 12.76 54.968 0.242 7.4 61.09 9.97
4/17/2022 10:15:00 PM 12.71 54.878 0.242 7.4 56.35 9.95
4/17/2022 10:30:00 PM 12.65 54.77 0.241 7.4 56.7 9.96
4/17/2022 10:45:00 PM 12.6 54.68 0.241 7.39 57.26 9.94
4/17/2022 11:00:00 PM 12.54 54.572 0.242 7.39 55.29 9.94
4/17/2022 11:15:00 PM 12.47 54.446 0.242 7.38 61.13 9.93
4/17/2022 11:30:00 PM 12.4 54.32 0.242 7.38 54.4 9.94
4/17/2022 11:45:00 PM 12.33 54.194 0.242 7.38 58.56 9.93
4/18/2022 12:00:00 AM 12.26 54.068 0.241 7.37 58.6 9.94
4/18/2022 12:15:00 AM 12.18 53.924 0.242 7.37 53.23 9.96
4/18/2022 12:30:00 AM 12.11 53.798 0.241 7.36 59.47 9.97
4/18/2022 12:45:00 AM 12.05 53.69 0.241 7.36 60.58 9.97
4/18/2022 1:00:00 AM 11.98 53.564 0.241 7.36 54.81 9.98
4/18/2022 1:15:00 AM 11.91 53.438 0.24 7.36 53.72 10.01
4/18/2022 1:30:00 AM 11.82 53.276 0.24 7.36 54.46 10.02
4/18/2022 1:45:00 AM 11.74 53.132 0.241 7.36 63.77 10.01
4/18/2022 2:00:00 AM 11.66 52.988 0.241 7.36 60.03 10.03
4/18/2022 2:15:00 AM 11.58 52.844 0.241 7.36 56.83 10.05
4/18/2022 2:30:00 AM 11.49 52.682 0.241 7.36 54.36 10.06
4/18/2022 2:45:00 AM 11.4 52.52 0.241 7.35 60.65 10.09
4/18/2022 3:00:00 AM 11.31 52.358 0.24 7.36 59.16 10.1
4/18/2022 3:15:00 AM 11.22 52.196 0.24 7.35 54.34 10.12
4/18/2022 3:30:00 AM 11.16 52.088 0.24 7.35 58.35 10.13
4/18/2022 3:45:00 AM 11.06 51.908 0.24 7.35 50.98 10.15
4/18/2022 4:00:00 AM 10.99 51.782 0.241 7.35 61.7 10.17
4/18/2022 4:15:00 AM 10.89 51.602 0.241 7.34 56.63 10.19
4/18/2022 4:30:00 AM 10.82 51.476 0.242 7.35 56.12 10.21
4/18/2022 4:45:00 AM 10.71 51.278 0.241 7.35 61.97 10.24
4/18/2022 5:00:00 AM 10.63 51.134 0.241 7.35 53.83 10.25
4/18/2022 5:15:00 AM 10.55 50.99 0.241 7.34 57.28 10.29
4/18/2022 5:30:00 AM 10.45 50.81 0.241 7.34 60.43 10.31
4/18/2022 5:45:00 AM 10.36 50.648 0.24 7.35 60.92 10.32
4/18/2022 6:00:00 AM 10.27 50.486 0.24 7.35 55.89 10.35
4/18/2022 6:15:00 AM 10.19 50.342 0.24 7.34 55.84 10.37
4/18/2022 6:30:00 AM 10.11 50.198 0.241 7.35 54.84 10.4
4/18/2022 6:45:00 AM 9.98 49.964 0.24 7.35 56.56 10.43
4/18/2022 7:00:00 AM 9.94 49.892 0.241 7.35 51.55 10.49
4/18/2022 7:15:00 AM 9.87 49.766 0.24 7.35 50.38 10.54
4/18/2022 7:30:00 AM 9.85 49.73 0.241 7.36 48.07 10.6
4/18/2022 7:45:00 AM 9.81 49.658 0.241 7.36 47.24 10.67
4/18/2022 8:00:00 AM 9.77 49.586 0.24 7.37 49.16 10.73
4/18/2022 8:15:00 AM 9.71 49.478 0.24 7.38 48.55 10.81
4/18/2022 8:30:00 AM 9.73 49.514 0.24 7.38 62.17 10.89
4/18/2022 8:45:00 AM 9.71 49.478 0.24 7.39 49.88 10.99
4/18/2022 9:00:00 AM 9.68 49.424 0.24 7.4 47.07 11.07
4/18/2022 9:15:00 AM 9.63 49.334 0.239 7.41 47.6 11.12
4/18/2022 9:30:00 AM 9.59 49.262 0.239 7.42 44.6 11.19
4/18/2022 9:45:00 AM 9.62 49.316 0.24 7.43 45.51 11.27
4/18/2022 10:00:00 AM 9.63 49.334 0.24 7.43 41.77 11.36
4/18/2022 10:15:00 AM 9.61 49.298 0.239 7.45 49.65 11.41
4/18/2022 10:30:00 AM 9.59 49.262 0.239 7.46 49.97 11.45
4/18/2022 10:45:00 AM 9.58 49.244 0.24 7.46 45.08 11.49
4/18/2022 11:00:00 AM 9.53 49.154 0.239 7.47 44.23 11.51
4/18/2022 11:15:00 AM 9.52 49.136 0.239 7.47 45.24 11.54
4/18/2022 11:30:00 AM 9.52 49.136 0.24 7.48 43.15 11.55
4/18/2022 11:45:00 AM 9.47 49.046 0.239 7.48 37.8 11.59
4/18/2022 12:00:00 PM 9.43 48.974 0.239 7.48 39.53 11.57
4/18/2022 12:15:00 PM 9.39 48.902 0.24 7.49 46.95 11.54
4/18/2022 12:30:00 PM 9.35 48.83 0.239 7.48 42.54 11.52
4/18/2022 12:45:00 PM 9.33 48.794 0.24 7.48 41.39 11.51
4/18/2022 1:00:00 PM 9.29 48.722 0.239 7.48 43.98 11.54
4/18/2022 1:15:00 PM 9.29 48.722 0.24 7.48 41.91 11.52
4/18/2022 1:30:00 PM 9.26 48.668 0.24 7.48 42.98 11.53
4/18/2022 1:45:00 PM 9.23 48.614 0.24 7.49 43.04 11.53
4/18/2022 2:00:00 PM 9.2 48.56 0.241 7.48 39.65 11.55
4/18/2022 2:15:00 PM 9.2 48.56 0.241 7.49 42.47 11.56
4/18/2022 2:30:00 PM 9.17 48.506 0.24 7.49 37.47 11.58
4/18/2022 2:45:00 PM 9.15 48.47 0.24 7.5 44.02 11.58
4/18/2022 3:00:00 PM 9.11 48.398 0.24 7.5 44.89 11.59
4/18/2022 3:15:00 PM 9.12 48.416 0.24 7.49 45.37 11.58
4/18/2022 3:30:00 PM 9.11 48.398 0.24 7.5 43.65 11.6
4/18/2022 3:45:00 PM 9.09 48.362 0.239 7.5 43.2 11.61
4/18/2022 4:00:00 PM 9.04 48.272 0.239 7.5 37.72 11.62
4/18/2022 4:15:00 PM 9.03 48.254 0.239 7.5 41.77 11.62
4/18/2022 4:30:00 PM 9.05 48.29 0.239 7.5 43.38 11.59
4/18/2022 4:45:00 PM 9 48.2 0.238 7.5 45.33 11.58
4/18/2022 5:00:00 PM 8.98 48.164 0.239 7.5 45.77 11.57
4/18/2022 5:15:00 PM 8.98 48.164 0.239 7.5 43.95 11.55
4/18/2022 5:30:00 PM 8.97 48.146 0.239 7.49 43.41 11.58
4/18/2022 5:45:00 PM 8.97 48.146 0.239 7.5 44.6 11.59
4/18/2022 6:00:00 PM 8.92 48.056 0.238 7.5 43.17 11.58
4/18/2022 6:15:00 PM 8.95 48.11 0.239 7.5 39.92 11.53
4/18/2022 6:30:00 PM 8.9 48.02 0.239 7.49 39.81 11.5
4/18/2022 6:45:00 PM 8.88 47.984 0.239 7.49 39.28 11.47
4/18/2022 7:00:00 PM 8.87 47.966 0.24 7.48 42.83 11.43
4/18/2022 7:15:00 PM 8.89 48.002 0.241 7.48 40.66 11.38
4/18/2022 7:30:00 PM 8.82 47.876 0.24 7.47 37.26 11.36
4/18/2022 7:45:00 PM 8.85 47.93 0.241 7.47 40.4 11.3
4/18/2022 8:00:00 PM 8.81 47.858 0.24 7.47 40.88 11.27
4/18/2022 8:15:00 PM 8.78 47.804 0.24 7.45 37.79 11.24
4/18/2022 8:30:00 PM 8.77 47.786 0.241 7.46 37.91 11.21
4/18/2022 8:45:00 PM 8.76 47.768 0.241 7.45 46.68 11.19
4/18/2022 9:00:00 PM 8.72 47.696 0.239 7.45 42.22 11.2
4/18/2022 9:15:00 PM 8.67 47.606 0.237 7.44 41.54 11.2
4/18/2022 9:30:00 PM 8.66 47.588 0.236 7.44 46.3 11.21
4/18/2022 9:45:00 PM 8.64 47.552 0.235 7.43 40.54 11.21
4/18/2022 10:00:00 PM 8.57 47.426 0.233 7.43 39.3 11.2
4/18/2022 10:15:00 PM 8.61 47.498 0.233 7.43 45.5 11.2
4/18/2022 10:30:00 PM 8.57 47.426 0.233 7.43 43.41 11.19
4/18/2022 10:45:00 PM 8.57 47.426 0.234 7.42 51.58 11.18
4/18/2022 11:00:00 PM 8.49 47.282 0.235 7.41 50.98 11.18
4/18/2022 11:15:00 PM 8.47 47.246 0.237 7.41 54.53 11.18
4/18/2022 11:30:00 PM 8.35 47.03 0.235 7.42 64.45 11.21
4/18/2022 11:45:00 PM 8.26 46.868 0.23 7.43 65.82 11.25
4/19/2022 12:00:00 AM 8.23 46.814 0.227 7.42 64.6 11.24
4/19/2022 12:15:00 AM 8.18 46.724 0.224 7.42 61.93 11.23
4/19/2022 12:30:00 AM 8.16 46.688 0.222 7.41 64.71 11.22
4/19/2022 12:45:00 AM 8.06 46.508 0.22 7.4 54.46 11.26
4/19/2022 1:00:00 AM 8.05 46.49 0.219 7.42 53.39 11.25
4/19/2022 1:15:00 AM 8.03 46.454 0.218 7.4 54.57 11.25
4/19/2022 1:30:00 AM 7.99 46.382 0.217 7.39 54.32 11.26
4/19/2022 1:45:00 AM 8.02 46.436 0.218 7.41 58.26 11.24
4/19/2022 2:00:00 AM 7.92 46.256 0.217 7.39 55.98 11.24
4/19/2022 2:15:00 AM 7.92 46.256 0.218 7.39 60.85 11.21
4/19/2022 2:30:00 AM 7.91 46.238 0.217 7.4 54.93 11.21
4/19/2022 2:45:00 AM 7.95 46.31 0.218 7.4 78.69 11.2
4/19/2022 3:00:00 AM 7.92 46.256 0.219 7.39 68.35 11.21
4/19/2022 3:15:00 AM 7.82 46.076 0.217 7.39 84.51 11.21
4/19/2022 3:30:00 AM 7.85 46.13 0.217 7.39 89.84 11.21
4/19/2022 3:45:00 AM 7.8 46.04 0.216 7.38 109.2 11.21
4/19/2022 4:00:00 AM 7.72 45.896 0.215 7.39 105.6 11.21
4/19/2022 4:15:00 AM 7.7 45.86 0.214 7.39 121.3 11.22
4/19/2022 4:30:00 AM 7.62 45.716 0.214 7.4 125.5 11.24
4/19/2022 4:45:00 AM 7.62 45.716 0.214 7.39 127.2 11.24
4/19/2022 5:00:00 AM 7.59 45.662 0.213 7.38 132.1 11.24
4/19/2022 5:15:00 AM 7.51 45.518 0.211 7.38 140.8 11.26
4/19/2022 5:30:00 AM 7.56 45.608 0.211 7.37 138.6 11.27
4/19/2022 5:45:00 AM 7.48 45.464 0.21 7.35 134.7 11.25
4/19/2022 6:00:00 AM 7.51 45.518 0.21 7.36 140.4 11.26
4/19/2022 6:15:00 AM 7.57 45.626 0.21 7.34 127.3 11.25
4/19/2022 6:30:00 AM 7.49 45.482 0.209 7.35 127.1 11.24
4/19/2022 6:45:00 AM 7.53 45.554 0.209 7.33 137.6 11.25
4/19/2022 7:00:00 AM 7.53 45.554 0.209 7.34 150 11.24
4/19/2022 7:15:00 AM 7.55 45.59 0.209 7.34 139.7 11.24
4/19/2022 7:30:00 AM 7.57 45.626 0.209 7.36 134.1 11.24
4/19/2022 7:45:00 AM 7.56 45.608 0.208 7.35 130.3 11.25
4/19/2022 8:00:00 AM 7.59 45.662 0.208 7.34 125.5 11.24
4/19/2022 8:15:00 AM 7.59 45.662 0.208 7.33 131.8 11.26
4/19/2022 8:30:00 AM 7.64 45.752 0.209 7.34 119.1 11.25
4/19/2022 8:45:00 AM 7.74 45.932 0.21 7.35 131.7 11.26
4/19/2022 9:00:00 AM 7.78 46.004 0.211 7.34 122.3 11.25
4/19/2022 9:15:00 AM 7.9 46.22 0.212 7.34 115.1 11.26
4/19/2022 9:30:00 AM 7.93 46.274 0.212 7.34 122.4 11.28
4/19/2022 9:45:00 AM 7.94 46.292 0.212 7.34 114.3 11.29
4/19/2022 10:00:00 AM 8.08 46.544 0.213 7.35 117.6 11.28
4/19/2022 10:15:00 AM 8.1 46.58 0.213 7.34 109.1 11.29
4/19/2022 10:30:00 AM 8.17 46.706 0.214 7.34 127.2 11.31
4/19/2022 10:45:00 AM 8.27 46.886 0.214 7.35 105.4 11.32
4/19/2022 11:00:00 AM 8.38 47.084 0.213 7.35 114.7 11.33
4/19/2022 11:15:00 AM 8.8 47.84 0.218 7.36 138 11.21
4/19/2022 11:30:00 AM 8.98 48.164 0.219 7.34 167.4 11.06
4/19/2022 11:45:00 AM 9.07 48.326 0.218 7.33 135.1 10.98
4/19/2022 12:00:00 PM 9.26 48.668 0.217 7.34 134.7 11.01
4/19/2022 12:15:00 PM 9.29 48.722 0.216 7.32 123.1 10.97
4/19/2022 12:30:00 PM 9.34 48.812 0.217 7.32 133.9 10.95
4/19/2022 12:45:00 PM 9.32 48.776 0.216 7.33 123.2 10.94
4/19/2022 1:00:00 PM 9.4 48.92 0.217 7.31 110.1 10.93
4/19/2022 1:15:00 PM 9.56 49.208 0.217 7.35 117.4 10.98
4/19/2022 1:30:00 PM 9.64 49.352 0.217 7.34 107.7 10.97
4/19/2022 1:45:00 PM 9.81 49.658 0.217 7.34 104 11.02
4/19/2022 2:00:00 PM 9.83 49.694 0.216 7.34 96.78 11.03
4/19/2022 2:15:00 PM 9.9 49.82 0.218 7.36 111.1 11.04
4/19/2022 2:30:00 PM 9.9 49.82 0.217 7.36 114.1 11.03
4/19/2022 2:45:00 PM 10.05 50.09 0.218 7.35 109.4 11.01
4/19/2022 3:00:00 PM 10.12 50.216 0.218 7.36 99.25 11
4/19/2022 3:15:00 PM 10.14 50.252 0.218 7.35 97.67 11.04
4/19/2022 3:30:00 PM 10.21 50.378 0.22 7.36 106.1 11.03
4/19/2022 3:45:00 PM 10.3 50.54 0.222 7.37 123.9 11.03
4/19/2022 4:00:00 PM 10.28 50.504 0.22 7.37 105.5 11.06
4/19/2022 4:15:00 PM 10.31 50.558 0.222 7.37 97.78 11
4/19/2022 4:30:00 PM 10.31 50.558 0.223 7.37 100.7 10.98
4/19/2022 4:45:00 PM 10.33 50.594 0.223 7.38 123.4 10.94
4/19/2022 5:00:00 PM 10.28 50.504 0.221 7.36 94.66 10.96
4/19/2022 5:15:00 PM 10.34 50.612 0.222 7.37 98.04 10.95
4/19/2022 5:30:00 PM 10.34 50.612 0.223 7.37 98.5 10.91
4/19/2022 5:45:00 PM 10.38 50.684 0.224 7.36 88.57 10.93
4/19/2022 6:00:00 PM 10.37 50.666 0.225 7.37 93.42 10.92
4/19/2022 6:15:00 PM 10.37 50.666 0.224 7.38 100.6 10.88
4/19/2022 6:30:00 PM 10.37 50.666 0.224 7.37 100.5 10.85
4/19/2022 6:45:00 PM 10.4 50.72 0.226 7.37 90.4 10.84
4/19/2022 7:00:00 PM 10.4 50.72 0.227 7.37 102.1 10.83
4/19/2022 7:15:00 PM 10.37 50.666 0.226 7.37 100.6 10.79
4/19/2022 7:30:00 PM 10.38 50.684 0.225 7.37 80.53 10.77
4/19/2022 7:45:00 PM 10.4 50.72 0.227 7.37 90.33 10.76
4/19/2022 8:00:00 PM 10.38 50.684 0.227 7.36 88.22 10.73
4/19/2022 8:15:00 PM 10.36 50.648 0.228 7.36 88.21 10.69
4/19/2022 8:30:00 PM 10.33 50.594 0.229 7.36 86.86 10.67
4/19/2022 8:45:00 PM 10.31 50.558 0.229 7.36 79.87 10.67
4/19/2022 9:00:00 PM 10.27 50.486 0.229 7.35 89.74 10.65
4/19/2022 9:15:00 PM 10.27 50.486 0.231 7.36 95.66 10.65
4/19/2022 9:30:00 PM 10.19 50.342 0.23 7.36 106.2 10.64
4/19/2022 9:45:00 PM 10.13 50.234 0.23 7.35 89.89 10.64
4/19/2022 10:00:00 PM 10.1 50.18 0.231 7.34 84.87 10.64
4/19/2022 10:15:00 PM 10.05 50.09 0.232 7.36 95.03 10.63
4/19/2022 10:30:00 PM 9.97 49.946 0.231 7.35 79.2 10.66
4/19/2022 10:45:00 PM 9.98 49.964 0.234 7.35 92.99 10.65
4/19/2022 11:00:00 PM 9.89 49.802 0.232 7.35 86.86 10.65
4/19/2022 11:15:00 PM 9.91 49.838 0.234 7.34 85.14 10.65
4/19/2022 11:30:00 PM 9.85 49.73 0.234 7.35 87.76 10.64
4/19/2022 11:45:00 PM 9.76 49.568 0.232 7.34 91.33 10.65
4/20/2022 12:00:00 AM 9.75 49.55 0.232 7.34 80.99 10.64
4/20/2022 12:15:00 AM 9.75 49.55 0.233 7.35 86.99 10.64
4/20/2022 12:30:00 AM 9.71 49.478 0.233 7.34 80.2 10.65
4/20/2022 12:45:00 AM 9.62 49.316 0.232 7.36 92.15 10.64
4/20/2022 1:00:00 AM 9.65 49.37 0.234 7.34 79.64 10.66
4/20/2022 1:15:00 AM 9.48 49.064 0.232 7.33 72.95 10.69
4/20/2022 1:30:00 AM 9.52 49.136 0.234 7.34 73.83 10.67
4/20/2022 1:45:00 AM 9.47 49.046 0.235 7.35 78.95 10.68
4/20/2022 2:00:00 AM 9.43 48.974 0.235 7.34 83.34 10.69
4/20/2022 2:15:00 AM 9.4 48.92 0.236 7.34 84.1 10.69
4/20/2022 2:30:00 AM 9.35 48.83 0.235 7.35 91.1 10.7
4/20/2022 2:45:00 AM 9.32 48.776 0.235 7.35 81.84 10.7
4/20/2022 3:00:00 AM 9.24 48.632 0.235 7.34 70.68 10.7
4/20/2022 3:15:00 AM 9.18 48.524 0.235 7.34 84.11 10.72
4/20/2022 3:30:00 AM 9.07 48.326 0.234 7.33 72.91 10.74
4/20/2022 3:45:00 AM 9.1 48.38 0.236 7.34 84.45 10.74
4/20/2022 4:00:00 AM 9.03 48.254 0.236 7.34 84.45 10.75
4/20/2022 4:15:00 AM 9.03 48.254 0.237 7.34 73.46 10.75
4/20/2022 4:30:00 AM 8.89 48.002 0.236 7.34 71.26 10.78
4/20/2022 4:45:00 AM 8.9 48.02 0.237 7.34 73.02 10.76
4/20/2022 5:00:00 AM 8.91 48.038 0.238 7.34 81.43 10.78
4/20/2022 5:15:00 AM 8.88 47.984 0.237 7.34 77.99 10.77
4/20/2022 5:30:00 AM 8.81 47.858 0.237 7.34 74.56 10.79
4/20/2022 5:45:00 AM 8.77 47.786 0.237 7.34 70.31 10.8
4/20/2022 6:00:00 AM 8.7 47.66 0.237 7.34 72.91 10.81
4/20/2022 6:15:00 AM 8.68 47.624 0.238 7.33 74.39 10.81
4/20/2022 6:30:00 AM 8.63 47.534 0.238 7.34 85.39 10.84
4/20/2022 6:45:00 AM 8.56 47.408 0.238 7.33 76.09 10.86
4/20/2022 7:00:00 AM 8.5 47.3 0.237 7.34 76.79 10.87
4/20/2022 7:15:00 AM 8.49 47.282 0.238 7.34 72.03 10.89
4/20/2022 7:30:00 AM 8.45 47.21 0.237 7.35 84.39 10.93
4/20/2022 7:45:00 AM 8.47 47.246 0.238 7.35 80.84 10.98
4/20/2022 8:00:00 AM 8.45 47.21 0.237 7.35 69.7 11.01
4/20/2022 8:15:00 AM 8.38 47.084 0.236 7.36 70.07 11.08
4/20/2022 8:30:00 AM 8.45 47.21 0.238 7.36 69.82 11.11
4/20/2022 8:45:00 AM 8.56 47.408 0.239 7.37 73.56 11.14
4/20/2022 9:00:00 AM 8.51 47.318 0.238 7.36 70.5 11.2
4/20/2022 9:15:00 AM 8.61 47.498 0.239 7.38 73.43 11.25
4/20/2022 9:30:00 AM 8.61 47.498 0.239 7.39 74.55 11.29
4/20/2022 9:45:00 AM 8.72 47.696 0.24 7.38 79.61 11.32
4/20/2022 10:00:00 AM 8.77 47.786 0.24 7.39 79.72 11.37
4/20/2022 10:15:00 AM 8.87 47.966 0.24 7.39 69.69 11.42
4/20/2022 10:30:00 AM 8.93 48.074 0.239 7.41 81.55 11.44
4/20/2022 10:45:00 AM 9.07 48.326 0.24 7.39 77.18 11.47
4/20/2022 11:00:00 AM 9.21 48.578 0.24 7.4 77.97 11.48
4/20/2022 11:15:00 AM 9.34 48.812 0.241 7.41 77.79 11.52
4/20/2022 11:30:00 AM 9.48 49.064 0.241 7.43 79.39 11.54
4/20/2022 11:45:00 AM 9.59 49.262 0.24 7.43 74.88 11.56
4/20/2022 12:00:00 PM 9.72 49.496 0.24 7.42 75.12 11.54
4/20/2022 12:15:00 PM 9.86 49.748 0.24 7.42 74.34 11.56
4/20/2022 12:30:00 PM 9.97 49.946 0.24 7.42 84.54 11.58
4/20/2022 12:45:00 PM 10.11 50.198 0.24 7.43 71.44 11.62
4/20/2022 1:00:00 PM 10.3 50.54 0.241 7.44 78.3 11.59
4/20/2022 1:15:00 PM 10.45 50.81 0.24 7.44 74.02 11.61
4/20/2022 1:30:00 PM 10.63 51.134 0.242 7.45 87.26 11.58
4/20/2022 1:45:00 PM 10.76 51.368 0.241 7.43 73.54 11.57
4/20/2022 2:00:00 PM 10.89 51.602 0.241 7.44 67.2 11.58
4/20/2022 2:15:00 PM 11 51.8 0.242 7.46 85.92 11.59
4/20/2022 2:30:00 PM 11.13 52.034 0.242 7.45 85.87 11.58
4/20/2022 2:45:00 PM 11.24 52.232 0.241 7.46 79.58 11.54
4/20/2022 3:00:00 PM 11.35 52.43 0.241 7.46 82.95 11.54
4/20/2022 3:15:00 PM 11.48 52.664 0.241 7.45 78.09 11.55
4/20/2022 3:30:00 PM 11.62 52.916 0.242 7.46 71.68 11.47
4/20/2022 3:45:00 PM 11.71 53.078 0.243 7.46 79.22 11.51
4/20/2022 4:00:00 PM 11.82 53.276 0.241 7.45 74.3 11.45
4/20/2022 4:15:00 PM 11.93 53.474 0.242 7.45 78.69 11.44
4/20/2022 4:30:00 PM 12 53.6 0.242 7.45 74.98 11.42
4/20/2022 4:45:00 PM 12.12 53.816 0.241 7.46 76.81 11.39
4/20/2022 5:00:00 PM 12.24 54.032 0.242 7.45 78.55 11.29
4/20/2022 5:15:00 PM 12.39 54.302 0.242 7.45 77.37 11.27
4/20/2022 5:30:00 PM 12.46 54.428 0.241 7.44 66.27 11.22
4/20/2022 5:45:00 PM 12.59 54.662 0.241 7.43 69.99 11.16
4/20/2022 6:00:00 PM 12.81 55.058 0.242 7.44 71.68 11.09
4/20/2022 6:15:00 PM 12.92 55.256 0.242 7.44 78.66 11
4/20/2022 6:30:00 PM 13 55.4 0.242 7.43 95.36 10.94
4/20/2022 6:45:00 PM 12.98 55.364 0.241 7.41 68.66 10.87
4/20/2022 7:00:00 PM 12.98 55.364 0.241 7.41 83.66 10.84
4/20/2022 7:15:00 PM 13.1 55.58 0.242 7.41 80.51 10.78
4/20/2022 7:30:00 PM 13.1 55.58 0.241 7.4 82.05 10.71
4/20/2022 7:45:00 PM 13.04 55.472 0.24 7.38 70.54 10.66
4/20/2022 8:00:00 PM 13.08 55.544 0.24 7.38 67.32 10.6
4/20/2022 8:15:00 PM 13.17 55.706 0.241 7.36 75.52 10.49
4/20/2022 8:30:00 PM 13.29 55.922 0.242 7.36 76.36 10.36
4/20/2022 8:45:00 PM 13.24 55.832 0.241 7.34 80.75 10.32
4/20/2022 9:00:00 PM 13.2 55.76 0.242 7.34 75.17 10.28
4/20/2022 9:15:00 PM 13.14 55.652 0.242 7.32 78.6 10.24
4/20/2022 9:30:00 PM 13.09 55.562 0.242 7.31 74.8 10.21
4/20/2022 9:45:00 PM 13.01 55.418 0.241 7.31 74.92 10.19
4/20/2022 10:00:00 PM 12.98 55.364 0.241 7.31 74.39 10.16
4/20/2022 10:15:00 PM 12.96 55.328 0.241 7.3 77.61 10.12
4/20/2022 10:30:00 PM 12.93 55.274 0.241 7.3 84.42 10.09
4/20/2022 10:45:00 PM 12.83 55.094 0.241 7.29 69.57 10.09
4/20/2022 11:00:00 PM 12.78 55.004 0.241 7.29 91.4 10.06
4/20/2022 11:15:00 PM 12.67 54.806 0.241 7.29 77.78 10.05
4/20/2022 11:30:00 PM 12.67 54.806 0.242 7.28 72.2 10.04
4/20/2022 11:45:00 PM 12.56 54.608 0.241 7.27 80.13 10.03
4/21/2022 12:00:00 AM 12.48 54.464 0.241 7.26 74.02 10.03
4/21/2022 12:15:00 AM 12.34 54.212 0.24 7.26 66.71 10.02
4/21/2022 12:30:00 AM 12.31 54.158 0.241 7.26 81.72 10
4/21/2022 12:45:00 AM 12.18 53.924 0.241 7.25 76.49 9.98
4/21/2022 1:00:00 AM 12.03 53.654 0.241 7.24 76.74 9.98
4/21/2022 1:15:00 AM 11.83 53.294 0.241 7.24 88.68 10.01
4/21/2022 1:30:00 AM 11.63 52.934 0.24 7.24 77.6 10.04
4/21/2022 1:45:00 AM 11.44 52.592 0.241 7.24 72.72 10.07
4/21/2022 2:00:00 AM 11.23 52.214 0.241 7.24 68.16 10.12
4/21/2022 2:15:00 AM 11.05 51.89 0.241 7.24 72.24 10.16
4/21/2022 2:30:00 AM 10.9 51.62 0.24 7.24 71.6 10.19
4/21/2022 2:45:00 AM 10.78 51.404 0.24 7.25 81.06 10.22
4/21/2022 3:00:00 AM 10.66 51.188 0.241 7.26 79.54 10.24
4/21/2022 3:15:00 AM 10.56 51.008 0.24 7.24 76.72 10.25
4/21/2022 3:30:00 AM 10.45 50.81 0.241 7.25 72.07 10.29
4/21/2022 3:45:00 AM 10.35 50.63 0.24 7.24 66.53 10.32
4/21/2022 4:00:00 AM 10.25 50.45 0.241 7.26 68.75 10.36
4/21/2022 4:15:00 AM 10.16 50.288 0.241 7.25 82.97 10.37
4/21/2022 4:30:00 AM 10.08 50.144 0.242 7.26 74.11 10.4
4/21/2022 4:45:00 AM 10.04 50.072 0.241 7.26 82.83 10.42
4/21/2022 5:00:00 AM 10 50 0.241 7.27 85.91 10.42
4/21/2022 5:15:00 AM 9.95 49.91 0.24 7.27 102.3 10.43
4/21/2022 5:30:00 AM 9.91 49.838 0.241 7.27 92.06 10.45
4/21/2022 5:45:00 AM 9.89 49.802 0.24 7.26 80.87 10.45
4/21/2022 6:00:00 AM 9.85 49.73 0.24 7.27 94.1 10.44
4/21/2022 6:15:00 AM 9.81 49.658 0.241 7.27 94.56 10.48
4/21/2022 6:30:00 AM 9.79 49.622 0.241 7.27 93.37 10.49
4/21/2022 6:45:00 AM 9.78 49.604 0.241 7.28 93.67 10.49
4/21/2022 7:00:00 AM 9.77 49.586 0.241 7.28 92.71 10.5
4/21/2022 7:15:00 AM 9.79 49.622 0.241 7.27 89.53 10.54
4/21/2022 7:30:00 AM 9.8 49.64 0.241 7.28 108.1 10.57
4/21/2022 7:45:00 AM 9.82 49.676 0.241 7.27 109 10.62
4/21/2022 8:00:00 AM 9.84 49.712 0.241 7.28 135.1 10.64
4/21/2022 8:15:00 AM 9.87 49.766 0.241 7.28 125.1 10.68
4/21/2022 8:30:00 AM 9.9 49.82 0.24 7.28 125.1 10.72
4/21/2022 8:45:00 AM 9.93 49.874 0.241 7.28 111.9 10.76
4/21/2022 9:00:00 AM 10.02 50.036 0.239 7.29 100 10.8
4/21/2022 9:15:00 AM 10.08 50.144 0.24 7.3 128.7 10.86
4/21/2022 9:30:00 AM 10.16 50.288 0.24 7.31 126.5 10.93
4/21/2022 9:45:00 AM 10.24 50.432 0.239 7.33 123.4 11.01
4/21/2022 10:00:00 AM 10.33 50.594 0.24 7.31 130.5 11.07
4/21/2022 10:15:00 AM 10.49 50.882 0.239 7.33 132.5 11.12
4/21/2022 10:30:00 AM 10.67 51.206 0.239 7.33 138.4 11.15
4/21/2022 10:45:00 AM 10.86 51.548 0.24 7.34 115.3 11.18
4/21/2022 11:00:00 AM 11 51.8 0.239 7.34 173.4 11.15
4/21/2022 11:15:00 AM 11.15 52.07 0.239 7.34 207.1 11.11
4/21/2022 11:30:00 AM 11.28 52.304 0.239 7.33 172.1 11
4/21/2022 11:45:00 AM 11.39 52.502 0.238 7.3 175 10.9
4/21/2022 12:00:00 PM 11.5 52.7 0.238 7.29 188.2 10.87
4/21/2022 12:15:00 PM 11.71 53.078 0.238 7.28 206.5 10.82
4/21/2022 12:30:00 PM 12.04 53.672 0.237 7.27 172.9 10.86
4/21/2022 12:45:00 PM 12.32 54.176 0.237 7.26 171 10.87
4/21/2022 1:00:00 PM 12.48 54.464 0.237 7.26 147.3 10.89
4/21/2022 1:15:00 PM 12.51 54.518 0.237 7.26 142.4 10.9
4/21/2022 1:30:00 PM 12.54 54.572 0.237 7.27 137.1 10.85
4/21/2022 1:45:00 PM 12.61 54.698 0.238 7.28 139.1 10.83
4/21/2022 2:00:00 PM 12.64 54.752 0.237 7.28 124.4 10.88
4/21/2022 2:15:00 PM 12.74 54.932 0.237 7.28 124.7 10.91
4/21/2022 2:30:00 PM 12.79 55.022 0.237 7.3 115.1 10.92
4/21/2022 2:45:00 PM 12.91 55.238 0.238 7.3 133 10.89
4/21/2022 3:00:00 PM 12.88 55.184 0.237 7.31 131.7 10.87
4/21/2022 3:15:00 PM 12.81 55.058 0.236 7.3 119.9 10.83
4/21/2022 3:30:00 PM 12.82 55.076 0.237 7.31 113.6 10.77
4/21/2022 3:45:00 PM 12.8 55.04 0.237 7.31 112.7 10.75
4/21/2022 4:00:00 PM 12.81 55.058 0.238 7.31 105.3 10.68
4/21/2022 4:15:00 PM 12.73 54.914 0.237 7.31 112.2 10.65
4/21/2022 4:30:00 PM 12.71 54.878 0.238 7.31 116.3 10.61
4/21/2022 4:45:00 PM 12.67 54.806 0.238 7.31 111.6 10.63
4/21/2022 5:00:00 PM 12.64 54.752 0.238 7.32 96.27 10.62
4/21/2022 5:15:00 PM 12.59 54.662 0.238 7.32 114.9 10.61
4/21/2022 5:30:00 PM 12.54 54.572 0.237 7.32 99.17 10.62
4/21/2022 5:45:00 PM 12.49 54.482 0.237 7.31 92.13 10.62
4/21/2022 6:00:00 PM 12.44 54.392 0.237 7.32 90 10.62
4/21/2022 6:15:00 PM 12.38 54.284 0.237 7.31 98.3 10.6
4/21/2022 6:30:00 PM 12.3 54.14 0.237 7.31 86.82 10.6
4/21/2022 6:45:00 PM 12.24 54.032 0.238 7.31 93.95 10.54
4/21/2022 7:00:00 PM 12.19 53.942 0.238 7.31 87.65 10.51
4/21/2022 7:15:00 PM 12.14 53.852 0.238 7.31 100.8 10.5
4/21/2022 7:30:00 PM 12.1 53.78 0.237 7.3 92.82 10.45
4/21/2022 7:45:00 PM 12.04 53.672 0.237 7.3 86.08 10.42
4/21/2022 8:00:00 PM 12.01 53.618 0.237 7.3 83.22 10.39
4/21/2022 8:15:00 PM 11.98 53.564 0.237 7.29 82.68 10.36
4/21/2022 8:30:00 PM 11.95 53.51 0.237 7.28 90.16 10.35
4/21/2022 8:45:00 PM 11.93 53.474 0.237 7.29 73.04 10.35
4/21/2022 9:00:00 PM 11.9 53.42 0.237 7.28 77.99 10.34
4/21/2022 9:15:00 PM 11.88 53.384 0.237 7.28 78.08 10.32
4/21/2022 9:30:00 PM 11.86 53.348 0.238 7.28 81.61 10.31
4/21/2022 9:45:00 PM 11.83 53.294 0.237 7.27 75.79 10.3
4/21/2022 10:00:00 PM 11.8 53.24 0.237 7.28 84.05 10.3
4/21/2022 10:15:00 PM 11.77 53.186 0.237 7.27 72.79 10.29
4/21/2022 10:30:00 PM 11.73 53.114 0.237 7.26 66.26 10.28
4/21/2022 10:45:00 PM 11.7 53.06 0.237 7.26 69.92 10.27
4/21/2022 11:00:00 PM 11.65 52.97 0.237 7.27 64.33 10.27
4/21/2022 11:15:00 PM 11.61 52.898 0.237 7.27 58.48 10.28
4/21/2022 11:30:00 PM 11.59 52.862 0.237 7.27 67.87 10.28
4/21/2022 11:45:00 PM 11.57 52.826 0.237 7.27 70.07 10.26
4/22/2022 12:00:00 AM 11.52 52.736 0.238 7.27 69.25 10.26
4/22/2022 12:15:00 AM 11.49 52.682 0.237 7.27 68.71 10.27
4/22/2022 12:30:00 AM 11.44 52.592 0.237 7.26 63.66 10.25
4/22/2022 12:45:00 AM 11.4 52.52 0.237 7.27 69.78 10.29
4/22/2022 1:00:00 AM 11.36 52.448 0.237 7.27 68.61 10.28
4/22/2022 1:15:00 AM 11.31 52.358 0.237 7.26 68.08 10.28
4/22/2022 1:30:00 AM 11.26 52.268 0.237 7.25 76 10.3
4/22/2022 1:45:00 AM 11.22 52.196 0.237 7.26 62.09 10.3
4/22/2022 2:00:00 AM 11.16 52.088 0.237 7.27 66.64 10.31
4/22/2022 2:15:00 AM 11.09 51.962 0.238 7.26 66.23 10.32
4/22/2022 2:30:00 AM 11.04 51.872 0.238 7.26 60.89 10.34
4/22/2022 2:45:00 AM 10.97 51.746 0.238 7.26 68.71 10.33
4/22/2022 3:00:00 AM 10.92 51.656 0.238 7.27 67.21 10.35
4/22/2022 3:15:00 AM 10.88 51.584 0.237 7.26 61.49 10.36
4/22/2022 3:30:00 AM 10.81 51.458 0.237 7.25 64.63 10.37
4/22/2022 3:45:00 AM 10.76 51.368 0.237 7.26 61.99 10.38
4/22/2022 4:00:00 AM 10.71 51.278 0.237 7.27 60.49 10.4
4/22/2022 4:15:00 AM 10.65 51.17 0.238 7.27 70.4 10.42
4/22/2022 4:30:00 AM 10.62 51.116 0.238 7.27 60.01 10.41
4/22/2022 4:45:00 AM 10.57 51.026 0.237 7.27 63.25 10.43
4/22/2022 5:00:00 AM 10.53 50.954 0.237 7.25 62.17 10.42
4/22/2022 5:15:00 AM 10.49 50.882 0.237 7.26 63.82 10.44
4/22/2022 5:30:00 AM 10.44 50.792 0.237 7.26 67.46 10.47
4/22/2022 5:45:00 AM 10.39 50.702 0.237 7.27 63.34 10.48
4/22/2022 6:00:00 AM 10.35 50.63 0.236 7.26 57.96 10.49
4/22/2022 6:15:00 AM 10.32 50.576 0.237 7.26 64.8 10.5
4/22/2022 6:30:00 AM 10.26 50.468 0.237 7.27 60.75 10.51
4/22/2022 6:45:00 AM 10.24 50.432 0.237 7.27 59.51 10.54
4/22/2022 7:00:00 AM 10.21 50.378 0.237 7.26 55.39 10.57
4/22/2022 7:15:00 AM 10.17 50.306 0.238 7.27 65.69 10.61
4/22/2022 7:30:00 AM 10.17 50.306 0.238 7.28 59.54 10.65
4/22/2022 7:45:00 AM 10.18 50.324 0.237 7.28 64.56 10.71
4/22/2022 8:00:00 AM 10.2 50.36 0.237 7.28 64.44 10.78
4/22/2022 8:15:00 AM 10.24 50.432 0.237 7.29 66.43 10.84
4/22/2022 8:30:00 AM 10.29 50.522 0.237 7.3 66.26 10.92
4/22/2022 8:45:00 AM 10.36 50.648 0.236 7.3 59.06 11
4/22/2022 9:00:00 AM 10.46 50.828 0.237 7.31 62.4 11.06
4/22/2022 9:15:00 AM 10.59 51.062 0.237 7.32 62.68 11.12
4/22/2022 9:30:00 AM 10.75 51.35 0.237 7.33 59.25 11.15
4/22/2022 9:45:00 AM 10.93 51.674 0.237 7.34 78.44 11.17
4/22/2022 10:00:00 AM 11.13 52.034 0.237 7.34 67.31 11.2
4/22/2022 10:15:00 AM 11.34 52.412 0.237 7.36 77.32 11.21
4/22/2022 10:30:00 AM 11.58 52.844 0.237 7.35 82.58 11.18
4/22/2022 10:45:00 AM 11.8 53.24 0.237 7.36 98.09 11.14
4/22/2022 11:00:00 AM 12.03 53.654 0.237 7.36 87.45 11.14
4/22/2022 11:15:00 AM 12.29 54.122 0.236 7.34 86.18 11.1
4/22/2022 11:30:00 AM 12.57 54.626 0.237 7.34 99.37 11.07
4/22/2022 11:45:00 AM 12.88 55.184 0.237 7.31 113.7 11
4/22/2022 12:00:00 PM 13.16 55.688 0.236 7.31 120.1 10.94
4/22/2022 12:15:00 PM 13.45 56.21 0.237 7.31 123.1 10.9
4/22/2022 12:30:00 PM 13.71 56.678 0.236 7.29 111.2 10.89
4/22/2022 12:45:00 PM 13.96 57.128 0.236 7.29 96.44 10.89
4/22/2022 1:00:00 PM 14.18 57.524 0.236 7.3 106.4 10.86
4/22/2022 1:15:00 PM 14.4 57.92 0.237 7.3 107.3 10.84
4/22/2022 1:30:00 PM 14.56 58.208 0.237 7.3 100 10.78
4/22/2022 1:45:00 PM 14.7 58.46 0.237 7.32 105.3 10.83
4/22/2022 2:00:00 PM 14.85 58.73 0.238 7.32 105.7 10.79
4/22/2022 2:15:00 PM 14.96 58.928 0.238 7.33 105.8 10.77
4/22/2022 2:30:00 PM 14.96 58.928 0.237 7.34 103.2 10.76
4/22/2022 2:45:00 PM 14.94 58.892 0.238 7.33 105.5 10.69
4/22/2022 3:00:00 PM 14.86 58.748 0.237 7.34 106.9 10.67
4/22/2022 3:15:00 PM 14.85 58.73 0.237 7.34 116.3 10.61
4/22/2022 3:30:00 PM 14.83 58.694 0.238 7.34 103.9 10.59
4/22/2022 3:45:00 PM 14.8 58.64 0.238 7.34 102.5 10.59
4/22/2022 4:00:00 PM 14.75 58.55 0.237 7.35 103.5 10.61
4/22/2022 4:15:00 PM 14.74 58.532 0.238 7.35 99.09 10.63
4/22/2022 4:30:00 PM 14.63 58.334 0.238 7.36 101.8 10.62
4/22/2022 4:45:00 PM 14.48 58.064 0.238 7.36 100.2 10.67
4/22/2022 5:00:00 PM 14.32 57.776 0.238 7.36 110.7 10.7
4/22/2022 5:15:00 PM 14.17 57.506 0.238 7.36 91.1 10.71
4/22/2022 5:30:00 PM 14.03 57.254 0.238 7.36 88.21 10.69
4/22/2022 5:45:00 PM 13.9 57.02 0.236 7.35 91.05 10.71
4/22/2022 6:00:00 PM 13.74 56.732 0.237 7.37 95.75 10.72
4/22/2022 6:15:00 PM 13.67 56.606 0.237 7.37 81.47 10.69
4/22/2022 6:30:00 PM 13.5 56.3 0.238 7.38 84.77 10.69
4/22/2022 6:45:00 PM 13.45 56.21 0.237 7.38 90.24 10.64
4/22/2022 7:00:00 PM 13.37 56.066 0.237 7.37 77.1 10.6
4/22/2022 7:15:00 PM 13.3 55.94 0.237 7.36 88.69 10.54
4/22/2022 7:30:00 PM 13.25 55.85 0.236 7.36 79.23 10.5
4/22/2022 7:45:00 PM 13.13 55.634 0.236 7.36 86.41 10.45
4/22/2022 8:00:00 PM 13.02 55.436 0.237 7.35 88.43 10.42
4/22/2022 8:15:00 PM 12.92 55.256 0.236 7.34 88.74 10.37
4/22/2022 8:30:00 PM 12.8 55.04 0.237 7.34 87.17 10.34
4/22/2022 8:45:00 PM 12.73 54.914 0.237 7.32 81.95 10.3
4/22/2022 9:00:00 PM 12.73 54.914 0.237 7.32 80.91 10.26
4/22/2022 9:15:00 PM 12.63 54.734 0.237 7.31 81.47 10.25
4/22/2022 9:30:00 PM 12.45 54.41 0.238 7.32 81.86 10.28
4/22/2022 9:45:00 PM 12.44 54.392 0.237 7.31 66.74 10.25
4/22/2022 10:00:00 PM 12.36 54.248 0.237 7.32 71.54 10.25
4/22/2022 10:15:00 PM 12.39 54.302 0.236 7.3 65.61 10.22
4/22/2022 10:30:00 PM 12.22 53.996 0.236 7.3 68.91 10.23
4/22/2022 10:45:00 PM 12.27 54.086 0.236 7.3 65.49 10.19
4/22/2022 11:00:00 PM 12.16 53.888 0.237 7.3 78.55 10.21
4/22/2022 11:15:00 PM 12.12 53.816 0.237 7.29 70.71 10.2
4/22/2022 11:30:00 PM 12.14 53.852 0.236 7.3 79.91 10.2
4/22/2022 11:45:00 PM 12.13 53.834 0.236 7.3 68.62 10.19
4/23/2022 12:00:00 AM 12.06 53.708 0.236 7.3 72.55 10.2
4/23/2022 12:15:00 AM 12.03 53.654 0.236 7.29 78.33 10.18
4/23/2022 12:30:00 AM 12.04 53.672 0.236 7.3 70.84 10.19
4/23/2022 12:45:00 AM 11.95 53.51 0.236 7.3 62.51 10.22
4/23/2022 1:00:00 AM 11.97 53.546 0.236 7.3 70.66 10.2
4/23/2022 1:15:00 AM 11.96 53.528 0.235 7.3 65.48 10.2
4/23/2022 1:30:00 AM 11.84 53.312 0.236 7.29 68.91 10.22
4/23/2022 1:45:00 AM 11.9 53.42 0.236 7.29 72.82 10.2
4/23/2022 2:00:00 AM 11.86 53.348 0.237 7.3 76.39 10.2
4/23/2022 2:15:00 AM 11.92 53.456 0.236 7.3 65.67 10.21
4/23/2022 2:30:00 AM 11.83 53.294 0.237 7.3 75.74 10.22
4/23/2022 2:45:00 AM 11.81 53.258 0.237 7.29 70.7 10.2
4/23/2022 3:00:00 AM 11.8 53.24 0.236 7.3 77.72 10.19
4/23/2022 3:15:00 AM 11.88 53.384 0.235 7.29 65.35 10.18
4/23/2022 3:30:00 AM 11.8 53.24 0.236 7.31 77.34 10.21
4/23/2022 3:45:00 AM 11.85 53.33 0.235 7.28 60.71 10.2
4/23/2022 4:00:00 AM 11.81 53.258 0.236 7.28 63.33 10.19
4/23/2022 4:15:00 AM 11.83 53.294 0.235 7.28 60.83 10.19
4/23/2022 4:30:00 AM 11.77 53.186 0.236 7.29 59.73 10.2
4/23/2022 4:45:00 AM 11.74 53.132 0.236 7.28 63.67 10.2
4/23/2022 5:00:00 AM 11.71 53.078 0.236 7.29 74.38 10.21
4/23/2022 5:15:00 AM 11.7 53.06 0.236 7.28 61.72 10.23
4/23/2022 5:30:00 AM 11.79 53.222 0.234 7.29 65.48 10.2
4/23/2022 5:45:00 AM 11.73 53.114 0.235 7.27 65.06 10.21
4/23/2022 6:00:00 AM 11.66 52.988 0.235 7.28 61.09 10.22
4/23/2022 6:15:00 AM 11.67 53.006 0.235 7.28 67.09 10.23
4/23/2022 6:30:00 AM 11.7 53.06 0.235 7.28 56.95 10.23
4/23/2022 6:45:00 AM 11.66 52.988 0.235 7.28 64 10.24
4/23/2022 7:00:00 AM 11.63 52.934 0.235 7.29 63.35 10.25
4/23/2022 7:15:00 AM 11.63 52.934 0.235 7.28 69.93 10.26
4/23/2022 7:30:00 AM 11.63 52.934 0.235 7.28 71.05 10.28
4/23/2022 7:45:00 AM 11.62 52.916 0.235 7.28 67.73 10.31
4/23/2022 8:00:00 AM 11.63 52.934 0.235 7.29 68.92 10.36
4/23/2022 8:15:00 AM 11.67 53.006 0.234 7.29 79.52 10.36
4/23/2022 8:30:00 AM 11.66 52.988 0.235 7.29 69.23 10.41
4/23/2022 8:45:00 AM 11.66 52.988 0.235 7.3 79.22 10.44
4/23/2022 9:00:00 AM 11.72 53.096 0.234 7.31 74.64 10.48
4/23/2022 9:15:00 AM 11.7 53.06 0.235 7.31 77.87 10.52
4/23/2022 9:30:00 AM 11.73 53.114 0.234 7.32 76.03 10.54
4/23/2022 9:45:00 AM 11.73 53.114 0.235 7.32 74.26 10.55
4/23/2022 10:00:00 AM 11.8 53.24 0.234 7.34 76.35 10.62
4/23/2022 10:15:00 AM 11.88 53.384 0.234 7.34 68.64 10.66
4/23/2022 10:30:00 AM 11.9 53.42 0.234 7.35 68.44 10.73
4/23/2022 10:45:00 AM 11.98 53.564 0.234 7.35 66.95 10.77
4/23/2022 11:00:00 AM 12 53.6 0.234 7.37 68.6 10.8
4/23/2022 11:15:00 AM 12.03 53.654 0.234 7.37 72.22 10.83
4/23/2022 11:30:00 AM 12.09 53.762 0.234 7.37 68.54 10.84
4/23/2022 11:45:00 AM 12.12 53.816 0.234 7.38 74.47 10.84
4/23/2022 12:00:00 PM 12.15 53.87 0.234 7.38 67.74 10.87
4/23/2022 12:15:00 PM 12.21 53.978 0.234 7.4 78.03 10.86
4/23/2022 12:30:00 PM 12.26 54.068 0.234 7.39 77.08 10.85
4/23/2022 12:45:00 PM 12.3 54.14 0.234 7.39 69.97 10.84
4/23/2022 1:00:00 PM 12.35 54.23 0.235 7.4 67.88 10.86
4/23/2022 1:15:00 PM 12.47 54.446 0.234 7.41 73.79 10.88
4/23/2022 1:30:00 PM 12.58 54.644 0.234 7.41 70.71 10.95
4/23/2022 1:45:00 PM 12.72 54.896 0.234 7.43 62.1 10.99
4/23/2022 2:00:00 PM 12.81 55.058 0.234 7.44 69.49 10.99
4/23/2022 2:15:00 PM 12.97 55.346 0.234 7.44 69.69 11.03
4/23/2022 2:30:00 PM 13.1 55.58 0.234 7.46 75.74 11.01
4/23/2022 2:45:00 PM 13.24 55.832 0.234 7.45 65.38 11.02
4/23/2022 3:00:00 PM 13.35 56.03 0.234 7.46 69.21 10.99
4/23/2022 3:15:00 PM 13.49 56.282 0.234 7.46 78.47 10.98
4/23/2022 3:30:00 PM 13.65 56.57 0.234 7.48 73.24 10.94
4/23/2022 3:45:00 PM 13.84 56.912 0.235 7.48 67.77 10.95
4/23/2022 4:00:00 PM 13.98 57.164 0.234 7.48 69.73 10.9
4/23/2022 4:15:00 PM 14.12 57.416 0.235 7.48 67.56 10.88
4/23/2022 4:30:00 PM 14.25 57.65 0.235 7.48 75.18 10.84
4/23/2022 4:45:00 PM 14.35 57.83 0.235 7.48 72.04 10.76
4/23/2022 5:00:00 PM 14.42 57.956 0.235 7.49 68.2 10.73
4/23/2022 5:15:00 PM 14.49 58.082 0.234 7.48 65.56 10.67
4/23/2022 5:30:00 PM 14.52 58.136 0.235 7.47 78.8 10.6
4/23/2022 5:45:00 PM 14.54 58.172 0.235 7.47 77.43 10.54
4/23/2022 6:00:00 PM 14.54 58.172 0.235 7.46 69.88 10.49
4/23/2022 6:15:00 PM 14.52 58.136 0.235 7.46 74.72 10.45
4/23/2022 6:30:00 PM 14.47 58.046 0.235 7.45 74.26 10.39
4/23/2022 6:45:00 PM 14.41 57.938 0.235 7.44 77.32 10.32
4/23/2022 7:00:00 PM 14.33 57.794 0.236 7.44 68.46 10.3
4/23/2022 7:15:00 PM 14.26 57.668 0.235 7.43 78.76 10.26
4/23/2022 7:30:00 PM 14.18 57.524 0.235 7.42 68 10.2
4/23/2022 7:45:00 PM 14.06 57.308 0.236 7.42 70.39 10.19
4/23/2022 8:00:00 PM 13.94 57.092 0.235 7.4 77.36 10.14
4/23/2022 8:15:00 PM 13.81 56.858 0.235 7.4 80.07 10.12
4/23/2022 8:30:00 PM 13.68 56.624 0.235 7.4 70.9 10.09
4/23/2022 8:45:00 PM 13.58 56.444 0.235 7.39 69.23 10.07
4/23/2022 9:00:00 PM 13.45 56.21 0.235 7.38 71.5 10.07
4/23/2022 9:15:00 PM 13.37 56.066 0.235 7.37 70.68 10.05
4/23/2022 9:30:00 PM 13.24 55.832 0.235 7.38 65.96 10.05
4/23/2022 9:45:00 PM 13.14 55.652 0.235 7.37 68.22 10.06
4/23/2022 10:00:00 PM 13 55.4 0.236 7.37 58.12 10.06
4/23/2022 10:15:00 PM 12.97 55.346 0.235 7.36 54.25 10.06
4/23/2022 10:30:00 PM 12.87 55.166 0.234 7.37 54.78 10.08
4/23/2022 10:45:00 PM 12.81 55.058 0.235 7.36 58.04 10.06
4/23/2022 11:00:00 PM 12.77 54.986 0.234 7.35 56.06 10.06
4/23/2022 11:15:00 PM 12.71 54.878 0.234 7.35 55.52 10.07
4/23/2022 11:30:00 PM 12.65 54.77 0.235 7.35 52.58 10.07
4/23/2022 11:45:00 PM 12.6 54.68 0.235 7.35 60.03 10.07
4/24/2022 12:00:00 AM 12.59 54.662 0.234 7.34 53.49 10.07
4/24/2022 12:15:00 AM 12.52 54.536 0.234 7.34 57.46 10.05
4/24/2022 12:30:00 AM 12.5 54.5 0.234 7.34 53.18 10.07
4/24/2022 12:45:00 AM 12.53 54.554 0.233 7.32 53.97 10.08
4/24/2022 1:00:00 AM 12.4 54.32 0.234 7.33 59.77 10.08
4/24/2022 1:15:00 AM 12.41 54.338 0.234 7.33 53.46 10.08
4/24/2022 1:30:00 AM 12.31 54.158 0.234 7.33 56.81 10.07
4/24/2022 1:45:00 AM 12.37 54.266 0.233 7.32 56.37 10.06
4/24/2022 2:00:00 AM 12.27 54.086 0.234 7.32 53.47 10.1
4/24/2022 2:15:00 AM 12.23 54.014 0.234 7.32 62.96 10.07
4/24/2022 2:30:00 AM 12.21 53.978 0.234 7.32 55.7 10.08
4/24/2022 2:45:00 AM 12.13 53.834 0.234 7.32 58.1 10.08
4/24/2022 3:00:00 AM 12.15 53.87 0.233 7.32 57.94 10.08
4/24/2022 3:15:00 AM 12.14 53.852 0.232 7.32 59.61 10.09
4/24/2022 3:30:00 AM 12.04 53.672 0.233 7.31 53.45 10.11
4/24/2022 3:45:00 AM 12.07 53.726 0.233 7.32 53.28 10.1
4/24/2022 4:00:00 AM 12 53.6 0.233 7.31 54.64 10.1
4/24/2022 4:15:00 AM 11.95 53.51 0.234 7.32 58.47 10.1
4/24/2022 4:30:00 AM 11.96 53.528 0.233 7.31 56.16 10.1
4/24/2022 4:45:00 AM 11.87 53.366 0.234 7.31 59.78 10.14
4/24/2022 5:00:00 AM 11.9 53.42 0.233 7.32 61.02 10.12
4/24/2022 5:15:00 AM 11.86 53.348 0.233 7.3 53.1 10.13
4/24/2022 5:30:00 AM 11.77 53.186 0.233 7.31 53.58 10.14
4/24/2022 5:45:00 AM 11.74 53.132 0.233 7.31 58.05 10.14
4/24/2022 6:00:00 AM 11.71 53.078 0.233 7.3 55.73 10.17
4/24/2022 6:15:00 AM 11.69 53.042 0.233 7.3 54.81 10.16
4/24/2022 6:30:00 AM 11.66 52.988 0.233 7.31 61.28 10.18
4/24/2022 6:45:00 AM 11.61 52.898 0.233 7.31 58.15 10.2
4/24/2022 7:00:00 AM 11.58 52.844 0.233 7.31 64.79 10.22
4/24/2022 7:15:00 AM 11.55 52.79 0.233 7.31 65.65 10.25
4/24/2022 7:30:00 AM 11.56 52.808 0.233 7.32 63.34 10.3
4/24/2022 7:45:00 AM 11.58 52.844 0.232 7.32 64.45 10.36
4/24/2022 8:00:00 AM 11.61 52.898 0.232 7.33 67.57 10.41
4/24/2022 8:15:00 AM 11.64 52.952 0.232 7.32 65.45 10.46
4/24/2022 8:30:00 AM 11.63 52.934 0.233 7.33 60.89 10.51
4/24/2022 8:45:00 AM 11.71 53.078 0.233 7.34 60.47 10.56
4/24/2022 9:00:00 AM 11.82 53.276 0.232 7.35 62.63 10.62
4/24/2022 9:15:00 AM 11.92 53.456 0.232 7.36 62.4 10.69
4/24/2022 9:30:00 AM 12.09 53.762 0.232 7.36 59.65 10.71
4/24/2022 9:45:00 AM 12.22 53.996 0.232 7.37 60.69 10.75
4/24/2022 10:00:00 AM 12.4 54.32 0.232 7.38 63.6 10.81
4/24/2022 10:15:00 AM 12.59 54.662 0.232 7.4 60.52 10.82
4/24/2022 10:30:00 AM 12.83 55.094 0.232 7.39 55.71 10.83
4/24/2022 10:45:00 AM 13.08 55.544 0.232 7.41 60.83 10.85
4/24/2022 11:00:00 AM 13.36 56.048 0.232 7.42 55.64 10.83
4/24/2022 11:15:00 AM 13.64 56.552 0.232 7.43 54.44 10.86
4/24/2022 11:30:00 AM 13.92 57.056 0.232 7.42 60.62 10.85
4/24/2022 11:45:00 AM 14.2 57.56 0.232 7.44 60.64 10.82
4/24/2022 12:00:00 PM 14.51 58.118 0.231 7.44 59.13 10.8
4/24/2022 12:15:00 PM 14.78 58.604 0.232 7.44 56.55 10.79
4/24/2022 12:30:00 PM 15.05 59.09 0.231 7.45 58.39 10.75
4/24/2022 12:45:00 PM 15.32 59.576 0.231 7.45 53.53 10.7
4/24/2022 1:00:00 PM 15.55 59.99 0.232 7.45 59.39 10.69
4/24/2022 1:15:00 PM 15.74 60.332 0.233 7.46 60.08 10.64
4/24/2022 1:30:00 PM 15.99 60.782 0.232 7.47 51.1 10.59
4/24/2022 1:45:00 PM 16.23 61.214 0.233 7.46 60.99 10.6
4/24/2022 2:00:00 PM 16.43 61.574 0.233 7.47 59.54 10.56
4/24/2022 2:15:00 PM 16.6 61.88 0.233 7.47 55.2 10.53
4/24/2022 2:30:00 PM 16.79 62.222 0.233 7.46 57.76 10.5
4/24/2022 2:45:00 PM 16.92 62.456 0.234 7.47 64.19 10.44
4/24/2022 3:00:00 PM 17.03 62.654 0.234 7.47 64.17 10.39
4/24/2022 3:15:00 PM 17.13 62.834 0.234 7.47 68.36 10.37
4/24/2022 3:30:00 PM 17.22 62.996 0.234 7.47 62.66 10.31
4/24/2022 3:45:00 PM 17.29 63.122 0.234 7.47 61.47 10.31
4/24/2022 4:00:00 PM 17.34 63.212 0.234 7.48 65.95 10.26
4/24/2022 4:15:00 PM 17.36 63.248 0.234 7.47 69.02 10.2
4/24/2022 4:30:00 PM 17.37 63.266 0.233 7.48 67.98 10.17
4/24/2022 4:45:00 PM 17.31 63.158 0.234 7.46 63.32 10.14
4/24/2022 5:00:00 PM 17.27 63.086 0.234 7.46 63.29 10.09
4/24/2022 5:15:00 PM 17.2 62.96 0.234 7.46 72.44 10.05
4/24/2022 5:30:00 PM 17.08 62.744 0.234 7.45 68.67 10.01
4/24/2022 5:45:00 PM 16.97 62.546 0.233 7.44 71.65 9.99
4/24/2022 6:00:00 PM 16.83 62.294 0.234 7.44 68.08 9.91
4/24/2022 6:15:00 PM 16.68 62.024 0.234 7.43 77.29 9.92
4/24/2022 6:30:00 PM 16.55 61.79 0.234 7.43 67.88 9.86
4/24/2022 6:45:00 PM 16.45 61.61 0.233 7.41 80.63 9.79
4/24/2022 7:00:00 PM 16.23 61.214 0.234 7.41 79.13 9.79
4/24/2022 7:15:00 PM 16.09 60.962 0.234 7.41 78.1 9.76
4/24/2022 7:30:00 PM 15.94 60.692 0.234 7.4 76.84 9.73
4/24/2022 7:45:00 PM 15.73 60.314 0.234 7.39 79.37 9.69
4/24/2022 8:00:00 PM 15.56 60.008 0.233 7.39 76.37 9.67
4/24/2022 8:15:00 PM 15.46 59.828 0.232 7.37 71.62 9.62
4/24/2022 8:30:00 PM 15.38 59.684 0.232 7.37 71.71 9.6
4/24/2022 8:45:00 PM 15.17 59.306 0.233 7.37 72.58 9.59
4/24/2022 9:00:00 PM 15.09 59.162 0.209 7.37 77.64 9.55
4/24/2022 9:15:00 PM 14.9 58.82 0.207 7.37 71.74 9.57
4/24/2022 9:30:00 PM 14.88 58.784 0.235 7.36 66.8 9.55
4/24/2022 9:45:00 PM 14.84 58.712 0.236 7.35 64.07 9.53
4/24/2022 10:00:00 PM 14.67 58.406 0.237 7.36 64.4 9.52
4/24/2022 10:15:00 PM 14.57 58.226 0.237 7.35 61.78 9.54
4/24/2022 10:30:00 PM 14.47 58.046 0.237 7.34 62.06 9.55
4/24/2022 10:45:00 PM 14.34 57.812 0.237 7.34 71.27 9.58
4/24/2022 11:00:00 PM 14.3 57.74 0.238 7.35 64.73 9.53
4/24/2022 11:15:00 PM 14.29 57.722 0.238 7.35 66.59 9.51
4/24/2022 11:30:00 PM 14.21 57.578 0.238 7.34 60.59 9.54
4/24/2022 11:45:00 PM 14.15 57.47 0.238 7.34 60.85 9.56
4/25/2022 12:00:00 AM 14.15 57.47 0.238 7.34 61.26 9.54
4/25/2022 12:15:00 AM 14.16 57.488 0.237 7.33 60.02 9.54
4/25/2022 12:30:00 AM 14.06 57.308 0.238 7.34 60.54 9.54
4/25/2022 12:45:00 AM 14.13 57.434 0.237 7.33 64.06 9.51
4/25/2022 1:00:00 AM 14.18 57.524 0.236 7.33 59.55 9.53
4/25/2022 1:15:00 AM 14.14 57.452 0.236 7.33 68.68 9.51
4/25/2022 1:30:00 AM 14.01 57.218 0.237 7.33 66.08 9.5
4/25/2022 1:45:00 AM 13.98 57.164 0.238 7.33 62.8 9.51
4/25/2022 2:00:00 AM 14.06 57.308 0.237 7.33 64.44 9.52
4/25/2022 2:15:00 AM 13.93 57.074 0.238 7.33 59.18 9.53
4/25/2022 2:30:00 AM 13.85 56.93 0.238 7.33 61.76 9.51
4/25/2022 2:45:00 AM 13.93 57.074 0.238 7.32 62.57 9.52
4/25/2022 3:00:00 AM 13.79 56.822 0.238 7.32 66.63 9.53
4/25/2022 3:15:00 AM 13.79 56.822 0.238 7.31 58.25 9.55
4/25/2022 3:30:00 AM 13.78 56.804 0.237 7.31 57.56 9.55
4/25/2022 3:45:00 AM 13.62 56.516 0.238 7.32 61.24 9.57
4/25/2022 4:00:00 AM 13.61 56.498 0.238 7.32 60.64 9.57
4/25/2022 4:15:00 AM 13.53 56.354 0.238 7.31 56.19 9.58
4/25/2022 4:30:00 AM 13.47 56.246 0.238 7.32 56.29 9.62
4/25/2022 4:45:00 AM 13.43 56.174 0.239 7.31 61.21 9.64
4/25/2022 5:00:00 AM 13.44 56.192 0.238 7.32 59.74 9.62
4/25/2022 5:15:00 AM 13.28 55.904 0.239 7.32 65.71 9.65
4/25/2022 5:30:00 AM 13.31 55.958 0.238 7.32 61.61 9.65
4/25/2022 5:45:00 AM 13.24 55.832 0.238 7.31 61.72 9.68
4/25/2022 6:00:00 AM 13.14 55.652 0.238 7.32 61.78 9.69
4/25/2022 6:15:00 AM 13.13 55.634 0.239 7.32 64.63 9.69
4/25/2022 6:30:00 AM 12.99 55.382 0.239 7.32 73.58 9.72
4/25/2022 6:45:00 AM 13.07 55.526 0.238 7.32 59.42 9.73
4/25/2022 7:00:00 AM 12.96 55.328 0.239 7.33 66.97 9.78
4/25/2022 7:15:00 AM 12.95 55.31 0.239 7.33 66.44 9.79
4/25/2022 7:30:00 AM 12.92 55.256 0.239 7.33 70.47 9.86
4/25/2022 7:45:00 AM 12.93 55.274 0.239 7.33 65.4 9.89
4/25/2022 8:00:00 AM 13 55.4 0.238 7.33 72 9.9
4/25/2022 8:15:00 AM 12.92 55.256 0.238 7.33 66.29 9.95
4/25/2022 8:30:00 AM 12.93 55.274 0.238 7.35 77.74 9.98
4/25/2022 8:45:00 AM 12.97 55.346 0.238 7.35 70.49 10.02
4/25/2022 9:00:00 AM 13.02 55.436 0.238 7.35 73.39 10.06
4/25/2022 9:15:00 AM 13.08 55.544 0.237 7.35 68.39 10.1
4/25/2022 9:30:00 AM 13.1 55.58 0.238 7.36 68.01 10.16
4/25/2022 9:45:00 AM 13.14 55.652 0.238 7.37 69.51 10.2
4/25/2022 10:00:00 AM 13.16 55.688 0.238 7.38 73.52 10.27
4/25/2022 10:15:00 AM 13.29 55.922 0.237 7.38 68.74 10.29
4/25/2022 10:30:00 AM 13.25 55.85 0.237 7.39 65.82 10.36
4/25/2022 10:45:00 AM 13.34 56.012 0.237 7.4 72.72 10.4
4/25/2022 11:00:00 AM 13.36 56.048 0.238 7.4 65.67 10.44
4/25/2022 11:15:00 AM 13.5 56.3 0.237 7.4 65.57 10.48
4/25/2022 11:30:00 AM 13.53 56.354 0.238 7.43 71.91 10.51
4/25/2022 11:45:00 AM 13.65 56.57 0.237 7.43 69.99 10.55
4/25/2022 12:00:00 PM 13.76 56.768 0.237 7.44 74.29 10.59
4/25/2022 12:15:00 PM 13.86 56.948 0.238 7.44 62.79 10.6
4/25/2022 12:30:00 PM 14.04 57.272 0.237 7.44 72.44 10.64
4/25/2022 12:45:00 PM 14.21 57.578 0.237 7.45 75.02 10.64
4/25/2022 1:00:00 PM 14.32 57.776 0.237 7.46 67.67 10.66
4/25/2022 1:15:00 PM 14.47 58.046 0.238 7.47 66.92 10.64
4/25/2022 1:30:00 PM 14.61 58.298 0.237 7.47 61.61 10.62
4/25/2022 1:45:00 PM 14.71 58.478 0.238 7.48 76.59 10.6
4/25/2022 2:00:00 PM 14.86 58.748 0.238 7.49 63.58 10.58
4/25/2022 2:15:00 PM 15.01 59.018 0.238 7.49 69.82 10.58
4/25/2022 2:30:00 PM 15.19 59.342 0.238 7.49 64.61 10.59
4/25/2022 2:45:00 PM 15.25 59.45 0.239 7.5 71.98 10.52
4/25/2022 3:00:00 PM 15.35 59.63 0.239 7.49 66.78 10.48
4/25/2022 3:15:00 PM 15.44 59.792 0.238 7.49 74.83 10.47
4/25/2022 3:30:00 PM 15.52 59.936 0.238 7.5 82.59 10.42
4/25/2022 3:45:00 PM 15.57 60.026 0.239 7.49 80.26 10.41
4/25/2022 4:00:00 PM 15.63 60.134 0.24 7.5 78 10.41
4/25/2022 4:15:00 PM 15.69 60.242 0.239 7.5 69.3 10.39
4/25/2022 4:30:00 PM 15.69 60.242 0.24 7.51 75.71 10.35
4/25/2022 4:45:00 PM 15.74 60.332 0.24 7.51 77.24 10.35
4/25/2022 5:00:00 PM 15.78 60.404 0.239 7.51 81.85 10.29
4/25/2022 5:15:00 PM 15.77 60.386 0.239 7.5 76.05 10.24
4/25/2022 5:30:00 PM 15.74 60.332 0.239 7.49 78.21 10.15
4/25/2022 5:45:00 PM 15.7 60.26 0.24 7.49 78.44 10.13
4/25/2022 6:00:00 PM 15.68 60.224 0.24 7.48 79.92 10.07
4/25/2022 6:15:00 PM 15.66 60.188 0.24 7.47 82.49 10.02
4/25/2022 6:30:00 PM 15.58 60.044 0.24 7.46 73.19 9.95
4/25/2022 6:45:00 PM 15.5 59.9 0.24 7.45 80.3 9.89
4/25/2022 7:00:00 PM 15.41 59.738 0.24 7.45 82.31 9.88
4/25/2022 7:15:00 PM 15.33 59.594 0.24 7.44 66.5 9.83
4/25/2022 7:30:00 PM 15.23 59.414 0.239 7.42 81.03 9.77
4/25/2022 7:45:00 PM 15.11 59.198 0.24 7.42 80.77 9.78
4/25/2022 8:00:00 PM 14.99 58.982 0.24 7.42 77.69 9.73
4/25/2022 8:15:00 PM 14.95 58.91 0.239 7.41 78.57 9.69
4/25/2022 8:30:00 PM 14.86 58.748 0.24 7.4 73.48 9.66
4/25/2022 8:45:00 PM 14.8 58.64 0.24 7.39 65.49 9.64
4/25/2022 9:00:00 PM 14.73 58.514 0.24 7.38 74.71 9.63
4/25/2022 9:15:00 PM 14.65 58.37 0.24 7.38 78.05 9.62
4/25/2022 9:30:00 PM 14.62 58.316 0.24 7.38 65.96 9.6
4/25/2022 9:45:00 PM 14.57 58.226 0.24 7.37 70.15 9.59
4/25/2022 10:00:00 PM 14.54 58.172 0.24 7.36 62.27 9.58
4/25/2022 10:15:00 PM 14.48 58.064 0.24 7.36 63.89 9.57
4/25/2022 10:30:00 PM 14.45 58.01 0.239 7.37 68.78 9.55
4/25/2022 10:45:00 PM 14.45 58.01 0.239 7.35 60.94 9.56
4/25/2022 11:00:00 PM 14.37 57.866 0.24 7.34 70.3 9.54
4/25/2022 11:15:00 PM 14.33 57.794 0.24 7.33 61.22 9.55
4/25/2022 11:30:00 PM 14.32 57.776 0.24 7.31 58.83 9.55
4/25/2022 11:45:00 PM 14.26 57.668 0.241 7.31 65.61 9.56
4/26/2022 12:00:00 AM 14.28 57.704 0.24 7.3 66.41 9.54
4/26/2022 12:15:00 AM 14.28 57.704 0.239 7.3 62.88 9.53
4/26/2022 12:30:00 AM 14.17 57.506 0.24 7.28 61.42 9.55
4/26/2022 12:45:00 AM 14.2 57.56 0.239 7.31 59.9 9.53
4/26/2022 1:00:00 AM 14.18 57.524 0.239 7.33 65.45 9.53
4/26/2022 1:15:00 AM 14.13 57.434 0.24 7.33 64.82 9.53
4/26/2022 1:30:00 AM 14.13 57.434 0.24 7.34 61.69 9.52
4/26/2022 1:45:00 AM 14.07 57.326 0.24 7.34 74.77 9.53
4/26/2022 2:00:00 AM 14.06 57.308 0.239 7.33 60.26 9.52
4/26/2022 2:15:00 AM 13.98 57.164 0.24 7.33 71.49 9.54
4/26/2022 2:30:00 AM 13.99 57.182 0.24 7.33 66.47 9.53
4/26/2022 2:45:00 AM 13.95 57.11 0.24 7.32 67.72 9.55
4/26/2022 3:00:00 AM 13.98 57.164 0.239 7.32 61.25 9.53
4/26/2022 3:15:00 AM 13.91 57.038 0.24 7.33 62.6 9.55
4/26/2022 3:30:00 AM 13.91 57.038 0.239 7.33 70.55 9.55
4/26/2022 3:45:00 AM 13.91 57.038 0.239 7.32 58.38 9.55
4/26/2022 4:00:00 AM 13.88 56.984 0.239 7.32 75.13 9.53
4/26/2022 4:15:00 AM 13.88 56.984 0.239 7.32 53.9 9.55
4/26/2022 4:30:00 AM 13.84 56.912 0.24 7.32 58.04 9.56
4/26/2022 4:45:00 AM 13.82 56.876 0.239 7.33 63.26 9.55
4/26/2022 5:00:00 AM 13.79 56.822 0.24 7.34 66.22 9.56
4/26/2022 5:15:00 AM 13.74 56.732 0.24 7.33 68.39 9.58
4/26/2022 5:30:00 AM 13.76 56.768 0.239 7.32 55.04 9.57
4/26/2022 5:45:00 AM 13.7 56.66 0.239 7.32 63.8 9.57
4/26/2022 6:00:00 AM 13.63 56.534 0.239 7.32 61.52 9.58
4/26/2022 6:15:00 AM 13.63 56.534 0.239 7.32 66.87 9.6
4/26/2022 6:30:00 AM 13.59 56.462 0.239 7.32 55.03 9.6
4/26/2022 6:45:00 AM 13.53 56.354 0.24 7.32 54.25 9.64
4/26/2022 7:00:00 AM 13.51 56.318 0.239 7.32 61.27 9.63
4/26/2022 7:15:00 AM 13.49 56.282 0.239 7.32 55.77 9.65
4/26/2022 7:30:00 AM 13.46 56.228 0.239 7.32 68.16 9.68
4/26/2022 7:45:00 AM 13.43 56.174 0.239 7.32 64.47 9.74
4/26/2022 8:00:00 AM 13.44 56.192 0.239 7.32 68.94 9.76
4/26/2022 8:15:00 AM 13.49 56.282 0.238 7.32 73.41 9.82
4/26/2022 8:30:00 AM 13.44 56.192 0.239 7.33 71.45 9.88
4/26/2022 8:45:00 AM 13.46 56.228 0.239 7.33 71.08 9.96
4/26/2022 9:00:00 AM 13.47 56.246 0.239 7.34 74.19 9.98
4/26/2022 9:15:00 AM 13.5 56.3 0.239 7.35 70.05 10.04
4/26/2022 9:30:00 AM 13.58 56.444 0.238 7.35 68.47 10.08
4/26/2022 9:45:00 AM 13.61 56.498 0.238 7.36 68.26 10.13
4/26/2022 10:00:00 AM 13.62 56.516 0.238 7.37 74.28 10.18
4/26/2022 10:15:00 AM 13.67 56.606 0.238 7.37 78.52 10.23
4/26/2022 10:30:00 AM 13.7 56.66 0.239 7.39 69.74 10.25
4/26/2022 10:45:00 AM 13.81 56.858 0.238 7.4 67.23 10.26
4/26/2022 11:00:00 AM 13.83 56.894 0.238 7.39 62.54 10.26
4/26/2022 11:15:00 AM 13.9 57.02 0.238 7.4 68.04 10.28
4/26/2022 11:30:00 AM 13.94 57.092 0.239 7.4 78.2 10.3
4/26/2022 11:45:00 AM 14 57.2 0.24 7.43 128.7 10.25
4/26/2022 12:00:00 PM 14.11 57.398 0.24 7.46 137.8 10.24
4/26/2022 12:15:00 PM 14.18 57.524 0.239 7.47 148.7 10.22
4/26/2022 12:30:00 PM 14.18 57.524 0.241 7.46 183.2 10.21
4/26/2022 12:45:00 PM 14.26 57.668 0.24 7.47 177.7 10.24
4/26/2022 1:00:00 PM 14.28 57.704 0.24 7.46 138.8 10.27
4/26/2022 1:15:00 PM 14.3 57.74 0.24 7.44 108.4 10.26
4/26/2022 1:30:00 PM 14.33 57.794 0.239 7.44 111 10.24
4/26/2022 1:45:00 PM 14.34 57.812 0.24 7.44 97.97 10.21
4/26/2022 2:00:00 PM 14.38 57.884 0.24 7.43 104.8 10.22
4/26/2022 2:15:00 PM 14.36 57.848 0.24 7.43 101.3 10.17
4/26/2022 2:30:00 PM 14.33 57.794 0.24 7.42 102.9 10.13
4/26/2022 2:45:00 PM 14.35 57.83 0.239 7.42 108 10.12
4/26/2022 3:00:00 PM 14.24 57.632 0.239 7.41 105.4 10.15
4/26/2022 3:15:00 PM 14.27 57.686 0.239 7.41 111.9 10.15
4/26/2022 3:30:00 PM 14.21 57.578 0.239 7.42 128.1 10.19
4/26/2022 3:45:00 PM 14.2 57.56 0.239 7.42 100.3 10.19
4/26/2022 4:00:00 PM 14.18 57.524 0.239 7.42 104.9 10.22
4/26/2022 4:15:00 PM 14.15 57.47 0.239 7.43 117.6 10.21
4/26/2022 4:30:00 PM 14.07 57.326 0.24 7.44 109.4 10.21
4/26/2022 4:45:00 PM 14.11 57.398 0.239 7.42 100.3 10.16
4/26/2022 5:00:00 PM 14.09 57.362 0.24 7.42 102.9 10.13
4/26/2022 5:15:00 PM 14.05 57.29 0.239 7.43 94.08 10.12
4/26/2022 5:30:00 PM 14.06 57.308 0.239 7.42 91.4 10.08
4/26/2022 5:45:00 PM 13.98 57.164 0.239 7.42 98.2 10.07
4/26/2022 6:00:00 PM 13.96 57.128 0.239 7.41 98.65 10.06
4/26/2022 6:15:00 PM 13.93 57.074 0.239 7.42 92.74 10.03
4/26/2022 6:30:00 PM 13.87 56.966 0.24 7.41 91.15 10.03
4/26/2022 6:45:00 PM 13.9 57.02 0.239 7.41 83.39 9.98
4/26/2022 7:00:00 PM 13.82 56.876 0.239 7.4 91.45 9.97
4/26/2022 7:15:00 PM 13.74 56.732 0.24 7.41 91.11 9.95
4/26/2022 7:30:00 PM 13.69 56.642 0.24 7.39 88.21 9.92
4/26/2022 7:45:00 PM 13.57 56.426 0.24 7.4 91.63 9.91
4/26/2022 8:00:00 PM 13.59 56.462 0.239 7.4 77.1 9.89
4/26/2022 8:15:00 PM 13.55 56.39 0.239 7.38 82.64 9.85
4/26/2022 8:30:00 PM 13.48 56.264 0.24 7.37 86.13 9.87
4/26/2022 8:45:00 PM 13.46 56.228 0.24 7.38 87.09 9.85
4/26/2022 9:00:00 PM 13.45 56.21 0.24 7.38 90.63 9.83
4/26/2022 9:15:00 PM 13.45 56.21 0.24 7.37 85.31 9.83
4/26/2022 9:30:00 PM 13.44 56.192 0.239 7.38 72.61 9.81
4/26/2022 9:45:00 PM 13.37 56.066 0.24 7.38 73.28 9.81
4/26/2022 10:00:00 PM 13.34 56.012 0.239 7.37 70.92 9.8
4/26/2022 10:15:00 PM 13.33 55.994 0.239 7.37 70.18 9.8
4/26/2022 10:30:00 PM 13.19 55.742 0.24 7.37 74.18 9.83
4/26/2022 10:45:00 PM 13.21 55.778 0.239 7.36 76.56 9.82
4/26/2022 11:00:00 PM 13.19 55.742 0.239 7.37 76.36 9.83
4/26/2022 11:15:00 PM 13.15 55.67 0.239 7.36 85.51 9.83
4/26/2022 11:30:00 PM 13.07 55.526 0.239 7.36 72.21 9.83
4/26/2022 11:45:00 PM 13.01 55.418 0.239 7.35 75.23 9.83
4/27/2022 12:00:00 AM 12.94 55.292 0.24 7.36 86.52 9.86
4/27/2022 12:15:00 AM 12.98 55.364 0.239 7.36 68.63 9.86
4/27/2022 12:30:00 AM 12.95 55.31 0.238 7.36 73.49 9.86
4/27/2022 12:45:00 AM 12.89 55.202 0.239 7.36 70.55 9.85
4/27/2022 1:00:00 AM 12.84 55.112 0.239 7.36 75.35 9.87
4/27/2022 1:15:00 AM 12.78 55.004 0.239 7.36 75.61 9.87
4/27/2022 1:30:00 AM 12.77 54.986 0.239 7.36 86.36 9.88
4/27/2022 1:45:00 AM 12.74 54.932 0.239 7.36 81.4 9.88
4/27/2022 2:00:00 AM 12.72 54.896 0.239 7.37 85.03 9.86
4/27/2022 2:15:00 AM 12.68 54.824 0.239 7.37 77.43 9.88
4/27/2022 2:30:00 AM 12.67 54.806 0.239 7.37 72.23 9.89
4/27/2022 2:45:00 AM 12.64 54.752 0.239 7.37 72.43 9.89
4/27/2022 3:00:00 AM 12.59 54.662 0.239 7.36 76.7 9.89
4/27/2022 3:15:00 AM 12.51 54.518 0.239 7.37 75.43 9.91
4/27/2022 3:30:00 AM 12.45 54.41 0.239 7.37 79.05 9.94
4/27/2022 3:45:00 AM 12.37 54.266 0.239 7.37 73 9.94
4/27/2022 4:00:00 AM 12.29 54.122 0.24 7.38 74.65 9.96
4/27/2022 4:15:00 AM 12.22 53.996 0.239 7.39 95.55 9.99
4/27/2022 4:30:00 AM 12.14 53.852 0.239 7.38 80.99 9.99
4/27/2022 4:45:00 AM 12.06 53.708 0.239 7.37 81.4 10.03
4/27/2022 5:00:00 AM 11.98 53.564 0.239 7.39 75.08 10.04
4/27/2022 5:15:00 AM 11.87 53.366 0.239 7.38 69.25 10.06
4/27/2022 5:30:00 AM 11.81 53.258 0.239 7.37 86.71 10.07
4/27/2022 5:45:00 AM 11.73 53.114 0.239 7.39 78.91 10.11
4/27/2022 6:00:00 AM 11.66 52.988 0.239 7.4 76.65 10.12
4/27/2022 6:15:00 AM 11.56 52.808 0.24 7.39 72.15 10.15
4/27/2022 6:30:00 AM 11.5 52.7 0.239 7.39 81.41 10.18
4/27/2022 6:45:00 AM 11.45 52.61 0.239 7.39 74.39 10.22
4/27/2022 7:00:00 AM 11.33 52.394 0.24 7.39 86.21 10.25
4/27/2022 7:15:00 AM 11.27 52.286 0.24 7.38 88.68 10.28
4/27/2022 7:30:00 AM 11.22 52.196 0.239 7.4 83.42 10.36
4/27/2022 7:45:00 AM 11.17 52.106 0.24 7.4 114.7 10.41
4/27/2022 8:00:00 AM 11.12 52.016 0.241 7.44 231.6 10.44
4/27/2022 8:15:00 AM 11.27 52.286 0.237 7.45 149.5 10.42
4/27/2022 8:30:00 AM 11.41 52.538 0.234 7.44 100.1 10.39
4/27/2022 8:45:00 AM 11.57 52.826 0.231 7.42 73.87 10.42
4/27/2022 9:00:00 AM 11.68 53.024 0.229 7.42 49.08 10.52
4/27/2022 9:15:00 AM 11.68 53.024 0.228 7.44 42.74 10.59
4/27/2022 9:30:00 AM 11.69 53.042 0.228 7.45 27.56 10.66
4/27/2022 9:45:00 AM 11.7 53.06 0.228 7.46 27.15 10.76
4/27/2022 10:00:00 AM 11.78 53.204 0.229 7.47 37.5 10.87
4/27/2022 10:15:00 AM 11.88 53.384 0.23 7.48 20.68 10.99
4/27/2022 10:30:00 AM 11.95 53.51 0.231 7.5 19.82 11.1
4/27/2022 10:45:00 AM 11.61 52.898 0.252 7.46 93.25 10.84
4/27/2022 11:00:00 AM 11.65 52.97 0.244 7.5 109.4 10.79
4/27/2022 11:15:00 AM 11.81 53.258 0.24 7.54 89.45 10.95
4/27/2022 11:30:00 AM 11.95 53.51 0.24 7.55 82.87 10.97
4/27/2022 11:45:00 AM 12.12 53.816 0.239 7.55 80.56 11
4/27/2022 12:00:00 PM 12.18 53.924 0.24 7.56 88.47 11.02
4/27/2022 12:15:00 PM 12.46 54.428 0.239 7.58 84.05 10.99
4/27/2022 12:30:00 PM 12.64 54.752 0.24 7.59 94.78 10.96
4/27/2022 12:45:00 PM 12.8 55.04 0.239 7.59 78.82 10.94
4/27/2022 1:00:00 PM 12.94 55.292 0.238 7.59 80.5 10.93
4/27/2022 1:15:00 PM 13.14 55.652 0.239 7.59 72.2 10.96
4/27/2022 1:30:00 PM 13.3 55.94 0.239 7.59 71.3 10.94
4/27/2022 1:45:00 PM 13.5 56.3 0.24 7.6 81.1 10.93
4/27/2022 2:00:00 PM 13.7 56.66 0.24 7.6 83.53 10.95
4/27/2022 2:15:00 PM 13.87 56.966 0.24 7.61 71.93 10.93
4/27/2022 2:30:00 PM 14.03 57.254 0.241 7.62 75.34 10.91
4/27/2022 2:45:00 PM 14.16 57.488 0.24 7.62 98.73 10.87
4/27/2022 3:00:00 PM 14.2 57.56 0.241 7.61 85.38 10.83
4/27/2022 3:15:00 PM 14.27 57.686 0.24 7.6 79.33 10.78
4/27/2022 3:30:00 PM 14.27 57.686 0.24 7.59 83.29 10.72
4/27/2022 3:45:00 PM 14.32 57.776 0.241 7.6 78.89 10.71
4/27/2022 4:00:00 PM 14.35 57.83 0.242 7.59 85.06 10.67
4/27/2022 4:15:00 PM 14.3 57.74 0.241 7.59 84.55 10.64
4/27/2022 4:30:00 PM 14.25 57.65 0.242 7.58 82.65 10.65
4/27/2022 4:45:00 PM 14.2 57.56 0.241 7.59 80.98 10.63
4/27/2022 5:00:00 PM 14.14 57.452 0.241 7.57 80.66 10.63
4/27/2022 5:15:00 PM 14.11 57.398 0.242 7.57 89.19 10.6
4/27/2022 5:30:00 PM 14.05 57.29 0.242 7.57 86.85 10.56
4/27/2022 5:45:00 PM 13.96 57.128 0.242 7.56 93.29 10.5
4/27/2022 6:00:00 PM 13.89 57.002 0.241 7.55 85.02 10.45
4/27/2022 6:15:00 PM 13.82 56.876 0.242 7.54 101.6 10.39
4/27/2022 6:30:00 PM 13.7 56.66 0.242 7.54 97.13 10.37
4/27/2022 6:45:00 PM 13.56 56.408 0.242 7.53 83.46 10.31
4/27/2022 7:00:00 PM 13.41 56.138 0.242 7.53 87.07 10.29
4/27/2022 7:15:00 PM 13.22 55.796 0.241 7.51 79.97 10.28
4/27/2022 7:30:00 PM 13.07 55.526 0.241 7.5 79.35 10.25
4/27/2022 7:45:00 PM 12.93 55.274 0.241 7.49 94.09 10.22
4/27/2022 8:00:00 PM 12.8 55.04 0.241 7.47 88.18 10.19
4/27/2022 8:15:00 PM 12.62 54.716 0.241 7.47 95.5 10.2
4/27/2022 8:30:00 PM 12.43 54.374 0.242 7.47 83.96 10.21
4/27/2022 8:45:00 PM 12.24 54.032 0.241 7.46 81.91 10.22
4/27/2022 9:00:00 PM 12.08 53.744 0.242 7.46 82.36 10.22
4/27/2022 9:15:00 PM 11.95 53.51 0.242 7.46 76.42 10.22
4/27/2022 9:30:00 PM 11.8 53.24 0.242 7.45 75.6 10.24
4/27/2022 9:45:00 PM 11.69 53.042 0.24 7.46 71.52 10.25
4/27/2022 10:00:00 PM 11.54 52.772 0.241 7.46 67.66 10.27
4/27/2022 10:15:00 PM 11.43 52.574 0.241 7.46 74.65 10.3
4/27/2022 10:30:00 PM 11.36 52.448 0.241 7.46 63.48 10.3
4/27/2022 10:45:00 PM 11.26 52.268 0.241 7.46 63.12 10.31
4/27/2022 11:00:00 PM 11.16 52.088 0.241 7.45 60.84 10.32
4/27/2022 11:15:00 PM 11.1 51.98 0.241 7.45 60.54 10.31
4/27/2022 11:30:00 PM 10.99 51.782 0.241 7.46 57.96 10.34
4/27/2022 11:45:00 PM 10.95 51.71 0.24 7.45 57.51 10.35
4/28/2022 12:00:00 AM 10.87 51.566 0.241 7.46 76.88 10.35
4/28/2022 12:15:00 AM 10.81 51.458 0.241 7.45 59.11 10.36
4/28/2022 12:30:00 AM 10.79 51.422 0.241 7.46 55.09 10.36
4/28/2022 12:45:00 AM 10.7 51.26 0.242 7.45 69.51 10.38
4/28/2022 1:00:00 AM 10.69 51.242 0.241 7.45 66.91 10.37
4/28/2022 1:15:00 AM 10.66 51.188 0.24 7.44 60.14 10.38
4/28/2022 1:30:00 AM 10.6 51.08 0.24 7.45 57.75 10.38
4/28/2022 1:45:00 AM 10.53 50.954 0.241 7.44 63.65 10.41
4/28/2022 2:00:00 AM 10.49 50.882 0.24 7.45 55.51 10.42
4/28/2022 2:15:00 AM 10.44 50.792 0.24 7.44 57.73 10.43
4/28/2022 2:30:00 AM 10.38 50.684 0.24 7.45 60.34 10.43
4/28/2022 2:45:00 AM 10.32 50.576 0.241 7.45 67.69 10.45
4/28/2022 3:00:00 AM 10.26 50.468 0.242 7.46 55.22 10.46
4/28/2022 3:15:00 AM 10.2 50.36 0.241 7.45 67.86 10.48
4/28/2022 3:30:00 AM 10.13 50.234 0.242 7.45 65.03 10.5
4/28/2022 3:45:00 AM 10.1 50.18 0.241 7.45 51.65 10.51
4/28/2022 4:00:00 AM 10.03 50.054 0.242 7.45 61.2 10.52
4/28/2022 4:15:00 AM 10 50 0.242 7.45 53.84 10.52
4/28/2022 4:30:00 AM 9.97 49.946 0.242 7.44 48.45 10.53
4/28/2022 4:45:00 AM 9.93 49.874 0.242 7.45 56.03 10.54
4/28/2022 5:00:00 AM 9.92 49.856 0.242 7.45 58.73 10.54
4/28/2022 5:15:00 AM 9.89 49.802 0.242 7.45 47.64 10.57
4/28/2022 5:30:00 AM 9.85 49.73 0.242 7.45 58.1 10.56
4/28/2022 5:45:00 AM 9.82 49.676 0.241 7.44 51.47 10.57
4/28/2022 6:00:00 AM 9.78 49.604 0.242 7.45 60.46 10.6
4/28/2022 6:15:00 AM 9.75 49.55 0.242 7.45 48.93 10.6
4/28/2022 6:30:00 AM 9.69 49.442 0.242 7.45 50.95 10.6
4/28/2022 6:45:00 AM 9.66 49.388 0.242 7.45 57.84 10.63
4/28/2022 7:00:00 AM 9.63 49.334 0.241 7.45 52.74 10.67
4/28/2022 7:15:00 AM 9.65 49.37 0.242 7.45 53.42 10.68
4/28/2022 7:30:00 AM 9.66 49.388 0.242 7.46 55.09 10.72
4/28/2022 7:45:00 AM 9.68 49.424 0.241 7.45 54.42 10.76
4/28/2022 8:00:00 AM 9.7 49.46 0.24 7.46 64.58 10.82
4/28/2022 8:15:00 AM 9.72 49.496 0.24 7.47 69.39 10.9
4/28/2022 8:30:00 AM 9.72 49.496 0.24 7.49 65.73 10.97
4/28/2022 8:45:00 AM 9.78 49.604 0.241 7.5 59.19 11
4/28/2022 9:00:00 AM 9.81 49.658 0.24 7.5 59.87 11.08
4/28/2022 9:15:00 AM 9.89 49.802 0.239 7.51 63.37 11.15
4/28/2022 9:30:00 AM 10.04 50.072 0.24 7.52 61.05 11.22
4/28/2022 9:45:00 AM 10.17 50.306 0.24 7.54 59.44 11.26
4/28/2022 10:00:00 AM 10.29 50.522 0.24 7.55 50.11 11.33
4/28/2022 10:15:00 AM 10.41 50.738 0.24 7.55 54.49 11.35
4/28/2022 10:30:00 AM 10.59 51.062 0.24 7.56 60.56 11.34
4/28/2022 10:45:00 AM 10.82 51.476 0.24 7.57 59.75 11.35
4/28/2022 11:00:00 AM 11.03 51.854 0.24 7.58 59.15 11.32
4/28/2022 11:15:00 AM 11.3 52.34 0.24 7.59 67.82 11.3
4/28/2022 11:30:00 AM 11.56 52.808 0.241 7.59 77.07 11.31
4/28/2022 11:45:00 AM 11.83 53.294 0.24 7.6 59.34 11.31
4/28/2022 12:00:00 PM 12.08 53.744 0.24 7.61 72.57 11.31
4/28/2022 12:15:00 PM 12.11 53.798 0.236 7.62 51.97 11.51
4/28/2022 12:30:00 PM 12.18 53.924 0.233 7.63 39.23 11.75
4/28/2022 12:45:00 PM 12.31 54.158 0.231 7.64 28.75 11.88
4/28/2022 1:00:00 PM 12.49 54.482 0.231 7.67 23.13 11.96
4/28/2022 1:15:00 PM 12.69 54.842 0.23 7.7 20.71 11.99
4/28/2022 1:30:00 PM 12.89 55.202 0.231 7.72 24.71 12
4/28/2022 1:45:00 PM 13.1 55.58 0.232 7.73 19.08 12.01
4/28/2022 2:00:00 PM 13.29 55.922 0.233 7.75 17.37 11.99
4/28/2022 2:15:00 PM 13.44 56.192 0.234 7.77 21.48 11.95
4/28/2022 2:30:00 PM 13.61 56.498 0.234 7.78 21.08 11.94
4/28/2022 2:45:00 PM 14 57.2 0.243 7.79 26.99 11.71
4/28/2022 3:00:00 PM 14.3 57.74 0.251 7.78 143.3 10.59
4/28/2022 3:15:00 PM 14.54 58.172 0.244 7.73 118.6 10.66
4/28/2022 3:30:00 PM 14.65 58.37 0.242 7.69 86.29 10.7
4/28/2022 3:45:00 PM 14.75 58.55 0.242 7.65 83.18 10.66
4/28/2022 4:00:00 PM 14.79 58.622 0.242 7.64 90.08 10.67
4/28/2022 4:15:00 PM 14.84 58.712 0.241 7.63 92.98 10.63
4/28/2022 4:30:00 PM 14.98 58.964 0.242 7.62 80.69 10.6
4/28/2022 4:45:00 PM 15.06 59.108 0.242 7.62 80.87 10.54
4/28/2022 5:00:00 PM 15.09 59.162 0.241 7.6 81.91 10.5
4/28/2022 5:15:00 PM 15.06 59.108 0.242 7.6 92.66 10.45
4/28/2022 5:30:00 PM 14.84 58.712 0.242 7.59 106.5 10.47
4/28/2022 5:45:00 PM 14.68 58.424 0.242 7.59 84.12 10.45
4/28/2022 6:00:00 PM 14.54 58.172 0.243 7.58 80.48 10.43
4/28/2022 6:15:00 PM 14.38 57.884 0.243 7.57 84.92 10.42
4/28/2022 6:30:00 PM 14.22 57.596 0.242 7.57 89.76 10.37
4/28/2022 6:45:00 PM 14.09 57.362 0.242 7.56 82 10.35
4/28/2022 7:00:00 PM 13.94 57.092 0.242 7.55 95.46 10.31
4/28/2022 7:15:00 PM 13.72 56.696 0.242 7.56 86.65 10.32
4/28/2022 7:30:00 PM 13.46 56.228 0.242 7.54 90.99 10.31
4/28/2022 7:45:00 PM 13.26 55.868 0.242 7.54 87.36 10.3
4/28/2022 8:00:00 PM 13.02 55.436 0.241 7.53 81.96 10.29
4/28/2022 8:15:00 PM 12.75 54.95 0.241 7.53 86.06 10.27
4/28/2022 8:30:00 PM 12.5 54.5 0.241 7.51 82.21 10.3
4/28/2022 8:45:00 PM 12.27 54.086 0.241 7.51 83.54 10.3
4/28/2022 9:00:00 PM 12.11 53.798 0.241 7.51 80.31 10.31
4/28/2022 9:15:00 PM 12 53.6 0.242 7.5 108.5 10.28
4/28/2022 9:30:00 PM 11.91 53.438 0.241 7.49 90.66 10.27
4/28/2022 9:45:00 PM 11.83 53.294 0.241 7.48 95.21 10.29
4/28/2022 10:00:00 PM 11.74 53.132 0.241 7.48 97.99 10.27
4/28/2022 10:15:00 PM 11.65 52.97 0.241 7.47 96.43 10.27
4/28/2022 10:30:00 PM 11.58 52.844 0.241 7.46 107.5 10.28
4/28/2022 10:45:00 PM 11.53 52.754 0.24 7.45 94.54 10.29
4/28/2022 11:00:00 PM 11.48 52.664 0.241 7.46 95.18 10.3
4/28/2022 11:15:00 PM 11.44 52.592 0.24 7.46 94.25 10.29
4/28/2022 11:30:00 PM 11.41 52.538 0.241 7.45 94.05 10.27
4/28/2022 11:45:00 PM 11.43 52.574 0.24 7.44 87.91 10.29
4/29/2022 12:00:00 AM 11.39 52.502 0.24 7.45 92.66 10.28
4/29/2022 12:15:00 AM 11.35 52.43 0.241 7.44 94.2 10.28
4/29/2022 12:30:00 AM 11.32 52.376 0.24 7.44 88.92 10.28
4/29/2022 12:45:00 AM 11.26 52.268 0.24 7.44 85.52 10.3
4/29/2022 1:00:00 AM 11.26 52.268 0.24 7.44 95.15 10.29
4/29/2022 1:15:00 AM 11.22 52.196 0.239 7.43 93.07 10.3
4/29/2022 1:30:00 AM 11.2 52.16 0.239 7.43 81.81 10.31
4/29/2022 1:45:00 AM 11.14 52.052 0.239 7.43 80.29 10.31
4/29/2022 2:00:00 AM 11.1 51.98 0.239 7.43 89.96 10.33
4/29/2022 2:15:00 AM 11.08 51.944 0.239 7.44 82.28 10.33
4/29/2022 2:30:00 AM 11.05 51.89 0.24 7.43 84.52 10.33
4/29/2022 2:45:00 AM 11 51.8 0.241 7.43 84.44 10.36
4/29/2022 3:00:00 AM 10.97 51.746 0.24 7.43 76.45 10.36
4/29/2022 3:15:00 AM 10.93 51.674 0.24 7.44 75.48 10.35
4/29/2022 3:30:00 AM 10.89 51.602 0.239 7.43 70.33 10.37
4/29/2022 3:45:00 AM 10.84 51.512 0.24 7.43 81.44 10.39
4/29/2022 4:00:00 AM 10.77 51.386 0.24 7.43 84.32 10.41
4/29/2022 4:15:00 AM 10.71 51.278 0.24 7.42 78.66 10.42
4/29/2022 4:30:00 AM 10.65 51.17 0.24 7.42 74.2 10.44
4/29/2022 4:45:00 AM 10.6 51.08 0.24 7.42 78.77 10.45
4/29/2022 5:00:00 AM 10.54 50.972 0.24 7.43 76.86 10.46
4/29/2022 5:15:00 AM 10.48 50.864 0.24 7.43 79.67 10.49
4/29/2022 5:30:00 AM 10.44 50.792 0.24 7.42 75.41 10.5
4/29/2022 5:45:00 AM 10.39 50.702 0.24 7.43 70.5 10.5
4/29/2022 6:00:00 AM 10.32 50.576 0.239 7.43 82.01 10.54
4/29/2022 6:15:00 AM 10.28 50.504 0.24 7.43 77.04 10.54
4/29/2022 6:30:00 AM 10.23 50.414 0.24 7.43 80.54 10.56
4/29/2022 6:45:00 AM 10.2 50.36 0.24 7.42 78.75 10.6
4/29/2022 7:00:00 AM 10.17 50.306 0.24 7.42 77.52 10.64
4/29/2022 7:15:00 AM 10.18 50.324 0.24 7.43 75.59 10.69
4/29/2022 7:30:00 AM 10.2 50.36 0.239 7.44 84.33 10.71
4/29/2022 7:45:00 AM 10.21 50.378 0.239 7.44 103.3 10.75
4/29/2022 8:00:00 AM 10.27 50.486 0.241 7.46 149.2 10.79
4/29/2022 8:15:00 AM 10.37 50.666 0.243 7.53 291.7 10.8
4/29/2022 8:30:00 AM 10.55 50.99 0.242 7.54 338.4 10.78
4/29/2022 8:45:00 AM 10.63 51.134 0.241 7.53 245.3 10.83
4/29/2022 9:00:00 AM 10.79 51.422 0.24 7.52 150.4 10.85
4/29/2022 9:15:00 AM 10.97 51.746 0.239 7.51 117.8 10.89
4/29/2022 9:30:00 AM 11.18 52.124 0.24 7.51 123.9 10.92
4/29/2022 9:45:00 AM 11.35 52.43 0.239 7.51 130.2 10.9
4/29/2022 10:00:00 AM 11.46 52.628 0.239 7.51 124.9 10.94
4/29/2022 10:15:00 AM 11.68 53.024 0.238 7.51 145.3 10.93
4/29/2022 10:30:00 AM 11.98 53.564 0.239 7.51 144.3 10.89
4/29/2022 10:45:00 AM 12.2 53.96 0.239 7.51 132.2 10.9
4/29/2022 11:00:00 AM 12.39 54.302 0.238 7.52 128.7 10.89
4/29/2022 11:15:00 AM 12.68 54.824 0.239 7.53 129.3 10.88
4/29/2022 11:30:00 AM 12.89 55.202 0.239 7.53 137 10.89
4/29/2022 11:45:00 AM 13.13 55.634 0.24 7.53 149.5 10.86
4/29/2022 12:00:00 PM 13.33 55.994 0.239 7.54 134.8 10.84
4/29/2022 12:15:00 PM 13.58 56.444 0.238 7.54 145.9 10.84
4/29/2022 12:30:00 PM 13.83 56.894 0.239 7.56 149.3 10.81
4/29/2022 12:45:00 PM 14.07 57.326 0.239 7.55 129.8 10.76
4/29/2022 1:00:00 PM 14.28 57.704 0.239 7.56 143 10.74
4/29/2022 1:15:00 PM 14.49 58.082 0.239 7.56 129.9 10.71
4/29/2022 1:30:00 PM 14.67 58.406 0.239 7.57 137.5 10.72
4/29/2022 1:45:00 PM 14.79 58.622 0.239 7.57 130.2 10.67
4/29/2022 2:00:00 PM 14.99 58.982 0.24 7.56 136.7 10.61
4/29/2022 2:15:00 PM 15.09 59.162 0.239 7.57 136 10.6
4/29/2022 2:30:00 PM 15.1 59.18 0.239 7.56 135.3 10.6
4/29/2022 2:45:00 PM 15.26 59.468 0.24 7.57 142.5 10.54
4/29/2022 3:00:00 PM 15.28 59.504 0.24 7.58 147.3 10.54
4/29/2022 3:15:00 PM 15.25 59.45 0.239 7.58 139.6 10.58
4/29/2022 3:30:00 PM 15.31 59.558 0.241 7.57 239.6 10.35
4/29/2022 3:45:00 PM 15.25 59.45 0.243 7.64 470.4 10.22
4/29/2022 4:00:00 PM 15.22 59.396 0.241 7.59 322.5 10.26
4/29/2022 4:15:00 PM 15.1 59.18 0.241 7.55 345.1 10.26
4/29/2022 4:30:00 PM 14.97 58.946 0.24 7.61 463.5 10.25
4/29/2022 4:45:00 PM 14.87 58.766 0.241 7.48 666.6 10.18
4/29/2022 5:00:00 PM 14.72 58.496 0.239 7.44 849.8 10.17
4/29/2022 5:15:00 PM 14.57 58.226 0.24 7.44 959.5 10.17
4/29/2022 5:30:00 PM 14.37 57.866 0.24 7.43 1019 10.16
4/29/2022 5:45:00 PM 14.18 57.524 0.241 7.44 1417 10.07
4/29/2022 6:00:00 PM 14.03 57.254 0.241 7.39 2053 9.69
4/29/2022 6:15:00 PM 13.87 56.966 0.24 7.33 2016 9.51
4/29/2022 6:30:00 PM 13.71 56.678 0.239 7.3 1664 9.58
4/29/2022 6:45:00 PM 13.55 56.39 0.238 7.3 1448 9.67
4/29/2022 7:00:00 PM 13.37 56.066 0.239 7.3 1486 9.7
4/29/2022 7:15:00 PM 13.22 55.796 0.239 7.3 1293 9.76
4/29/2022 7:30:00 PM 13.06 55.508 0.239 7.3 1458 9.74
4/29/2022 7:45:00 PM 12.98 55.364 0.238 7.28 1269 9.73
4/29/2022 8:00:00 PM 12.82 55.076 0.238 7.3 1152 9.78
4/29/2022 8:15:00 PM 12.72 54.896 0.238 7.3 1052 9.79
4/29/2022 8:30:00 PM 12.56 54.608 0.239 7.31 1025 9.8
4/29/2022 8:45:00 PM 12.43 54.374 0.239 7.31 1017 9.83
4/29/2022 9:00:00 PM 12.36 54.248 0.239 7.31 1008 9.81
4/29/2022 9:15:00 PM 12.3 54.14 0.238 7.29 876.7 9.79
4/29/2022 9:30:00 PM 12.17 53.906 0.239 7.3 941.5 9.8
4/29/2022 9:45:00 PM 12.17 53.906 0.238 7.3 905.9 9.78
4/29/2022 10:00:00 PM 12.1 53.78 0.239 7.3 947.3 9.77
4/29/2022 10:15:00 PM 12.07 53.726 0.239 7.29 908.1 9.77
4/29/2022 10:30:00 PM 12.07 53.726 0.238 7.28 910.3 9.75
4/29/2022 10:45:00 PM 12.09 53.762 0.237 7.29 799.9 9.76
4/29/2022 11:00:00 PM 12.03 53.654 0.238 7.3 766 9.78
4/29/2022 11:15:00 PM 12 53.6 0.239 7.29 849.8 9.76
4/29/2022 11:30:00 PM 11.99 53.582 0.238 7.29 769.1 9.77
4/29/2022 11:45:00 PM 11.95 53.51 0.238 7.29 761.3 9.78
4/30/2022 12:00:00 AM 11.91 53.438 0.239 7.3 698.8 9.78
4/30/2022 12:15:00 AM 11.86 53.348 0.238 7.3 716.4 9.8
4/30/2022 12:30:00 AM 11.85 53.33 0.238 7.29 697 9.8
4/30/2022 12:45:00 AM 11.81 53.258 0.238 7.29 646 9.78
4/30/2022 1:00:00 AM 11.82 53.276 0.237 7.28 686.8 9.79
4/30/2022 1:15:00 AM 11.75 53.15 0.238 7.29 697.6 9.8
4/30/2022 1:30:00 AM 11.7 53.06 0.239 7.28 681.8 9.81
4/30/2022 1:45:00 AM 11.65 52.97 0.239 7.28 655.1 9.83
4/30/2022 2:00:00 AM 11.62 52.916 0.239 7.28 656.1 9.84
4/30/2022 2:15:00 AM 11.59 52.862 0.238 7.27 650 9.84
4/30/2022 2:30:00 AM 11.52 52.736 0.239 7.28 682.7 9.87
4/30/2022 2:45:00 AM 11.48 52.664 0.239 7.27 674.6 9.87
4/30/2022 3:00:00 AM 11.42 52.556 0.239 7.28 642.7 9.9
4/30/2022 3:15:00 AM 11.39 52.502 0.238 7.28 589.9 9.88
4/30/2022 3:30:00 AM 11.35 52.43 0.238 7.28 602.9 9.91
4/30/2022 3:45:00 AM 11.28 52.304 0.238 7.28 605.4 9.93
4/30/2022 4:00:00 AM 11.22 52.196 0.239 7.29 649.1 9.95
4/30/2022 4:15:00 AM 11.16 52.088 0.239 7.28 624.5 9.98
4/30/2022 4:30:00 AM 11.11 51.998 0.239 7.28 610.9 9.99
4/30/2022 4:45:00 AM 11.06 51.908 0.239 7.28 600.1 10.01
4/30/2022 5:00:00 AM 11.01 51.818 0.239 7.28 560.7 10.01
4/30/2022 5:15:00 AM 10.97 51.746 0.239 7.28 607.4 10.03
4/30/2022 5:30:00 AM 10.94 51.692 0.239 7.28 603.3 10.02
4/30/2022 5:45:00 AM 10.9 51.62 0.239 7.28 625.1 10.03
4/30/2022 6:00:00 AM 10.85 51.53 0.239 7.28 575.8 10.05
4/30/2022 6:15:00 AM 10.8 51.44 0.239 7.28 626.7 10.06
4/30/2022 6:30:00 AM 10.76 51.368 0.239 7.28 621 10.08
4/30/2022 6:45:00 AM 10.66 51.188 0.238 7.27 569.1 10.09
4/30/2022 7:00:00 AM 10.68 51.224 0.239 7.27 612.6 10.11
4/30/2022 7:15:00 AM 10.67 51.206 0.239 7.27 638.9 10.15
4/30/2022 7:30:00 AM 10.7 51.26 0.239 7.28 598.9 10.18
4/30/2022 7:45:00 AM 10.72 51.296 0.239 7.27 604.6 10.2
4/30/2022 8:00:00 AM 10.79 51.422 0.238 7.29 530.1 10.25
4/30/2022 8:15:00 AM 10.84 51.512 0.238 7.29 571.5 10.3
4/30/2022 8:30:00 AM 10.97 51.746 0.238 7.29 605.7 10.34
4/30/2022 8:45:00 AM 11.08 51.944 0.238 7.3 551.6 10.37
4/30/2022 9:00:00 AM 11.22 52.196 0.238 7.3 532.9 10.41
4/30/2022 9:15:00 AM 11.44 52.592 0.238 7.31 544.7 10.41
4/30/2022 9:30:00 AM 11.61 52.898 0.237 7.3 552.1 10.41
4/30/2022 9:45:00 AM 11.85 53.33 0.237 7.32 546.1 10.39
4/30/2022 10:00:00 AM 12.1 53.78 0.237 7.32 481.6 10.41
4/30/2022 10:15:00 AM 12.37 54.266 0.238 7.32 552 10.41
4/30/2022 10:30:00 AM 12.64 54.752 0.238 7.33 556.2 10.38
4/30/2022 10:45:00 AM 12.85 55.13 0.238 7.33 546.9 10.37
4/30/2022 11:00:00 AM 13.15 55.67 0.238 7.33 564.8 10.36
4/30/2022 11:15:00 AM 13.34 56.012 0.237 7.33 581.1 10.36
4/30/2022 11:30:00 AM 13.52 56.336 0.237 7.34 556.3 10.36
4/30/2022 11:45:00 AM 13.81 56.858 0.237 7.35 495.6 10.37
4/30/2022 12:00:00 PM 14.09 57.362 0.237 7.35 517.6 10.33
4/30/2022 12:15:00 PM 14.34 57.812 0.237 7.35 544.7 10.32
4/30/2022 12:30:00 PM 14.55 58.19 0.237 7.35 576.8 10.29
4/30/2022 12:45:00 PM 14.81 58.658 0.237 7.36 573.5 10.23
4/30/2022 1:00:00 PM 14.94 58.892 0.237 7.35 566.6 10.26
4/30/2022 1:15:00 PM 15.14 59.252 0.237 7.36 521.4 10.2
4/30/2022 1:30:00 PM 15.26 59.468 0.238 7.36 558.8 10.21
4/30/2022 1:45:00 PM 15.45 59.81 0.238 7.36 568.1 10.21
4/30/2022 2:00:00 PM 15.43 59.774 0.237 7.38 529.4 10.16
4/30/2022 2:15:00 PM 15.57 60.026 0.237 7.37 486.4 10.17
4/30/2022 2:30:00 PM 15.59 60.062 0.237 7.38 523 10.17
4/30/2022 2:45:00 PM 15.63 60.134 0.237 7.38 584.8 10.12
4/30/2022 3:00:00 PM 15.66 60.188 0.237 7.37 592.9 10.12
4/30/2022 3:15:00 PM 15.62 60.116 0.237 7.37 589.2 10.07
4/30/2022 3:30:00 PM 15.58 60.044 0.237 7.38 600.7 10.08
4/30/2022 3:45:00 PM 15.52 59.936 0.237 7.37 608.1 10.04
4/30/2022 4:00:00 PM 15.46 59.828 0.237 7.37 653.3 10.03
4/30/2022 4:15:00 PM 15.33 59.594 0.237 7.37 675.9 10.04
4/30/2022 4:30:00 PM 15.23 59.414 0.237 7.37 643.7 10.07
4/30/2022 4:45:00 PM 15.13 59.234 0.237 7.38 648.6 10.05
4/30/2022 5:00:00 PM 15.04 59.072 0.238 7.36 710.9 10.02
4/30/2022 5:15:00 PM 14.92 58.856 0.238 7.36 650.7 10.04
4/30/2022 5:30:00 PM 14.77 58.586 0.238 7.37 674.7 10.02
4/30/2022 5:45:00 PM 14.64 58.352 0.238 7.37 679.2 10.02
4/30/2022 6:00:00 PM 14.5 58.1 0.238 7.37 660.2 10.02
4/30/2022 6:15:00 PM 14.35 57.83 0.238 7.36 620.6 9.98
4/30/2022 6:30:00 PM 14.22 57.596 0.238 7.35 643.8 9.96
4/30/2022 6:45:00 PM 14.07 57.326 0.238 7.35 643.8 9.93
4/30/2022 7:00:00 PM 13.94 57.092 0.238 7.35 671.1 9.89
4/30/2022 7:15:00 PM 13.82 56.876 0.238 7.34 678.9 9.88
4/30/2022 7:30:00 PM 13.64 56.552 0.238 7.33 781.7 9.82
4/30/2022 7:45:00 PM 13.52 56.336 0.238 7.32 660 9.8
4/30/2022 8:00:00 PM 13.35 56.03 0.238 7.31 718.2 9.78
4/30/2022 8:15:00 PM 13.28 55.904 0.237 7.31 730.7 9.75
4/30/2022 8:30:00 PM 13.12 55.616 0.238 7.3 719.6 9.7
4/30/2022 8:45:00 PM 13.06 55.508 0.238 7.3 753.8 9.67
4/30/2022 9:00:00 PM 12.96 55.328 0.238 7.29 787.3 9.64
4/30/2022 9:15:00 PM 12.89 55.202 0.239 7.29 804.1 9.61
4/30/2022 9:30:00 PM 12.84 55.112 0.238 7.27 773.2 9.59
4/30/2022 9:45:00 PM 12.78 55.004 0.238 7.27 874 9.52
4/30/2022 10:00:00 PM 12.72 54.896 0.238 7.27 862.5 9.52
4/30/2022 10:15:00 PM 12.65 54.77 0.239 7.25 836.1 9.52
4/30/2022 10:30:00 PM 12.64 54.752 0.237 7.25 770.2 9.51
4/30/2022 10:45:00 PM 12.58 54.644 0.238 7.24 773.7 9.49
4/30/2022 11:00:00 PM 12.53 54.554 0.238 7.25 839.1 9.5
4/30/2022 11:15:00 PM 12.49 54.482 0.238 7.24 855.7 9.5
4/30/2022 11:30:00 PM 12.45 54.41 0.238 7.24 825.1 9.49
4/30/2022 11:45:00 PM 12.44 54.392 0.238 7.23 822 9.48
5/1/2022 12:00:00 AM 12.41 54.338 0.238 7.24 844.7 9.48
5/1/2022 12:15:00 AM 12.39 54.302 0.238 7.24 804.2 9.47
5/1/2022 12:30:00 AM 12.4 54.32 0.238 7.23 853.3 9.43
5/1/2022 12:45:00 AM 12.34 54.212 0.238 7.21 952.5 9.4
5/1/2022 1:00:00 AM 12.35 54.23 0.237 7.22 976.6 9.38
5/1/2022 1:15:00 AM 12.26 54.068 0.238 7.21 923.6 9.4
5/1/2022 1:30:00 AM 12.25 54.05 0.237 7.21 971.4 9.41
5/1/2022 1:45:00 AM 12.16 53.888 0.238 7.21 982.6 9.42
5/1/2022 2:00:00 AM 12.13 53.834 0.237 7.2 1021 9.4
5/1/2022 2:15:00 AM 12.06 53.708 0.238 7.2 946.5 9.39
5/1/2022 2:30:00 AM 12.04 53.672 0.237 7.19 960.1 9.4
5/1/2022 2:45:00 AM 12.01 53.618 0.238 7.18 981.9 9.4
5/1/2022 3:00:00 AM 11.98 53.564 0.238 7.19 999.9 9.41
5/1/2022 3:15:00 AM 11.95 53.51 0.237 7.19 1057 9.4
5/1/2022 3:30:00 AM 11.96 53.528 0.237 7.18 952.4 9.42
5/1/2022 3:45:00 AM 11.89 53.402 0.237 7.19 1012 9.39
5/1/2022 4:00:00 AM 11.86 53.348 0.238 7.18 1050 9.37
5/1/2022 4:15:00 AM 11.82 53.276 0.237 7.18 1058 9.36
5/1/2022 4:30:00 AM 11.8 53.24 0.237 7.17 1039 9.36
5/1/2022 4:45:00 AM 11.75 53.15 0.237 7.17 1133 9.39
5/1/2022 5:00:00 AM 11.72 53.096 0.238 7.17 1023 9.39
5/1/2022 5:15:00 AM 11.7 53.06 0.238 7.17 4197 9.41
5/1/2022 5:30:00 AM 11.68 53.024 0.237 7.17 1075 9.31
5/1/2022 5:45:00 AM 11.65 52.97 0.237 7.16 1119 9.37
5/1/2022 6:00:00 AM 11.64 52.952 0.237 7.16 1178 9.4
5/1/2022 6:15:00 AM 11.62 52.916 0.238 7.17 1039 9.41
5/1/2022 6:30:00 AM 11.59 52.862 0.238 7.17 1066 9.43
5/1/2022 6:45:00 AM 11.57 52.826 0.238 7.17 1100 9.46
5/1/2022 7:00:00 AM 11.57 52.826 0.238 7.17 1056 9.47
5/1/2022 7:15:00 AM 11.6 52.88 0.238 7.17 963.7 9.53
5/1/2022 7:30:00 AM 11.65 52.97 0.237 7.18 1038 9.56
5/1/2022 7:45:00 AM 11.71 53.078 0.237 7.18 1020 9.6
5/1/2022 8:00:00 AM 11.77 53.186 0.238 7.18 1104 9.63
5/1/2022 8:15:00 AM 11.84 53.312 0.237 7.19 1150 9.66
5/1/2022 8:30:00 AM 11.94 53.492 0.237 7.19 1021 9.72
5/1/2022 8:45:00 AM 12.02 53.636 0.237 7.2 921.9 9.8
5/1/2022 9:00:00 AM 12.11 53.798 0.238 7.21 898.6 9.87
5/1/2022 9:15:00 AM 12.22 53.996 0.237 7.2 935.4 9.89
5/1/2022 9:30:00 AM 12.37 54.266 0.237 7.22 894.9 9.91
5/1/2022 9:45:00 AM 12.56 54.608 0.237 7.23 851.6 9.96
5/1/2022 10:00:00 AM 12.71 54.878 0.237 7.23 941.5 9.98
5/1/2022 10:15:00 AM 12.86 55.148 0.236 7.24 910 10.04
5/1/2022 10:30:00 AM 12.97 55.346 0.236 7.25 789.9 10.12
5/1/2022 10:45:00 AM 13.08 55.544 0.236 7.25 798 10.05
5/1/2022 11:00:00 AM 13.24 55.832 0.236 7.26 893.9 9.98
5/1/2022 11:15:00 AM 13.3 55.94 0.236 7.26 841.4 9.93
5/1/2022 11:30:00 AM 13.42 56.156 0.237 7.26 842.7 9.98
5/1/2022 11:45:00 AM 13.42 56.156 0.236 7.27 779.8 9.98
5/1/2022 12:00:00 PM 13.49 56.282 0.237 7.28 740.6 9.98
5/1/2022 12:15:00 PM 13.54 56.372 0.236 7.28 788.4 9.96
5/1/2022 12:30:00 PM 13.58 56.444 0.236 7.28 836.8 9.97
5/1/2022 12:45:00 PM 13.6 56.48 0.236 7.29 694.3 9.99
5/1/2022 1:00:00 PM 13.55 56.39 0.236 7.29 758.1 9.97
5/1/2022 1:15:00 PM 13.58 56.444 0.236 7.29 761.8 9.92
5/1/2022 1:30:00 PM 13.53 56.354 0.236 7.3 676.5 9.87
5/1/2022 1:45:00 PM 13.49 56.282 0.236 7.3 661.3 9.88
5/1/2022 2:00:00 PM 13.51 56.318 0.236 7.31 717.2 9.94
5/1/2022 2:15:00 PM 13.49 56.282 0.236 7.32 628 9.97
5/1/2022 2:30:00 PM 13.41 56.138 0.235 7.33 610.7 9.97
5/1/2022 2:45:00 PM 13.37 56.066 0.235 7.32 628.2 9.93
5/1/2022 3:00:00 PM 13.36 56.048 0.236 7.32 622.6 9.92
5/1/2022 3:15:00 PM 13.33 55.994 0.235 7.32 594.5 9.92
5/1/2022 3:30:00 PM 13.3 55.94 0.235 7.32 643 9.94
5/1/2022 3:45:00 PM 13.29 55.922 0.235 7.33 622.4 9.91
5/1/2022 4:00:00 PM 13.27 55.886 0.236 7.32 632.8 9.87
5/1/2022 4:15:00 PM 13.17 55.706 0.235 7.33 525 9.89
5/1/2022 4:30:00 PM 13.19 55.742 0.235 7.33 557 9.86
5/1/2022 4:45:00 PM 13.21 55.778 0.236 7.34 553.7 9.89
5/1/2022 5:00:00 PM 13.22 55.796 0.235 7.34 586 9.92
5/1/2022 5:15:00 PM 13.18 55.724 0.235 7.34 641.2 9.96
5/1/2022 5:30:00 PM 13.24 55.832 0.235 7.34 656.1 9.97
5/1/2022 5:45:00 PM 13.3 55.94 0.234 7.35 639.8 9.99
5/1/2022 6:00:00 PM 13.38 56.084 0.235 7.35 577.2 10
5/1/2022 6:15:00 PM 13.42 56.156 0.235 7.36 555 10.03
5/1/2022 6:30:00 PM 13.44 56.192 0.235 7.36 582.3 10.05
5/1/2022 6:45:00 PM 13.44 56.192 0.236 7.36 551.6 10.01
5/1/2022 7:00:00 PM 13.48 56.264 0.237 7.35 526 9.96
5/1/2022 7:15:00 PM 13.47 56.246 0.237 7.35 538.5 9.89
5/1/2022 7:30:00 PM 13.49 56.282 0.237 7.35 522.7 9.81
5/1/2022 7:45:00 PM 13.44 56.192 0.236 7.34 512.5 9.76
5/1/2022 8:00:00 PM 13.45 56.21 0.237 7.34 600.8 9.71
5/1/2022 8:15:00 PM 13.37 56.066 0.237 7.33 583.9 9.63
5/1/2022 8:30:00 PM 13.27 55.886 0.237 7.32 545.6 9.65
5/1/2022 8:45:00 PM 13.2 55.76 0.238 7.31 559.2 9.61
5/1/2022 9:00:00 PM 13.16 55.688 0.237 7.3 559.5 9.58
5/1/2022 9:15:00 PM 13.14 55.652 0.237 7.29 588 9.54
5/1/2022 9:30:00 PM 13.11 55.598 0.238 7.29 557.1 9.49
5/1/2022 9:45:00 PM 13.04 55.472 0.237 7.28 610.2 9.48
5/1/2022 10:00:00 PM 13 55.4 0.237 7.27 568.5 9.47
5/1/2022 10:15:00 PM 12.96 55.328 0.236 7.27 588 9.45
5/1/2022 10:30:00 PM 12.94 55.292 0.236 7.26 628.4 9.44
5/1/2022 10:45:00 PM 12.91 55.238 0.236 7.26 619.6 9.4
5/1/2022 11:00:00 PM 12.87 55.166 0.237 7.24 625.9 9.4
5/1/2022 11:15:00 PM 12.85 55.13 0.237 7.25 567.4 9.39
5/1/2022 11:30:00 PM 12.79 55.022 0.236 7.25 549.8 9.41
5/1/2022 11:45:00 PM 12.76 54.968 0.237 7.25 561.9 9.43
5/2/2022 12:00:00 AM 12.73 54.914 0.236 7.25 584.8 9.45
5/2/2022 12:15:00 AM 12.73 54.914 0.236 7.25 557.6 9.45
5/2/2022 12:30:00 AM 12.69 54.842 0.236 7.26 543.1 9.45
5/2/2022 12:45:00 AM 12.7 54.86 0.236 7.26 599.2 9.44
5/2/2022 1:00:00 AM 12.66 54.788 0.236 7.26 594.7 9.47
5/2/2022 1:15:00 AM 12.62 54.716 0.236 7.26 573.6 9.5
5/2/2022 1:30:00 AM 12.6 54.68 0.236 7.26 605.6 9.49
5/2/2022 1:45:00 AM 12.64 54.752 0.236 7.26 592.7 9.48
5/2/2022 2:00:00 AM 12.6 54.68 0.236 7.26 558.3 9.5
5/2/2022 2:15:00 AM 12.6 54.68 0.236 7.27 567.7 9.51
5/2/2022 2:30:00 AM 12.59 54.662 0.236 7.27 532.8 9.53
5/2/2022 2:45:00 AM 12.58 54.644 0.236 7.27 628.5 9.51
5/2/2022 3:00:00 AM 12.51 54.518 0.234 7.26 553.2 9.51
5/2/2022 3:15:00 AM 12.49 54.482 0.233 7.27 572.6 9.56
5/2/2022 3:30:00 AM 12.5 54.5 0.233 7.27 555.4 9.54
5/2/2022 3:45:00 AM 12.54 54.572 0.233 7.27 611.6 9.51
5/2/2022 4:00:00 AM 12.48 54.464 0.233 7.26 575.3 9.49
5/2/2022 4:15:00 AM 12.46 54.428 0.234 7.25 595.6 9.49
5/2/2022 4:30:00 AM 12.45 54.41 0.234 7.25 699.6 9.44
5/2/2022 4:45:00 AM 12.39 54.302 0.233 7.25 625.3 9.48
5/2/2022 5:00:00 AM 12.35 54.23 0.233 7.28 579.1 9.51
5/2/2022 5:15:00 AM 12.35 54.23 0.234 7.25 598.4 9.51
5/2/2022 5:30:00 AM 12.32 54.176 0.234 7.26 507.6 9.55
5/2/2022 5:45:00 AM 12.29 54.122 0.234 7.25 572.1 9.54
5/2/2022 6:00:00 AM 12.24 54.032 0.234 7.25 531.5 9.55
5/2/2022 6:15:00 AM 12.19 53.942 0.236 7.26 508.4 9.57
5/2/2022 6:30:00 AM 12.21 53.978 0.237 7.25 514.7 9.58
5/2/2022 6:45:00 AM 12.2 53.96 0.237 7.25 512.7 9.57
5/2/2022 7:00:00 AM 12.2 53.96 0.236 7.25 496.7 9.59
5/2/2022 7:15:00 AM 12.23 54.014 0.237 7.26 562.6 9.63
5/2/2022 7:30:00 AM 12.22 53.996 0.236 7.26 521.9 9.66
5/2/2022 7:45:00 AM 12.28 54.104 0.237 7.27 496 9.67
5/2/2022 8:00:00 AM 12.29 54.122 0.236 7.27 499.4 9.74
5/2/2022 8:15:00 AM 12.37 54.266 0.236 7.29 497.3 9.82
5/2/2022 8:30:00 AM 12.42 54.356 0.236 7.3 470.9 9.87
5/2/2022 8:45:00 AM 12.49 54.482 0.236 7.3 499 9.91
5/2/2022 9:00:00 AM 12.59 54.662 0.236 7.3 466.5 9.98
5/2/2022 9:15:00 AM 12.63 54.734 0.236 7.31 459.3 10.02
5/2/2022 9:30:00 AM 12.71 54.878 0.235 7.31 479.4 10.07
5/2/2022 9:45:00 AM 12.76 54.968 0.235 7.32 456.1 10.13
5/2/2022 10:00:00 AM 12.76 54.968 0.233 7.34 374.1 10.23
5/2/2022 10:15:00 AM 12.84 55.112 0.233 7.34 418.4 10.31
5/2/2022 10:30:00 AM 12.95 55.31 0.233 7.34 433.5 10.32
5/2/2022 10:45:00 AM 13.13 55.634 0.234 7.35 404.5 10.34
5/2/2022 11:00:00 AM 13.34 56.012 0.234 7.35 426.2 10.42
5/2/2022 11:15:00 AM 13.58 56.444 0.234 7.36 343.2 10.48
5/2/2022 11:30:00 AM 13.7 56.66 0.233 7.38 327.7 10.59
5/2/2022 11:45:00 AM 13.96 57.128 0.233 7.39 336.1 10.59
5/2/2022 12:00:00 PM 14.14 57.452 0.233 7.4 289.3 10.63
5/2/2022 12:15:00 PM 14.46 58.028 0.232 7.41 286.9 10.64
5/2/2022 12:30:00 PM 14.85 58.73 0.232 7.42 286 10.66
5/2/2022 12:45:00 PM 15.28 59.504 0.232 7.43 337.2 10.6
5/2/2022 1:00:00 PM 15.59 60.062 0.232 7.43 309.6 10.58
5/2/2022 1:15:00 PM 15.9 60.62 0.232 7.43 296.4 10.52
5/2/2022 1:30:00 PM 16.05 60.89 0.232 7.43 313.5 10.48
5/2/2022 1:45:00 PM 16.14 61.052 0.233 7.44 271.4 10.37
5/2/2022 2:00:00 PM 16.11 60.998 0.233 7.43 299.6 10.33
5/2/2022 2:15:00 PM 16.13 61.034 0.233 7.43 288.8 10.15
5/2/2022 2:30:00 PM 16.1 60.98 0.233 7.42 289.4 10.14
5/2/2022 2:45:00 PM 16.13 61.034 0.233 7.42 295.1 10.11
5/2/2022 3:00:00 PM 16.19 61.142 0.233 7.42 309.3 10.13
5/2/2022 3:15:00 PM 16.17 61.106 0.233 7.43 275.7 10.17
5/2/2022 3:30:00 PM 16.1 60.98 0.233 7.43 314.6 10.17
5/2/2022 3:45:00 PM 15.97 60.746 0.233 7.44 296.8 10.14
5/2/2022 4:00:00 PM 15.91 60.638 0.232 7.43 302.8 10.12
5/2/2022 4:15:00 PM 15.89 60.602 0.233 7.44 309.4 10.15
5/2/2022 4:30:00 PM 15.94 60.692 0.233 7.44 289.5 10.14
5/2/2022 4:45:00 PM 15.93 60.674 0.234 7.45 298 10.18
5/2/2022 5:00:00 PM 15.89 60.602 0.234 7.45 288.5 10.17
5/2/2022 5:15:00 PM 15.86 60.548 0.234 7.45 321.8 10.18
5/2/2022 5:30:00 PM 15.81 60.458 0.233 7.45 314.1 10.15
5/2/2022 5:45:00 PM 15.81 60.458 0.235 7.45 304 10.05
5/2/2022 6:00:00 PM 15.82 60.476 0.234 7.44 297.4 10.03
5/2/2022 6:15:00 PM 15.8 60.44 0.234 7.44 301.5 9.94
5/2/2022 6:30:00 PM 15.78 60.404 0.234 7.41 299.8 9.85
5/2/2022 6:45:00 PM 15.74 60.332 0.235 7.41 265.4 9.81
5/2/2022 7:00:00 PM 15.69 60.242 0.235 7.41 289.7 9.76
5/2/2022 7:15:00 PM 15.62 60.116 0.235 7.4 298.3 9.67
5/2/2022 7:30:00 PM 15.55 59.99 0.234 7.39 271.3 9.63
5/2/2022 7:45:00 PM 15.43 59.774 0.235 7.38 287 9.56
5/2/2022 8:00:00 PM 15.31 59.558 0.235 7.37 284.3 9.51
5/2/2022 8:15:00 PM 15.2 59.36 0.234 7.35 311.4 9.45
5/2/2022 8:30:00 PM 15.05 59.09 0.234 7.34 331 9.38
5/2/2022 8:45:00 PM 14.92 58.856 0.235 7.32 285.6 9.35
5/2/2022 9:00:00 PM 14.81 58.658 0.235 7.31 310.7 9.3
5/2/2022 9:15:00 PM 14.74 58.532 0.235 7.29 286.9 9.28
5/2/2022 9:30:00 PM 14.64 58.352 0.235 7.29 289.6 9.27
5/2/2022 9:45:00 PM 14.55 58.19 0.235 7.29 313.6 9.23
5/2/2022 10:00:00 PM 14.49 58.082 0.235 7.28 298.3 9.22
5/2/2022 10:15:00 PM 14.38 57.884 0.236 7.28 321.1 9.19
5/2/2022 10:30:00 PM 14.36 57.848 0.235 7.27 306.3 9.17
5/2/2022 10:45:00 PM 14.27 57.686 0.235 7.27 317.4 9.18
5/2/2022 11:00:00 PM 14.18 57.524 0.235 7.26 322.2 9.16
5/2/2022 11:15:00 PM 14.13 57.434 0.236 7.26 328 9.16
5/2/2022 11:30:00 PM 14.06 57.308 0.236 7.25 324.6 9.15
5/2/2022 11:45:00 PM 14.11 57.398 0.235 7.25 296.6 9.16
5/3/2022 12:00:00 AM 14.06 57.308 0.235 7.25 314.1 9.15
5/3/2022 12:15:00 AM 14.03 57.254 0.236 7.25 318.5 9.15
5/3/2022 12:30:00 AM 14 57.2 0.236 7.25 307.3 9.15
5/3/2022 12:45:00 AM 14.05 57.29 0.235 7.24 294.3 9.15
5/3/2022 1:00:00 AM 13.95 57.11 0.235 7.25 303.8 9.15
5/3/2022 1:15:00 AM 13.91 57.038 0.236 7.24 304.6 9.15
5/3/2022 1:30:00 AM 13.87 56.966 0.236 7.24 294.3 9.14
5/3/2022 1:45:00 AM 13.86 56.948 0.235 7.25 306.2 9.16
5/3/2022 2:00:00 AM 13.87 56.966 0.235 7.25 306.3 9.16
5/3/2022 2:15:00 AM 13.79 56.822 0.237 7.25 250.8 9.16
5/3/2022 2:30:00 AM 13.83 56.894 0.236 7.24 268.5 9.15
5/3/2022 2:45:00 AM 13.74 56.732 0.237 7.24 289.9 9.14
5/3/2022 3:00:00 AM 13.7 56.66 0.237 7.25 300.3 9.16
5/3/2022 3:15:00 AM 13.62 56.516 0.237 7.25 293 9.16
5/3/2022 3:30:00 AM 13.58 56.444 0.237 7.25 274.2 9.18
5/3/2022 3:45:00 AM 13.55 56.39 0.236 7.24 285.8 9.19
5/3/2022 4:00:00 AM 13.5 56.3 0.236 7.24 290.3 9.21
5/3/2022 4:15:00 AM 13.38 56.084 0.237 7.24 281.3 9.2
5/3/2022 4:30:00 AM 13.36 56.048 0.237 7.24 265.5 9.25
5/3/2022 4:45:00 AM 13.3 55.94 0.238 7.24 267.3 9.23
5/3/2022 5:00:00 AM 13.25 55.85 0.237 7.24 257.3 9.24
5/3/2022 5:15:00 AM 13.26 55.868 0.237 7.25 251.3 9.28
5/3/2022 5:30:00 AM 13.24 55.832 0.237 7.25 268.6 9.28
5/3/2022 5:45:00 AM 13.24 55.832 0.236 7.25 212.1 9.29
5/3/2022 6:00:00 AM 13.22 55.796 0.237 7.25 220.3 9.28
5/3/2022 6:15:00 AM 13.26 55.868 0.235 7.24 205.1 9.29
5/3/2022 6:30:00 AM 13.23 55.814 0.236 7.24 225.1 9.3
5/3/2022 6:45:00 AM 13.29 55.922 0.236 7.24 212.6 9.33
5/3/2022 7:00:00 AM 13.27 55.886 0.236 7.25 241.1 9.35
5/3/2022 7:15:00 AM 13.27 55.886 0.237 7.25 231.8 9.35
5/3/2022 7:30:00 AM 13.34 56.012 0.236 7.25 184.4 9.37
5/3/2022 7:45:00 AM 13.37 56.066 0.235 7.25 203.9 9.4
5/3/2022 8:00:00 AM 13.43 56.174 0.235 7.25 206.7 9.41
5/3/2022 8:15:00 AM 13.44 56.192 0.235 7.25 207.9 9.43
5/3/2022 8:30:00 AM 13.46 56.228 0.235 7.26 216 9.46
5/3/2022 8:45:00 AM 13.52 56.336 0.234 7.26 214.6 9.51
5/3/2022 9:00:00 AM 13.54 56.372 0.236 7.27 198.9 9.57
5/3/2022 9:15:00 AM 13.59 56.462 0.235 7.27 213.6 9.62
5/3/2022 9:30:00 AM 13.64 56.552 0.235 7.28 195.9 9.67
5/3/2022 9:45:00 AM 13.67 56.606 0.235 7.29 201.8 9.72
5/3/2022 10:00:00 AM 13.72 56.696 0.235 7.3 192.9 9.76
5/3/2022 10:15:00 AM 13.77 56.786 0.233 7.3 204.4 9.79
5/3/2022 10:30:00 AM 13.8 56.84 0.234 7.31 219.1 9.83
5/3/2022 10:45:00 AM 13.84 56.912 0.234 7.31 204.2 9.88
5/3/2022 11:00:00 AM 13.88 56.984 0.234 7.31 197.5 9.93
5/3/2022 11:15:00 AM 13.93 57.074 0.233 7.32 192.1 9.96
5/3/2022 11:30:00 AM 13.96 57.128 0.235 7.33 206.1 9.99
5/3/2022 11:45:00 AM 14.01 57.218 0.234 7.33 201.9 10.04
5/3/2022 12:00:00 PM 14.08 57.344 0.234 7.34 208.9 10.09
5/3/2022 12:15:00 PM 14.19 57.542 0.233 7.35 198.1 10.13
5/3/2022 12:30:00 PM 14.29 57.722 0.234 7.36 208.1 10.22
5/3/2022 12:45:00 PM 14.4 57.92 0.233 7.36 194.4 10.24
5/3/2022 1:00:00 PM 14.54 58.172 0.233 7.38 189.4 10.27
5/3/2022 1:15:00 PM 14.69 58.442 0.233 7.38 198 10.35
5/3/2022 1:30:00 PM 14.93 58.874 0.234 7.39 209.4 10.4
5/3/2022 1:45:00 PM 15.11 59.198 0.234 7.41 239.5 10.43
5/3/2022 2:00:00 PM 15.34 59.612 0.233 7.42 207 10.47
5/3/2022 2:15:00 PM 15.63 60.134 0.234 7.42 237.6 10.46
5/3/2022 2:30:00 PM 15.88 60.584 0.234 7.43 212.9 10.49
5/3/2022 2:45:00 PM 16.09 60.962 0.234 7.45 206.6 10.47
5/3/2022 3:00:00 PM 16.31 61.358 0.234 7.44 195.3 10.42
5/3/2022 3:15:00 PM 16.5 61.7 0.234 7.44 218.1 10.39
5/3/2022 3:30:00 PM 16.7 62.06 0.235 7.44 221.8 10.32
5/3/2022 3:45:00 PM 16.82 62.276 0.234 7.45 228.2 10.31
5/3/2022 4:00:00 PM 16.91 62.438 0.234 7.45 229.9 10.28
5/3/2022 4:15:00 PM 16.97 62.546 0.234 7.46 207.5 10.26
5/3/2022 4:30:00 PM 17.04 62.672 0.234 7.45 222.4 10.2
5/3/2022 4:45:00 PM 17.11 62.798 0.235 7.46 233.1 10.18
5/3/2022 5:00:00 PM 17.14 62.852 0.235 7.46 223.6 10.12
5/3/2022 5:15:00 PM 17.14 62.852 0.235 7.47 215.9 10.09
5/3/2022 5:30:00 PM 17.12 62.816 0.236 7.47 232.5 10.01
5/3/2022 5:45:00 PM 17.06 62.708 0.235 7.46 230.5 9.92
5/3/2022 6:00:00 PM 16.99 62.582 0.235 7.46 227.2 9.9
5/3/2022 6:15:00 PM 16.94 62.492 0.235 7.44 235.5 9.87
5/3/2022 6:30:00 PM 16.84 62.312 0.236 7.43 251 9.76
5/3/2022 6:45:00 PM 16.71 62.078 0.236 7.43 221.3 9.69
5/3/2022 7:00:00 PM 16.56 61.808 0.236 7.42 241.1 9.67
5/3/2022 7:15:00 PM 16.4 61.52 0.236 7.41 235.2 9.62
5/3/2022 7:30:00 PM 16.26 61.268 0.236 7.4 243.8 9.57
5/3/2022 7:45:00 PM 16.14 61.052 0.236 7.39 232.2 9.49
5/3/2022 8:00:00 PM 16 60.8 0.235 7.38 270.6 9.43
5/3/2022 8:15:00 PM 15.86 60.548 0.235 7.36 253 9.34
5/3/2022 8:30:00 PM 15.74 60.332 0.234 7.35 244.9 9.3
5/3/2022 8:45:00 PM 15.61 60.098 0.234 7.34 237.8 9.25
5/3/2022 9:00:00 PM 15.49 59.882 0.235 7.33 237.7 9.2
5/3/2022 9:15:00 PM 15.38 59.684 0.236 7.33 240.2 9.17
5/3/2022 9:30:00 PM 15.28 59.504 0.236 7.32 234.2 9.14
5/3/2022 9:45:00 PM 15.23 59.414 0.235 7.32 250.7 9.11
5/3/2022 10:00:00 PM 15.17 59.306 0.235 7.32 226.8 9.08
5/3/2022 10:15:00 PM 15.12 59.216 0.235 7.32 235 9.08
5/3/2022 10:30:00 PM 15.11 59.198 0.234 7.3 210.1 9.03
5/3/2022 10:45:00 PM 15.07 59.126 0.234 7.3 228.4 9.02
5/3/2022 11:00:00 PM 15.05 59.09 0.234 7.29 221.9 9
5/3/2022 11:15:00 PM 15.02 59.036 0.234 7.29 232.9 9
5/3/2022 11:30:00 PM 15 59 0.235 7.29 212.3 9
5/3/2022 11:45:00 PM 14.98 58.964 0.235 7.28 221.1 9.01
5/4/2022 12:00:00 AM 14.96 58.928 0.234 7.28 221.7 9.01
5/4/2022 12:15:00 AM 14.9 58.82 0.235 7.28 231.3 9.03
5/4/2022 12:30:00 AM 14.9 58.82 0.234 7.29 225.1 9.03
5/4/2022 12:45:00 AM 14.86 58.748 0.234 7.28 297 9
5/4/2022 1:00:00 AM 14.86 58.748 0.233 7.29 235.8 9.01
5/4/2022 1:15:00 AM 14.83 58.694 0.233 7.29 222 9.03
5/4/2022 1:30:00 AM 14.79 58.622 0.233 7.29 241 9.04
5/4/2022 1:45:00 AM 14.76 58.568 0.233 7.28 233.5 9.05
5/4/2022 2:00:00 AM 14.7 58.46 0.234 7.28 255.4 9.03
5/4/2022 2:15:00 AM 14.7 58.46 0.233 7.28 240.3 9.03
5/4/2022 2:30:00 AM 14.68 58.424 0.233 7.28 230.8 9.03
5/4/2022 2:45:00 AM 14.68 58.424 0.233 7.27 260.4 9.03
5/4/2022 3:00:00 AM 14.65 58.37 0.233 7.28 251.1 9.02
5/4/2022 3:15:00 AM 14.62 58.316 0.232 7.27 245.3 9.01
5/4/2022 3:30:00 AM 14.59 58.262 0.233 7.27 237.3 9.02
5/4/2022 3:45:00 AM 14.57 58.226 0.232 7.26 251.1 9.02
5/4/2022 4:00:00 AM 14.55 58.19 0.232 7.26 281.8 9.02
5/4/2022 4:15:00 AM 14.49 58.082 0.232 7.26 336 9.02
5/4/2022 4:30:00 AM 14.43 57.974 0.232 7.25 344.2 9.01
5/4/2022 4:45:00 AM 14.4 57.92 0.231 7.26 295.3 9.02
5/4/2022 5:00:00 AM 14.35 57.83 0.232 7.26 296 9.05
5/4/2022 5:15:00 AM 14.32 57.776 0.233 7.26 296.7 9.04
5/4/2022 5:30:00 AM 14.31 57.758 0.233 7.26 270.6 9.05
5/4/2022 5:45:00 AM 14.29 57.722 0.233 7.26 244.6 9.06
5/4/2022 6:00:00 AM 14.25 57.65 0.234 7.26 279 9.06
5/4/2022 6:15:00 AM 14.21 57.578 0.235 7.26 251.4 9.07
5/4/2022 6:30:00 AM 14.16 57.488 0.235 7.26 248.3 9.09
5/4/2022 6:45:00 AM 14.13 57.434 0.236 7.26 251.7 9.13
5/4/2022 7:00:00 AM 14.12 57.416 0.235 7.27 237.3 9.14
5/4/2022 7:15:00 AM 14.1 57.38 0.235 7.27 233.4 9.14
5/4/2022 7:30:00 AM 14.08 57.344 0.233 7.26 244.3 9.16
5/4/2022 7:45:00 AM 14.09 57.362 0.233 7.26 228 9.2
5/4/2022 8:00:00 AM 14.08 57.344 0.233 7.26 232.2 9.22
5/4/2022 8:15:00 AM 14.08 57.344 0.232 7.28 246.2 9.27
5/4/2022 8:30:00 AM 14.1 57.38 0.232 7.28 242.2 9.31
5/4/2022 8:45:00 AM 14.11 57.398 0.234 7.29 203.8 9.39
5/4/2022 9:00:00 AM 14.12 57.416 0.233 7.29 222.1 9.44
5/4/2022 9:15:00 AM 14.14 57.452 0.232 7.3 203.9 9.45
5/4/2022 9:30:00 AM 14.2 57.56 0.232 7.31 226.6 9.55
5/4/2022 9:45:00 AM 14.27 57.686 0.232 7.31 201.4 9.67
5/4/2022 10:00:00 AM 14.32 57.776 0.231 7.32 197.5 9.73
5/4/2022 10:15:00 AM 14.36 57.848 0.231 7.34 197.3 9.77
5/4/2022 10:30:00 AM 14.42 57.956 0.231 7.34 200.3 9.82
5/4/2022 10:45:00 AM 14.49 58.082 0.231 7.35 210 9.83
5/4/2022 11:00:00 AM 14.54 58.172 0.231 7.36 205.2 9.86
5/4/2022 11:15:00 AM 14.6 58.28 0.231 7.37 203.4 9.86
5/4/2022 11:30:00 AM 14.65 58.37 0.231 7.38 218.6 9.88
5/4/2022 11:45:00 AM 14.71 58.478 0.231 7.37 219 9.88
5/4/2022 12:00:00 PM 14.79 58.622 0.231 7.38 271.8 9.85
5/4/2022 12:15:00 PM 14.88 58.784 0.232 7.38 301 9.86
5/4/2022 12:30:00 PM 14.95 58.91 0.23 7.39 429.6 9.84
5/4/2022 12:45:00 PM 15.01 59.018 0.23 7.36 430.9 9.86
5/4/2022 1:00:00 PM 15.12 59.216 0.23 7.36 433.7 9.86
5/4/2022 1:15:00 PM 15.34 59.612 0.229 7.36 432.8 9.94
5/4/2022 1:30:00 PM 15.64 60.152 0.23 7.37 424.8 10
5/4/2022 1:45:00 PM 15.91 60.638 0.23 7.38 381.9 10.04
5/4/2022 2:00:00 PM 16.08 60.944 0.231 7.4 363.1 10.06
5/4/2022 2:15:00 PM 16.12 61.016 0.231 7.4 380.2 9.94
5/4/2022 2:30:00 PM 16.12 61.016 0.231 7.39 350.9 9.87
5/4/2022 2:45:00 PM 16.27 61.286 0.231 7.4 368.5 9.87
5/4/2022 3:00:00 PM 16.41 61.538 0.232 7.41 375.2 9.91
5/4/2022 3:15:00 PM 16.33 61.394 0.232 7.4 401.7 9.83
5/4/2022 3:30:00 PM 16.3 61.34 0.232 7.4 355.8 9.86
5/4/2022 3:45:00 PM 16.38 61.484 0.232 7.41 355.1 9.91
5/4/2022 4:00:00 PM 16.46 61.628 0.232 7.41 363.7 9.91
5/4/2022 4:15:00 PM 16.54 61.772 0.233 7.41 368.7 9.88
5/4/2022 4:30:00 PM 16.58 61.844 0.232 7.42 356.6 9.88
5/4/2022 4:45:00 PM 16.65 61.97 0.232 7.43 360.7 9.89
5/4/2022 5:00:00 PM 16.7 62.06 0.233 7.43 337.3 9.86
5/4/2022 5:15:00 PM 16.74 62.132 0.233 7.43 363.1 9.82
5/4/2022 5:30:00 PM 16.74 62.132 0.233 7.43 325.6 9.83
5/4/2022 5:45:00 PM 16.7 62.06 0.233 7.43 312.5 9.8
5/4/2022 6:00:00 PM 16.64 61.952 0.233 7.43 327.6 9.73
5/4/2022 6:15:00 PM 16.55 61.79 0.234 7.43 346.4 9.7
5/4/2022 6:30:00 PM 16.46 61.628 0.234 7.43 319.5 9.68
5/4/2022 6:45:00 PM 16.36 61.448 0.234 7.42 339.1 9.65
5/4/2022 7:00:00 PM 16.21 61.178 0.235 7.42 359.2 9.59
5/4/2022 7:15:00 PM 16.09 60.962 0.234 7.42 338.5 9.6
5/4/2022 7:30:00 PM 15.95 60.71 0.234 7.41 333.8 9.54
5/4/2022 7:45:00 PM 15.81 60.458 0.235 7.4 322.6 9.52
5/4/2022 8:00:00 PM 15.73 60.314 0.234 7.4 317.7 9.47
5/4/2022 8:15:00 PM 15.58 60.044 0.233 7.39 314.2 9.46
5/4/2022 8:30:00 PM 15.46 59.828 0.233 7.38 323.6 9.41
5/4/2022 8:45:00 PM 15.3 59.54 0.23 7.37 348.5 9.39
5/4/2022 9:00:00 PM 15.22 59.396 0.222 7.36 335 9.36
5/4/2022 9:15:00 PM 15.13 59.234 0.22 7.35 326.7 9.33
5/4/2022 9:30:00 PM 15.04 59.072 0.223 7.35 308.7 9.31
5/4/2022 9:45:00 PM 14.98 58.964 0.225 7.35 282.6 9.3
5/4/2022 10:00:00 PM 15 59 0.227 7.34 300 9.3
5/4/2022 10:15:00 PM 14.97 58.946 0.23 7.34 307.8 9.29
5/4/2022 10:30:00 PM 14.94 58.892 0.224 7.34 329.5 9.27
5/4/2022 10:45:00 PM 14.88 58.784 0.233 7.34 332 9.27
5/4/2022 11:00:00 PM 14.88 58.784 0.234 7.34 325.2 9.23
5/4/2022 11:15:00 PM 14.88 58.784 0.234 7.34 331.9 9.24
5/4/2022 11:30:00 PM 14.89 58.802 0.234 7.33 294.1 9.25
5/4/2022 11:45:00 PM 14.82 58.676 0.213 7.33 326.6 9.24
5/5/2022 12:00:00 AM 14.77 58.586 0.235 7.33 322.2 9.25
5/5/2022 12:15:00 AM 14.78 58.604 0.235 7.33 324.6 9.25
5/5/2022 12:30:00 AM 14.77 58.586 0.234 7.34 329 9.21
5/5/2022 12:45:00 AM 14.8 58.64 0.234 7.33 318.3 9.24
5/5/2022 1:00:00 AM 14.77 58.586 0.234 7.33 306.3 9.23
5/5/2022 1:15:00 AM 14.7 58.46 0.234 7.32 305.7 9.24
5/5/2022 1:30:00 AM 14.65 58.37 0.235 7.33 325.6 9.26
5/5/2022 1:45:00 AM 14.65 58.37 0.235 7.33 275.9 9.26
5/5/2022 2:00:00 AM 14.61 58.298 0.236 7.32 292.6 9.27
5/5/2022 2:15:00 AM 14.58 58.244 0.237 7.33 305.7 9.27
5/5/2022 2:30:00 AM 14.59 58.262 0.235 7.33 294.9 9.27
5/5/2022 2:45:00 AM 14.55 58.19 0.237 7.32 285.9 9.29
5/5/2022 3:00:00 AM 14.49 58.082 0.237 7.33 285 9.28
5/5/2022 3:15:00 AM 14.47 58.046 0.237 7.32 311.2 9.28
5/5/2022 3:30:00 AM 14.46 58.028 0.236 7.34 281 9.28
5/5/2022 3:45:00 AM 14.42 57.956 0.235 7.34 270.6 9.3
5/5/2022 4:00:00 AM 14.38 57.884 0.236 7.34 290.1 9.3
5/5/2022 4:15:00 AM 14.37 57.866 0.236 7.34 266.6 9.29
5/5/2022 4:30:00 AM 14.33 57.794 0.236 7.34 297.6 9.32
5/5/2022 4:45:00 AM 14.28 57.704 0.237 7.33 295.1 9.33
5/5/2022 5:00:00 AM 14.26 57.668 0.236 7.34 285.1 9.33
5/5/2022 5:15:00 AM 14.24 57.632 0.236 7.34 285 9.34
5/5/2022 5:30:00 AM 14.22 57.596 0.235 7.34 288.7 9.35
5/5/2022 5:45:00 AM 14.2 57.56 0.235 7.33 294.5 9.33
5/5/2022 6:00:00 AM 14.16 57.488 0.234 7.33 304.1 9.32
5/5/2022 6:15:00 AM 14.1 57.38 0.235 7.33 303.7 9.34
5/5/2022 6:30:00 AM 14.08 57.344 0.236 7.33 288.8 9.36
5/5/2022 6:45:00 AM 14.05 57.29 0.237 7.33 317 9.39
5/5/2022 7:00:00 AM 14.06 57.308 0.236 7.33 283.4 9.37
5/5/2022 7:15:00 AM 14.12 57.416 0.235 7.33 277.2 9.43
5/5/2022 7:30:00 AM 14.09 57.362 0.236 7.34 267.4 9.47
5/5/2022 7:45:00 AM 14.11 57.398 0.235 7.35 289.4 9.51
5/5/2022 8:00:00 AM 14.13 57.434 0.236 7.36 248.7 9.57
5/5/2022 8:15:00 AM 14.16 57.488 0.236 7.36 266.4 9.61
5/5/2022 8:30:00 AM 14.22 57.596 0.235 7.36 270.5 9.65
5/5/2022 8:45:00 AM 14.29 57.722 0.236 7.38 274.9 9.71
5/5/2022 9:00:00 AM 14.32 57.776 0.237 7.38 261.2 9.79
5/5/2022 9:15:00 AM 14.41 57.938 0.236 7.4 313.9 9.82
5/5/2022 9:30:00 AM 14.51 58.118 0.235 7.39 441.7 9.85
5/5/2022 9:45:00 AM 14.6 58.28 0.236 7.39 597.8 9.79
5/5/2022 10:00:00 AM 14.71 58.478 0.236 7.38 625.3 9.8
5/5/2022 10:15:00 AM 14.93 58.874 0.235 7.36 651.9 9.83
5/5/2022 10:30:00 AM 15.13 59.234 0.235 7.37 582.7 9.85
5/5/2022 10:45:00 AM 15.33 59.594 0.235 7.37 579.5 9.87
5/5/2022 11:00:00 AM 15.53 59.954 0.235 7.38 574 9.89
5/5/2022 11:15:00 AM 15.75 60.35 0.236 7.38 555.3 9.88
5/5/2022 11:30:00 AM 15.95 60.71 0.235 7.38 541.5 9.87
5/5/2022 11:45:00 AM 16.16 61.088 0.234 7.39 550.5 9.85
5/5/2022 12:00:00 PM 16.44 61.592 0.235 7.4 506.6 9.87
5/5/2022 12:15:00 PM 16.61 61.898 0.235 7.4 539.5 9.86
5/5/2022 12:30:00 PM 16.76 62.168 0.234 7.4 539.2 9.84
5/5/2022 12:45:00 PM 16.83 62.294 0.235 7.41 511.3 9.83
5/5/2022 1:00:00 PM 16.99 62.582 0.236 7.41 499.3 9.83
5/5/2022 1:15:00 PM 17.02 62.636 0.235 7.41 506.6 9.79
5/5/2022 1:30:00 PM 17.16 62.888 0.236 7.41 524.1 9.75
5/5/2022 1:45:00 PM 17.37 63.266 0.236 7.41 502 9.76
5/5/2022 2:00:00 PM 17.53 63.554 0.236 7.41 501.9 9.71
5/5/2022 2:15:00 PM 17.61 63.698 0.236 7.42 501.3 9.74
5/5/2022 2:30:00 PM 17.49 63.482 0.236 7.41 474.4 9.77
5/5/2022 2:45:00 PM 17.52 63.536 0.236 7.43 468 9.74
5/5/2022 3:00:00 PM 17.61 63.698 0.236 7.43 472.5 9.76
5/5/2022 3:15:00 PM 17.67 63.806 0.236 7.44 468.8 9.77
5/5/2022 3:30:00 PM 17.61 63.698 0.237 7.43 452.6 9.74
5/5/2022 3:45:00 PM 17.43 63.374 0.237 7.44 449 9.68
5/5/2022 4:00:00 PM 17.26 63.068 0.238 7.44 481 9.76
5/5/2022 4:15:00 PM 17.17 62.906 0.238 7.44 451.5 9.74
5/5/2022 4:30:00 PM 17.23 63.014 0.238 7.44 448.2 9.72
5/5/2022 4:45:00 PM 17.28 63.104 0.239 7.45 434.2 9.71
5/5/2022 5:00:00 PM 17.32 63.176 0.239 7.45 447.6 9.7
5/5/2022 5:15:00 PM 17.06 62.708 0.239 7.45 439.1 9.6
5/5/2022 5:30:00 PM 16.94 62.492 0.239 7.45 435.6 9.59
5/5/2022 5:45:00 PM 16.74 62.132 0.238 7.44 425.2 9.61
5/5/2022 6:00:00 PM 16.57 61.826 0.238 7.44 444.3 9.56
5/5/2022 6:15:00 PM 16.34 61.412 0.239 7.44 431.2 9.53
5/5/2022 6:30:00 PM 16.33 61.394 0.239 7.42 420.2 9.52
5/5/2022 6:45:00 PM 16.21 61.178 0.239 7.43 414.1 9.51
5/5/2022 7:00:00 PM 16.15 61.07 0.238 7.43 425.4 9.48
5/5/2022 7:15:00 PM 16.19 61.142 0.238 7.42 393.1 9.46
5/5/2022 7:30:00 PM 16.08 60.944 0.238 7.44 361.1 9.43
5/5/2022 7:45:00 PM 16.03 60.854 0.237 7.43 380.4 9.36
5/5/2022 8:00:00 PM 16.01 60.818 0.237 7.42 387.6 9.33
5/5/2022 8:15:00 PM 15.93 60.674 0.238 7.41 405.6 9.3
5/5/2022 8:30:00 PM 15.78 60.404 0.239 7.4 381.9 9.29
5/5/2022 8:45:00 PM 15.69 60.242 0.239 7.39 375.2 9.3
5/5/2022 9:00:00 PM 15.58 60.044 0.24 7.39 398.6 9.25
5/5/2022 9:15:00 PM 15.51 59.918 0.216 7.37 401.6 9.24
5/5/2022 9:30:00 PM 15.43 59.774 0.22 7.37 378.5 9.21
5/5/2022 9:45:00 PM 15.55 59.99 0.24 7.35 410.7 9.18
5/5/2022 10:00:00 PM 15.47 59.846 0.241 7.36 405.8 9.13
5/5/2022 10:15:00 PM 15.57 60.026 0.24 7.35 389.3 9.12
5/5/2022 10:30:00 PM 15.54 59.972 0.241 7.35 406.3 9.11
5/5/2022 10:45:00 PM 15.54 59.972 0.24 7.35 408.8 9.09
5/5/2022 11:00:00 PM 15.49 59.882 0.24 7.35 432.2 9.08
5/5/2022 11:15:00 PM 15.53 59.954 0.241 7.34 428.5 9.06
5/5/2022 11:30:00 PM 15.6 60.08 0.241 7.33 407 9.01
5/5/2022 11:45:00 PM 15.64 60.152 0.242 7.35 339 9.01
5/6/2022 12:00:00 AM 15.67 60.206 0.241 7.33 394.1 9.03
5/6/2022 12:15:00 AM 15.72 60.296 0.24 7.33 420.9 9
5/6/2022 12:30:00 AM 15.62 60.116 0.241 7.33 412.5 8.98
5/6/2022 12:45:00 AM 15.59 60.062 0.241 7.33 456.8 8.98
5/6/2022 1:00:00 AM 15.49 59.882 0.242 7.33 416.8 9
5/6/2022 1:15:00 AM 15.57 60.026 0.241 7.33 378.9 9
5/6/2022 1:30:00 AM 15.51 59.918 0.242 7.33 396.7 9.01
5/6/2022 1:45:00 AM 15.47 59.846 0.242 7.34 364.4 9.03
5/6/2022 2:00:00 AM 15.38 59.684 0.243 7.33 366.4 9.04
5/6/2022 2:15:00 AM 15.4 59.72 0.242 7.33 387.6 9.05
5/6/2022 2:30:00 AM 15.39 59.702 0.242 7.32 411.8 9.02
5/6/2022 2:45:00 AM 15.29 59.522 0.243 7.32 382 9.02
5/6/2022 3:00:00 AM 15.16 59.288 0.243 7.33 385.2 9.07
5/6/2022 3:15:00 AM 15.18 59.324 0.243 7.33 365.4 9.07
5/6/2022 3:30:00 AM 15.19 59.342 0.243 7.32 371.5 9.07
5/6/2022 3:45:00 AM 15.12 59.216 0.243 7.32 394.8 9.08
5/6/2022 4:00:00 AM 15.15 59.27 0.243 7.32 389.1 9.09
5/6/2022 4:15:00 AM 15.16 59.288 0.242 7.33 392.2 9.09
5/6/2022 4:30:00 AM 15.18 59.324 0.243 7.33 350.5 9.06
5/6/2022 4:45:00 AM 15.2 59.36 0.242 7.31 367.4 9.07
5/6/2022 5:00:00 AM 15.13 59.234 0.243 7.31 386.8 9.09
5/6/2022 5:15:00 AM 15.13 59.234 0.243 7.32 378.5 9.09
5/6/2022 5:30:00 AM 15.09 59.162 0.244 7.33 379.3 9.1
5/6/2022 5:45:00 AM 15.11 59.198 0.243 7.32 352.8 9.08
5/6/2022 6:00:00 AM 15.08 59.144 0.242 7.32 391.4 9.09
5/6/2022 6:15:00 AM 15.1 59.18 0.241 7.31 356 9.09
5/6/2022 6:30:00 AM 15.09 59.162 0.242 7.32 360.6 9.1
5/6/2022 6:45:00 AM 15.09 59.162 0.242 7.32 384.8 9.1
5/6/2022 7:00:00 AM 15.02 59.036 0.241 7.31 451.6 9.08
5/6/2022 7:15:00 AM 14.99 58.982 0.24 7.31 440.2 9.09
5/6/2022 7:30:00 AM 15.03 59.054 0.24 7.3 397.6 9.07
5/6/2022 7:45:00 AM 14.95 58.91 0.239 7.3 449.3 9.11
5/6/2022 8:00:00 AM 14.97 58.946 0.238 7.31 417.5 9.11
5/6/2022 8:15:00 AM 14.95 58.91 0.239 7.3 475.8 9.13
5/6/2022 8:30:00 AM 14.92 58.856 0.236 7.31 529 9.1
5/6/2022 8:45:00 AM 14.92 58.856 0.236 7.31 529.9 9.09
5/6/2022 9:00:00 AM 14.95 58.91 0.236 7.31 524.7 9.12
5/6/2022 9:15:00 AM 15 59 0.234 7.3 496.8 9.11
5/6/2022 9:30:00 AM 14.95 58.91 0.236 7.3 505 9.14
5/6/2022 9:45:00 AM 14.92 58.856 0.237 7.3 539.5 9.13
5/6/2022 10:00:00 AM 14.88 58.784 0.235 7.31 595.4 9.13
5/6/2022 10:15:00 AM 14.85 58.73 0.235 7.3 601.4 9.13
5/6/2022 10:30:00 AM 14.83 58.694 0.236 7.31 693.5 9.11
5/6/2022 10:45:00 AM 14.8 58.64 0.234 7.31 661.6 9.1
5/6/2022 11:00:00 AM 14.86 58.748 0.233 7.3 599.5 9.11
5/6/2022 11:15:00 AM 14.89 58.802 0.233 7.3 560 9.1
5/6/2022 11:30:00 AM 14.92 58.856 0.234 7.3 566.9 9.09
5/6/2022 11:45:00 AM 14.92 58.856 0.231 7.28 549.4 9.08
5/6/2022 12:00:00 PM 14.88 58.784 0.229 7.28 560.8 9.07
5/6/2022 12:15:00 PM 14.85 58.73 0.225 7.28 583.5 9.08
5/6/2022 12:30:00 PM 14.79 58.622 0.222 7.28 591 9.1
5/6/2022 12:45:00 PM 14.82 58.676 0.218 7.29 629.8 9.1
5/6/2022 1:00:00 PM 14.81 58.658 0.216 7.27 584.7 9.09
5/6/2022 1:15:00 PM 14.83 58.694 0.217 7.27 703.8 9.04
5/6/2022 1:30:00 PM 14.8 58.64 0.215 7.26 700.1 9.02
5/6/2022 1:45:00 PM 14.8 58.64 0.214 7.27 590.2 9.03
5/6/2022 2:00:00 PM 14.79 58.622 0.215 7.27 551.3 9.04
5/6/2022 2:15:00 PM 14.79 58.622 0.214 7.28 498.8 9.03
5/6/2022 2:30:00 PM 14.78 58.604 0.212 7.26 513 9
5/6/2022 2:45:00 PM 14.74 58.532 0.21 7.26 526.9 9.01
5/6/2022 3:00:00 PM 14.68 58.424 0.209 7.26 541.4 9.02
5/6/2022 3:15:00 PM 14.6 58.28 0.209 7.29 536.4 9.06
5/6/2022 3:30:00 PM 14.49 58.082 0.209 7.3 456.6 9.06
5/6/2022 3:45:00 PM 14.38 57.884 0.209 7.31 617 9.02
5/6/2022 4:00:00 PM 14.27 57.686 0.206 7.3 542.6 9.01
5/6/2022 4:15:00 PM 14.17 57.506 0.203 7.3 738.8 9.06
5/6/2022 4:30:00 PM 14.06 57.308 0.2 7.3 649.3 9.09
5/6/2022 4:45:00 PM 13.96 57.128 0.196 7.28 599.6 9.14
5/6/2022 5:00:00 PM 13.89 57.002 0.192 7.27 588.3 9.13
5/6/2022 5:15:00 PM 13.81 56.858 0.189 7.27 619.6 9.16
5/6/2022 5:30:00 PM 13.77 56.786 0.186 7.25 664.7 9.16
5/6/2022 5:45:00 PM 13.69 56.642 0.182 7.23 651.5 9.17
5/6/2022 6:00:00 PM 13.64 56.552 0.18 7.2 561.2 9.14
5/6/2022 6:15:00 PM 13.6 56.48 0.177 7.2 588.7 9.14
5/6/2022 6:30:00 PM 13.55 56.39 0.177 7.2 570.1 9.16
5/6/2022 6:45:00 PM 13.53 56.354 0.177 7.2 533.1 9.14
5/6/2022 7:00:00 PM 13.5 56.3 0.177 7.19 556.9 9.14
5/6/2022 7:15:00 PM 13.48 56.264 0.179 7.17 567.8 9.16
5/6/2022 7:30:00 PM 13.44 56.192 0.18 7.18 565.7 9.19
5/6/2022 7:45:00 PM 13.4 56.12 0.173 7.18 542.2 9.17
5/6/2022 8:00:00 PM 13.38 56.084 0.183 7.21 537.5 9.12
5/6/2022 8:15:00 PM 13.34 56.012 0.183 7.19 609.7 9.08
5/6/2022 8:30:00 PM 13.31 55.958 0.182 7.18 651.5 9.03
5/6/2022 8:45:00 PM 13.24 55.832 0.18 7.17 694.6 9.04
5/6/2022 9:00:00 PM 13.22 55.796 0.179 7.15 670.9 9.06
5/6/2022 9:15:00 PM 13.19 55.742 0.179 7.14 635.8 9.07
5/6/2022 9:30:00 PM 13.17 55.706 0.177 7.13 639.6 9.08
5/6/2022 9:45:00 PM 13.16 55.688 0.176 7.14 613.6 9.1
5/6/2022 10:00:00 PM 13.15 55.67 0.175 7.14 648.1 9.09
5/6/2022 10:15:00 PM 13.12 55.616 0.176 7.13 552.4 9.13
5/6/2022 10:30:00 PM 13.11 55.598 0.177 7.12 534.4 9.14
5/6/2022 10:45:00 PM 13.07 55.526 0.177 7.15 546.6 9.16
5/6/2022 11:00:00 PM 13.09 55.562 0.181 7.12 522.3 9.18
5/6/2022 11:15:00 PM 13.04 55.472 0.179 7.14 476.7 9.18
5/6/2022 11:30:00 PM 13.01 55.418 0.18 7.16 484 9.21
5/6/2022 11:45:00 PM 13 55.4 0.182 7.16 378.1 9.18
5/7/2022 12:00:00 AM 13.02 55.436 0.186 7.16 447.9 9.25
5/7/2022 12:15:00 AM 12.98 55.364 0.184 7.17 441.5 9.25
5/7/2022 12:30:00 AM 12.97 55.346 0.187 7.16 427.9 9.26
5/7/2022 12:45:00 AM 12.94 55.292 0.186 7.18 379.4 9.29
5/7/2022 1:00:00 AM 12.94 55.292 0.188 7.18 366.8 9.31
5/7/2022 1:15:00 AM 12.91 55.238 0.188 7.17 388.7 9.3
5/7/2022 1:30:00 AM 12.89 55.202 0.189 7.19 409.3 9.32
5/7/2022 1:45:00 AM 12.86 55.148 0.189 7.18 367.6 9.33
5/7/2022 2:00:00 AM 12.82 55.076 0.19 7.19 379.6 9.35
5/7/2022 2:15:00 AM 12.8 55.04 0.189 7.18 407.6 9.38
5/7/2022 2:30:00 AM 12.8 55.04 0.191 7.19 488.7 9.35
5/7/2022 2:45:00 AM 12.73 54.914 0.189 7.19 521.6 9.32
5/7/2022 3:00:00 AM 12.69 54.842 0.19 7.18 538.8 9.35
5/7/2022 3:15:00 AM 12.66 54.788 0.192 7.16 481.9 9.36
5/7/2022 3:30:00 AM 12.62 54.716 0.192 7.17 413.1 9.39
5/7/2022 3:45:00 AM 12.59 54.662 0.191 7.17 392.7 9.39
5/7/2022 4:00:00 AM 12.56 54.608 0.19 7.19 363 9.41
5/7/2022 4:15:00 AM 12.55 54.59 0.19 7.17 388.8 9.4
5/7/2022 4:30:00 AM 12.54 54.572 0.189 7.18 400.3 9.44
5/7/2022 4:45:00 AM 12.51 54.518 0.189 7.19 396.9 9.43
5/7/2022 5:00:00 AM 12.45 54.41 0.188 7.19 406.1 9.47
5/7/2022 5:15:00 AM 12.41 54.338 0.187 7.19 367.1 9.49
5/7/2022 5:30:00 AM 12.31 54.158 0.185 7.15 414.1 9.52
5/7/2022 5:45:00 AM 12.32 54.176 0.188 7.18 369.1 9.51
5/7/2022 6:00:00 AM 12.29 54.122 0.188 7.19 347.6 9.55
5/7/2022 6:15:00 AM 12.26 54.068 0.187 7.18 341.6 9.58
5/7/2022 6:30:00 AM 12.23 54.014 0.188 7.17 363.7 9.58
5/7/2022 6:45:00 AM 12.19 53.942 0.187 7.17 340.8 9.57
5/7/2022 7:00:00 AM 12.19 53.942 0.187 7.16 360 9.55
5/7/2022 7:15:00 AM 12.19 53.942 0.188 7.16 364.4 9.58
5/7/2022 7:30:00 AM 12.11 53.798 0.187 7.16 350.2 9.59
5/7/2022 7:45:00 AM 12.11 53.798 0.189 7.18 335 9.61
5/7/2022 8:00:00 AM 12.1 53.78 0.189 7.18 325.1 9.62
5/7/2022 8:15:00 AM 12.08 53.744 0.189 7.16 325.7 9.63
5/7/2022 8:30:00 AM 12.05 53.69 0.189 7.16 324.7 9.63
5/7/2022 8:45:00 AM 12.05 53.69 0.189 7.19 310.2 9.63
5/7/2022 9:00:00 AM 12.02 53.636